<?xml version="1.0" encoding="UTF-8" standalone="no" ?><gpx xmlns="http://www.topografix.com/GPX/1/1" xmlns:gpxx="http://www.garmin.com/xmlschemas/GpxExtensions/v3" xmlns:gpxtrkx="http://www.garmin.com/xmlschemas/TrackStatsExtension/v1" xmlns:wptx1="http://www.garmin.com/xmlschemas/WaypointExtension/v1" xmlns:gpxtpx="http://www.garmin.com/xmlschemas/TrackPointExtension/v1" creator="GPSMAP 65s" version="1.1" xmlns:xsi="http://www.w3.org/2001/XMLSchema-instance" xsi:schemaLocation="http://www.topografix.com/GPX/1/1 http://www.topografix.com/GPX/1/1/gpx.xsd http://www.garmin.com/xmlschemas/GpxExtensions/v3 http://www8.garmin.com/xmlschemas/GpxExtensionsv3.xsd http://www.garmin.com/xmlschemas/TrackStatsExtension/v1 http://www8.garmin.com/xmlschemas/TrackStatsExtension.xsd http://www.garmin.com/xmlschemas/WaypointExtension/v1 http://www8.garmin.com/xmlschemas/WaypointExtensionv1.xsd http://www.garmin.com/xmlschemas/TrackPointExtension/v1 http://www.garmin.com/xmlschemas/TrackPointExtensionv1.xsd"><metadata><link href="http://www.garmin.com"><text>Garmin International</text></link><time>2026-08-29T13:46:41Z</time></metadata><trk><name>2026-08-29 16:46:38</name><extensions><gpxx:TrackExtension><gpxx:DisplayColor>Magenta</gpxx:DisplayColor></gpxx:TrackExtension><gpxtrkx:TrackStatsExtension><gpxtrkx:Distance>12888.000</gpxtrkx:Distance><gpxtrkx:TotalElapsedTime>19497</gpxtrkx:TotalElapsedTime><gpxtrkx:MovingTime>9189</gpxtrkx:MovingTime><gpxtrkx:StoppedTime>10300</gpxtrkx:StoppedTime><gpxtrkx:MovingSpeed>1.403</gpxtrkx:MovingSpeed><gpxtrkx:MaxSpeed>3.290</gpxtrkx:MaxSpeed><gpxtrkx:MaxElevation>154.973</gpxtrkx:MaxElevation><gpxtrkx:MinElevation>75.223</gpxtrkx:MinElevation><gpxtrkx:Ascent>65.000</gpxtrkx:Ascent><gpxtrkx:Descent>65.256</gpxtrkx:Descent><gpxtrkx:AvgAscentRate>0.013</gpxtrkx:AvgAscentRate><gpxtrkx:MaxAscentRate>0.387</gpxtrkx:MaxAscentRate><gpxtrkx:AvgDescentRate>0.009</gpxtrkx:AvgDescentRate><gpxtrkx:MaxDescentRate>-0.200</gpxtrkx:MaxDescentRate></gpxtrkx:TrackStatsExtension></extensions><trkseg><trkpt lat="60.2680473402" lon="30.5136108957"><ele>154.97</ele><time>2026-08-29T08:21:44Z</time></trkpt><trkpt lat="60.2680475917" lon="30.5136111472"><ele>154.97</ele><time>2026-08-29T08:21:45Z</time></trkpt><trkpt lat="60.2680510283" lon="30.5136192776"><ele>79.20</ele><time>2026-08-29T08:21:49Z</time></trkpt><trkpt lat="60.2680507768" lon="30.5136178527"><ele>79.25</ele><time>2026-08-29T08:21:50Z</time></trkpt><trkpt lat="60.2680653613" lon="30.5137186870"><ele>79.01</ele><time>2026-08-29T08:22:04Z</time></trkpt><trkpt lat="60.2679729927" lon="30.5138488580"><ele>79.25</ele><time>2026-08-29T08:22:15Z</time></trkpt><trkpt lat="60.2679485176" lon="30.5139025860"><ele>80.31</ele><time>2026-08-29T08:22:22Z</time></trkpt><trkpt lat="60.2679193486" lon="30.5140519515"><ele>79.15</ele><time>2026-08-29T08:22:36Z</time></trkpt><trkpt lat="60.2678718232" lon="30.5141020752"><ele>79.98</ele><time>2026-08-29T08:22:44Z</time></trkpt><trkpt lat="60.2678122278" lon="30.5143154785"><ele>79.51</ele><time>2026-08-29T08:22:57Z</time></trkpt><trkpt lat="60.2677820530" lon="30.5144434702"><ele>79.62</ele><time>2026-08-29T08:23:10Z</time></trkpt><trkpt lat="60.2677810472" lon="30.5147906486"><ele>79.69</ele><time>2026-08-29T08:23:27Z</time></trkpt><trkpt lat="60.2677310910" lon="30.5149552692"><ele>79.45</ele><time>2026-08-29T08:23:41Z</time></trkpt><trkpt lat="60.2677177638" lon="30.5151084904"><ele>77.66</ele><time>2026-08-29T08:24:04Z</time></trkpt><trkpt lat="60.2677123994" lon="30.5152703449"><ele>79.08</ele><time>2026-08-29T08:24:19Z</time></trkpt><trkpt lat="60.2677228767" lon="30.5155440979"><ele>78.72</ele><time>2026-08-29T08:24:33Z</time></trkpt><trkpt lat="60.2677307557" lon="30.5158071220"><ele>79.00</ele><time>2026-08-29T08:24:47Z</time></trkpt><trkpt lat="60.2677480225" lon="30.5160380434"><ele>79.78</ele><time>2026-08-29T08:25:01Z</time></trkpt><trkpt lat="60.2677299175" lon="30.5163191725"><ele>78.68</ele><time>2026-08-29T08:25:18Z</time></trkpt><trkpt lat="60.2677431609" lon="30.5164982937"><ele>77.23</ele><time>2026-08-29T08:25:33Z</time></trkpt><trkpt lat="60.2677417360" lon="30.5165531114"><ele>76.70</ele><time>2026-08-29T08:26:00Z</time></trkpt><trkpt lat="60.2677704860" lon="30.5167697836"><ele>76.35</ele><time>2026-08-29T08:26:14Z</time></trkpt><trkpt lat="60.2677578293" lon="30.5167485774"><ele>76.33</ele><time>2026-08-29T08:26:33Z</time></trkpt><trkpt lat="60.2677575778" lon="30.5168139562"><ele>77.15</ele><time>2026-08-29T08:27:01Z</time></trkpt><trkpt lat="60.2676982339" lon="30.5166493356"><ele>76.70</ele><time>2026-08-29T08:27:23Z</time></trkpt><trkpt lat="60.2676372975" lon="30.5166954361"><ele>76.89</ele><time>2026-08-29T08:27:37Z</time></trkpt><trkpt lat="60.2676118165" lon="30.5167707894"><ele>76.49</ele><time>2026-08-29T08:27:54Z</time></trkpt><trkpt lat="60.2675846592" lon="30.5168342404"><ele>76.54</ele><time>2026-08-29T08:27:59Z</time></trkpt><trkpt lat="60.2675436717" lon="30.5168887228"><ele>76.39</ele><time>2026-08-29T08:28:03Z</time></trkpt><trkpt lat="60.2674843278" lon="30.5169286206"><ele>76.30</ele><time>2026-08-29T08:28:11Z</time></trkpt><trkpt lat="60.2674772870" lon="30.5168557819"><ele>76.73</ele><time>2026-08-29T08:28:23Z</time></trkpt><trkpt lat="60.2674238943" lon="30.5168679357"><ele>76.43</ele><time>2026-08-29T08:28:39Z</time></trkpt><trkpt lat="60.2674213797" lon="30.5168749765"><ele>76.46</ele><time>2026-08-29T08:28:40Z</time></trkpt><trkpt lat="60.2673334535" lon="30.5168156326"><ele>77.92</ele><time>2026-08-29T08:28:54Z</time></trkpt><trkpt lat="60.2672792226" lon="30.5168788321"><ele>77.30</ele><time>2026-08-29T08:29:07Z</time></trkpt><trkpt lat="60.2672199626" lon="30.5169765651"><ele>76.48</ele><time>2026-08-29T08:29:19Z</time></trkpt><trkpt lat="60.2671125904" lon="30.5171290319"><ele>76.68</ele><time>2026-08-29T08:29:33Z</time></trkpt><trkpt lat="60.2670496423" lon="30.5170534272"><ele>77.43</ele><time>2026-08-29T08:29:48Z</time></trkpt><trkpt lat="60.2669547591" lon="30.5172344763"><ele>76.87</ele><time>2026-08-29T08:29:59Z</time></trkpt><trkpt lat="60.2668957505" lon="30.5172423553"><ele>76.86</ele><time>2026-08-29T08:30:09Z</time></trkpt><trkpt lat="60.2668217383" lon="30.5172453728"><ele>76.98</ele><time>2026-08-29T08:30:18Z</time></trkpt><trkpt lat="60.2667450439" lon="30.5172676686"><ele>76.95</ele><time>2026-08-29T08:30:33Z</time></trkpt><trkpt lat="60.2666894719" lon="30.5172112584"><ele>77.90</ele><time>2026-08-29T08:30:47Z</time></trkpt><trkpt lat="60.2666369174" lon="30.5171353184"><ele>78.11</ele><time>2026-08-29T08:31:02Z</time></trkpt><trkpt lat="60.2665420342" lon="30.5171662476"><ele>77.63</ele><time>2026-08-29T08:31:21Z</time></trkpt><trkpt lat="60.2664841991" lon="30.5172027927"><ele>77.40</ele><time>2026-08-29T08:31:37Z</time></trkpt><trkpt lat="60.2663067542" lon="30.5172345601"><ele>77.46</ele><time>2026-08-29T08:31:53Z</time></trkpt><trkpt lat="60.2662985399" lon="30.5172118451"><ele>78.33</ele><time>2026-08-29T08:32:09Z</time></trkpt><trkpt lat="60.2663118672" lon="30.5172805768"><ele>78.59</ele><time>2026-08-29T08:32:42Z</time></trkpt><trkpt lat="60.2662647609" lon="30.5171761382"><ele>78.96</ele><time>2026-08-29T08:33:07Z</time></trkpt><trkpt lat="60.2662150562" lon="30.5172065645"><ele>78.73</ele><time>2026-08-29T08:33:22Z</time></trkpt><trkpt lat="60.2661567181" lon="30.5172632262"><ele>78.46</ele><time>2026-08-29T08:33:35Z</time></trkpt><trkpt lat="60.2661559638" lon="30.5173428543"><ele>78.02</ele><time>2026-08-29T08:33:48Z</time></trkpt><trkpt lat="60.2661130484" lon="30.5173812434"><ele>77.21</ele><time>2026-08-29T08:33:54Z</time></trkpt><trkpt lat="60.2660314925" lon="30.5174360611"><ele>77.93</ele><time>2026-08-29T08:34:07Z</time></trkpt><trkpt lat="60.2659495175" lon="30.5175436847"><ele>77.34</ele><time>2026-08-29T08:34:19Z</time></trkpt><trkpt lat="60.2658760920" lon="30.5176633783"><ele>77.19</ele><time>2026-08-29T08:34:32Z</time></trkpt><trkpt lat="60.2658342663" lon="30.5177376419"><ele>77.21</ele><time>2026-08-29T08:34:40Z</time></trkpt><trkpt lat="60.2657427359" lon="30.5176398251"><ele>77.12</ele><time>2026-08-29T08:34:52Z</time></trkpt><trkpt lat="60.2656676341" lon="30.5176122487"><ele>77.48</ele><time>2026-08-29T08:35:04Z</time></trkpt><trkpt lat="60.2656131517" lon="30.5174808204"><ele>77.03</ele><time>2026-08-29T08:35:17Z</time></trkpt><trkpt lat="60.2654965594" lon="30.5174469575"><ele>77.31</ele><time>2026-08-29T08:35:33Z</time></trkpt><trkpt lat="60.2654860821" lon="30.5174038745"><ele>77.43</ele><time>2026-08-29T08:35:36Z</time></trkpt><trkpt lat="60.2654895186" lon="30.5172941554"><ele>77.45</ele><time>2026-08-29T08:35:42Z</time></trkpt><trkpt lat="60.2654062863" lon="30.5171351507"><ele>77.27</ele><time>2026-08-29T08:35:56Z</time></trkpt><trkpt lat="60.2653818950" lon="30.5171254277"><ele>77.26</ele><time>2026-08-29T08:35:59Z</time></trkpt><trkpt lat="60.2653439250" lon="30.5170394294"><ele>77.13</ele><time>2026-08-29T08:36:05Z</time></trkpt><trkpt lat="60.2652697451" lon="30.5167762376"><ele>77.50</ele><time>2026-08-29T08:36:19Z</time></trkpt><trkpt lat="60.2652708348" lon="30.5168055743"><ele>77.48</ele><time>2026-08-29T08:36:25Z</time></trkpt><trkpt lat="60.2652548254" lon="30.5167701188"><ele>77.39</ele><time>2026-08-29T08:36:28Z</time></trkpt><trkpt lat="60.2651937213" lon="30.5166144669"><ele>78.47</ele><time>2026-08-29T08:36:42Z</time></trkpt><trkpt lat="60.2651437651" lon="30.5164529476"><ele>77.84</ele><time>2026-08-29T08:36:57Z</time></trkpt><trkpt lat="60.2650695853" lon="30.5163513590"><ele>78.55</ele><time>2026-08-29T08:37:16Z</time></trkpt><trkpt lat="60.2650002670" lon="30.5162274744"><ele>78.03</ele><time>2026-08-29T08:37:28Z</time></trkpt><trkpt lat="60.2650134265" lon="30.5162048433"><ele>77.77</ele><time>2026-08-29T08:37:45Z</time></trkpt><trkpt lat="60.2650324535" lon="30.5161919352"><ele>76.53</ele><time>2026-08-29T08:38:06Z</time></trkpt><trkpt lat="60.2650010213" lon="30.5162093695"><ele>77.44</ele><time>2026-08-29T08:38:25Z</time></trkpt><trkpt lat="60.2650267538" lon="30.5161878280"><ele>77.79</ele><time>2026-08-29T08:38:58Z</time></trkpt><trkpt lat="60.2650784701" lon="30.5161215272"><ele>78.66</ele><time>2026-08-29T08:39:11Z</time></trkpt><trkpt lat="60.2651421726" lon="30.5160186812"><ele>79.14</ele><time>2026-08-29T08:39:25Z</time></trkpt><trkpt lat="60.2651273366" lon="30.5160243809"><ele>79.32</ele><time>2026-08-29T08:40:01Z</time></trkpt><trkpt lat="60.2651077230" lon="30.5159529671"><ele>79.45</ele><time>2026-08-29T08:40:22Z</time></trkpt><trkpt lat="60.2651593555" lon="30.5157771986"><ele>79.92</ele><time>2026-08-29T08:40:35Z</time></trkpt><trkpt lat="60.2651724312" lon="30.5156756099"><ele>79.85</ele><time>2026-08-29T08:40:48Z</time></trkpt><trkpt lat="60.2652450185" lon="30.5154824909"><ele>80.39</ele><time>2026-08-29T08:41:02Z</time></trkpt><trkpt lat="60.2652631234" lon="30.5154723488"><ele>80.49</ele><time>2026-08-29T08:41:19Z</time></trkpt><trkpt lat="60.2653071284" lon="30.5153060518"><ele>80.73</ele><time>2026-08-29T08:41:33Z</time></trkpt><trkpt lat="60.2653680649" lon="30.5152543355"><ele>80.61</ele><time>2026-08-29T08:41:58Z</time></trkpt><trkpt lat="60.2653325256" lon="30.5153956544"><ele>80.25</ele><time>2026-08-29T08:42:18Z</time></trkpt><trkpt lat="60.2652434260" lon="30.5155981611"><ele>80.02</ele><time>2026-08-29T08:42:37Z</time></trkpt><trkpt lat="60.2651501354" lon="30.5158360396"><ele>80.26</ele><time>2026-08-29T08:42:51Z</time></trkpt><trkpt lat="60.2650395781" lon="30.5158837326"><ele>79.92</ele><time>2026-08-29T08:43:05Z</time></trkpt><trkpt lat="60.2649359778" lon="30.5158931203"><ele>78.78</ele><time>2026-08-29T08:43:19Z</time></trkpt><trkpt lat="60.2648718562" lon="30.5158722494"><ele>78.72</ele><time>2026-08-29T08:43:35Z</time></trkpt><trkpt lat="60.2647703514" lon="30.5158452597"><ele>78.34</ele><time>2026-08-29T08:43:47Z</time></trkpt><trkpt lat="60.2647662442" lon="30.5158511270"><ele>78.69</ele><time>2026-08-29T08:43:49Z</time></trkpt><trkpt lat="60.2646695171" lon="30.5159029271"><ele>77.67</ele><time>2026-08-29T08:44:02Z</time></trkpt><trkpt lat="60.2646192256" lon="30.5158369616"><ele>77.47</ele><time>2026-08-29T08:44:08Z</time></trkpt><trkpt lat="60.2646019589" lon="30.5157573335"><ele>77.69</ele><time>2026-08-29T08:44:12Z</time></trkpt><trkpt lat="60.2644896414" lon="30.5155358836"><ele>78.72</ele><time>2026-08-29T08:44:26Z</time></trkpt><trkpt lat="60.2644293755" lon="30.5155278370"><ele>78.68</ele><time>2026-08-29T08:44:34Z</time></trkpt><trkpt lat="60.2643568721" lon="30.5153822433"><ele>77.94</ele><time>2026-08-29T08:44:49Z</time></trkpt><trkpt lat="60.2644571196" lon="30.5152158625"><ele>78.31</ele><time>2026-08-29T08:45:02Z</time></trkpt><trkpt lat="60.2644770686" lon="30.5151999369"><ele>79.00</ele><time>2026-08-29T08:45:03Z</time></trkpt><trkpt lat="60.2645046450" lon="30.5149794929"><ele>78.95</ele><time>2026-08-29T08:45:16Z</time></trkpt><trkpt lat="60.2644478995" lon="30.5149197299"><ele>78.81</ele><time>2026-08-29T08:45:23Z</time></trkpt><trkpt lat="60.2643554471" lon="30.5148585420"><ele>78.88</ele><time>2026-08-29T08:45:34Z</time></trkpt><trkpt lat="60.2642718796" lon="30.5148614757"><ele>79.10</ele><time>2026-08-29T08:45:48Z</time></trkpt><trkpt lat="60.2641771641" lon="30.5148390960"><ele>78.20</ele><time>2026-08-29T08:45:59Z</time></trkpt><trkpt lat="60.2641218435" lon="30.5148307979"><ele>78.24</ele><time>2026-08-29T08:46:15Z</time></trkpt><trkpt lat="60.2640387788" lon="30.5148425326"><ele>78.58</ele><time>2026-08-29T08:46:28Z</time></trkpt><trkpt lat="60.2639619168" lon="30.5148227513"><ele>78.49</ele><time>2026-08-29T08:46:40Z</time></trkpt><trkpt lat="60.2638857253" lon="30.5148046464"><ele>78.56</ele><time>2026-08-29T08:46:52Z</time></trkpt><trkpt lat="60.2637778502" lon="30.5147826858"><ele>78.19</ele><time>2026-08-29T08:47:03Z</time></trkpt><trkpt lat="60.2637031674" lon="30.5146736372"><ele>77.92</ele><time>2026-08-29T08:47:14Z</time></trkpt><trkpt lat="60.2636988927" lon="30.5146629084"><ele>79.37</ele><time>2026-08-29T08:47:15Z</time></trkpt><trkpt lat="60.2636839729" lon="30.5145147163"><ele>79.91</ele><time>2026-08-29T08:47:28Z</time></trkpt><trkpt lat="60.2637168299" lon="30.5144852959"><ele>79.88</ele><time>2026-08-29T08:48:04Z</time></trkpt><trkpt lat="60.2636728249" lon="30.5144924205"><ele>78.97</ele><time>2026-08-29T08:48:35Z</time></trkpt><trkpt lat="60.2636552230" lon="30.5145765748"><ele>78.53</ele><time>2026-08-29T08:48:50Z</time></trkpt><trkpt lat="60.2636180911" lon="30.5148623977"><ele>78.38</ele><time>2026-08-29T08:49:04Z</time></trkpt><trkpt lat="60.2634982299" lon="30.5150379986"><ele>78.43</ele><time>2026-08-29T08:49:18Z</time></trkpt><trkpt lat="60.2634125669" lon="30.5151386652"><ele>78.53</ele><time>2026-08-29T08:49:30Z</time></trkpt><trkpt lat="60.2633315977" lon="30.5150873680"><ele>78.76</ele><time>2026-08-29T08:49:42Z</time></trkpt><trkpt lat="60.2632746845" lon="30.5150686763"><ele>78.93</ele><time>2026-08-29T08:49:48Z</time></trkpt><trkpt lat="60.2631634567" lon="30.5151561834"><ele>79.69</ele><time>2026-08-29T08:50:01Z</time></trkpt><trkpt lat="60.2630500495" lon="30.5151186325"><ele>78.75</ele><time>2026-08-29T08:50:15Z</time></trkpt><trkpt lat="60.2629720978" lon="30.5151243322"><ele>78.56</ele><time>2026-08-29T08:50:28Z</time></trkpt><trkpt lat="60.2629296854" lon="30.5153148528"><ele>78.82</ele><time>2026-08-29T08:50:41Z</time></trkpt><trkpt lat="60.2628415916" lon="30.5152136832"><ele>78.92</ele><time>2026-08-29T08:50:53Z</time></trkpt><trkpt lat="60.2627687529" lon="30.5152413435"><ele>79.64</ele><time>2026-08-29T08:51:05Z</time></trkpt><trkpt lat="60.2627046313" lon="30.5153834168"><ele>79.60</ele><time>2026-08-29T08:51:19Z</time></trkpt><trkpt lat="60.2626679186" lon="30.5153932236"><ele>78.65</ele><time>2026-08-29T08:51:33Z</time></trkpt><trkpt lat="60.2626512386" lon="30.5153777171"><ele>78.90</ele><time>2026-08-29T08:51:36Z</time></trkpt><trkpt lat="60.2625804115" lon="30.5153536610"><ele>79.79</ele><time>2026-08-29T08:51:52Z</time></trkpt><trkpt lat="60.2625675872" lon="30.5151202250"><ele>79.73</ele><time>2026-08-29T08:52:02Z</time></trkpt><trkpt lat="60.2625449561" lon="30.5151712708"><ele>78.82</ele><time>2026-08-29T08:52:19Z</time></trkpt><trkpt lat="60.2625695989" lon="30.5153048784"><ele>78.98</ele><time>2026-08-29T08:52:31Z</time></trkpt><trkpt lat="60.2624614723" lon="30.5153075606"><ele>79.64</ele><time>2026-08-29T08:52:44Z</time></trkpt><trkpt lat="60.2624161262" lon="30.5153633840"><ele>78.84</ele><time>2026-08-29T08:52:56Z</time></trkpt><trkpt lat="60.2624029666" lon="30.5154865980"><ele>78.71</ele><time>2026-08-29T08:53:08Z</time></trkpt><trkpt lat="60.2623074967" lon="30.5155891925"><ele>78.62</ele><time>2026-08-29T08:53:24Z</time></trkpt><trkpt lat="60.2622487396" lon="30.5155360512"><ele>79.08</ele><time>2026-08-29T08:53:31Z</time></trkpt><trkpt lat="60.2621776611" lon="30.5154812336"><ele>79.47</ele><time>2026-08-29T08:53:44Z</time></trkpt><trkpt lat="60.2621506713" lon="30.5155026913"><ele>79.41</ele><time>2026-08-29T08:54:22Z</time></trkpt><trkpt lat="60.2621262800" lon="30.5155030265"><ele>79.48</ele><time>2026-08-29T08:54:51Z</time></trkpt><trkpt lat="60.2621287946" lon="30.5155011825"><ele>79.36</ele><time>2026-08-29T08:54:53Z</time></trkpt><trkpt lat="60.2621054929" lon="30.5153167807"><ele>79.74</ele><time>2026-08-29T08:55:08Z</time></trkpt><trkpt lat="60.2619967796" lon="30.5152364820"><ele>79.83</ele><time>2026-08-29T08:55:20Z</time></trkpt><trkpt lat="60.2619801834" lon="30.5152577721"><ele>80.44</ele><time>2026-08-29T08:55:45Z</time></trkpt><trkpt lat="60.2619447280" lon="30.5153060518"><ele>79.82</ele><time>2026-08-29T08:56:12Z</time></trkpt><trkpt lat="60.2619280480" lon="30.5153127573"><ele>80.46</ele><time>2026-08-29T08:56:52Z</time></trkpt><trkpt lat="60.2619673591" lon="30.5152853485"><ele>81.09</ele><time>2026-08-29T08:57:45Z</time></trkpt><trkpt lat="60.2618703805" lon="30.5151129328"><ele>80.39</ele><time>2026-08-29T08:58:03Z</time></trkpt><trkpt lat="60.2618596517" lon="30.5149630643"><ele>81.70</ele><time>2026-08-29T08:58:22Z</time></trkpt><trkpt lat="60.2619948518" lon="30.5151274335"><ele>80.83</ele><time>2026-08-29T08:58:37Z</time></trkpt><trkpt lat="60.2621013857" lon="30.5152080674"><ele>80.45</ele><time>2026-08-29T08:58:50Z</time></trkpt><trkpt lat="60.2622479852" lon="30.5151974224"><ele>80.97</ele><time>2026-08-29T08:59:05Z</time></trkpt><trkpt lat="60.2622761484" lon="30.5152006913"><ele>81.55</ele><time>2026-08-29T08:59:07Z</time></trkpt><trkpt lat="60.2623602189" lon="30.5151806585"><ele>80.28</ele><time>2026-08-29T08:59:13Z</time></trkpt><trkpt lat="60.2624063194" lon="30.5151553452"><ele>79.70</ele><time>2026-08-29T08:59:19Z</time></trkpt><trkpt lat="60.2624900546" lon="30.5151108373"><ele>80.40</ele><time>2026-08-29T08:59:32Z</time></trkpt><trkpt lat="60.2625063155" lon="30.5151167884"><ele>79.12</ele><time>2026-08-29T08:59:49Z</time></trkpt><trkpt lat="60.2624789905" lon="30.5150093324"><ele>80.14</ele><time>2026-08-29T09:00:09Z</time></trkpt><trkpt lat="60.2623865381" lon="30.5149521679"><ele>80.30</ele><time>2026-08-29T09:00:20Z</time></trkpt><trkpt lat="60.2622920740" lon="30.5148035567"><ele>80.22</ele><time>2026-08-29T09:00:35Z</time></trkpt><trkpt lat="60.2621830255" lon="30.5146201607"><ele>80.43</ele><time>2026-08-29T09:00:47Z</time></trkpt><trkpt lat="60.2621552814" lon="30.5145464838"><ele>81.50</ele><time>2026-08-29T09:00:52Z</time></trkpt><trkpt lat="60.2620889805" lon="30.5145076755"><ele>80.63</ele><time>2026-08-29T09:01:10Z</time></trkpt><trkpt lat="60.2619288024" lon="30.5144816916"><ele>81.02</ele><time>2026-08-29T09:01:25Z</time></trkpt><trkpt lat="60.2618547902" lon="30.5145140458"><ele>80.91</ele><time>2026-08-29T09:01:44Z</time></trkpt><trkpt lat="60.2617381979" lon="30.5145623256"><ele>80.67</ele><time>2026-08-29T09:02:00Z</time></trkpt><trkpt lat="60.2616344299" lon="30.5146479048"><ele>80.68</ele><time>2026-08-29T09:02:16Z</time></trkpt><trkpt lat="60.2615330927" lon="30.5147100985"><ele>80.85</ele><time>2026-08-29T09:02:29Z</time></trkpt><trkpt lat="60.2614505310" lon="30.5146954302"><ele>81.07</ele><time>2026-08-29T09:02:41Z</time></trkpt><trkpt lat="60.2614387963" lon="30.5147070810"><ele>80.89</ele><time>2026-08-29T09:02:59Z</time></trkpt><trkpt lat="60.2614123933" lon="30.5149017926"><ele>81.56</ele><time>2026-08-29T09:03:10Z</time></trkpt><trkpt lat="60.2613908518" lon="30.5148996972"><ele>81.27</ele><time>2026-08-29T09:03:34Z</time></trkpt><trkpt lat="60.2613587491" lon="30.5148980208"><ele>81.10</ele><time>2026-08-29T09:03:59Z</time></trkpt><trkpt lat="60.2612801269" lon="30.5148352403"><ele>81.60</ele><time>2026-08-29T09:04:19Z</time></trkpt><trkpt lat="60.2612430789" lon="30.5147566181"><ele>81.39</ele><time>2026-08-29T09:04:36Z</time></trkpt><trkpt lat="60.2611606847" lon="30.5146625731"><ele>81.91</ele><time>2026-08-29T09:04:50Z</time></trkpt><trkpt lat="60.2610912826" lon="30.5145352520"><ele>82.08</ele><time>2026-08-29T09:05:07Z</time></trkpt><trkpt lat="60.2610304300" lon="30.5143037438"><ele>81.58</ele><time>2026-08-29T09:05:19Z</time></trkpt><trkpt lat="60.2609842457" lon="30.5141739082"><ele>81.67</ele><time>2026-08-29T09:05:29Z</time></trkpt><trkpt lat="60.2609221358" lon="30.5140374508"><ele>82.06</ele><time>2026-08-29T09:05:41Z</time></trkpt><trkpt lat="60.2608254924" lon="30.5139149912"><ele>81.27</ele><time>2026-08-29T09:05:54Z</time></trkpt><trkpt lat="60.2607915457" lon="30.5137550645"><ele>81.81</ele><time>2026-08-29T09:06:07Z</time></trkpt><trkpt lat="60.2607301902" lon="30.5136700720"><ele>81.56</ele><time>2026-08-29T09:06:16Z</time></trkpt><trkpt lat="60.2607496362" lon="30.5134709179"><ele>82.13</ele><time>2026-08-29T09:06:29Z</time></trkpt><trkpt lat="60.2606319543" lon="30.5132406671"><ele>81.52</ele><time>2026-08-29T09:06:48Z</time></trkpt><trkpt lat="60.2605916373" lon="30.5132076424"><ele>82.03</ele><time>2026-08-29T09:07:09Z</time></trkpt><trkpt lat="60.2605642285" lon="30.5131792277"><ele>80.99</ele><time>2026-08-29T09:07:49Z</time></trkpt><trkpt lat="60.2604709379" lon="30.5131287687"><ele>80.83</ele><time>2026-08-29T09:08:01Z</time></trkpt><trkpt lat="60.2603879571" lon="30.5130890384"><ele>81.58</ele><time>2026-08-29T09:08:09Z</time></trkpt><trkpt lat="60.2603476401" lon="30.5129537545"><ele>81.65</ele><time>2026-08-29T09:08:19Z</time></trkpt><trkpt lat="60.2603340615" lon="30.5128533393"><ele>81.40</ele><time>2026-08-29T09:08:24Z</time></trkpt><trkpt lat="60.2602657489" lon="30.5127582885"><ele>80.67</ele><time>2026-08-29T09:08:35Z</time></trkpt><trkpt lat="60.2602183912" lon="30.5126271956"><ele>81.18</ele><time>2026-08-29T09:08:48Z</time></trkpt><trkpt lat="60.2601538505" lon="30.5125520937"><ele>81.14</ele><time>2026-08-29T09:08:57Z</time></trkpt><trkpt lat="60.2600138728" lon="30.5125427898"><ele>81.28</ele><time>2026-08-29T09:09:11Z</time></trkpt><trkpt lat="60.2599959355" lon="30.5125634931"><ele>81.35</ele><time>2026-08-29T09:09:13Z</time></trkpt><trkpt lat="60.2598986216" lon="30.5125805922"><ele>81.16</ele><time>2026-08-29T09:09:26Z</time></trkpt><trkpt lat="60.2598023973" lon="30.5125540216"><ele>81.78</ele><time>2026-08-29T09:09:35Z</time></trkpt><trkpt lat="60.2596820332" lon="30.5125335697"><ele>81.92</ele><time>2026-08-29T09:09:49Z</time></trkpt><trkpt lat="60.2596076857" lon="30.5124008842"><ele>81.76</ele><time>2026-08-29T09:10:06Z</time></trkpt><trkpt lat="60.2595224418" lon="30.5124383513"><ele>81.08</ele><time>2026-08-29T09:10:23Z</time></trkpt><trkpt lat="60.2594301570" lon="30.5123363435"><ele>81.64</ele><time>2026-08-29T09:10:36Z</time></trkpt><trkpt lat="60.2593647782" lon="30.5122459866"><ele>81.73</ele><time>2026-08-29T09:10:44Z</time></trkpt><trkpt lat="60.2593043447" lon="30.5121722259"><ele>81.35</ele><time>2026-08-29T09:10:59Z</time></trkpt><trkpt lat="60.2593077812" lon="30.5122268759"><ele>81.39</ele><time>2026-08-29T09:11:17Z</time></trkpt><trkpt lat="60.2592983935" lon="30.5122952722"><ele>82.09</ele><time>2026-08-29T09:11:48Z</time></trkpt><trkpt lat="60.2592996508" lon="30.5122654326"><ele>81.33</ele><time>2026-08-29T09:11:55Z</time></trkpt><trkpt lat="60.2592681348" lon="30.5124453921"><ele>81.93</ele><time>2026-08-29T09:12:07Z</time></trkpt><trkpt lat="60.2592626866" lon="30.5126862880"><ele>81.54</ele><time>2026-08-29T09:12:21Z</time></trkpt><trkpt lat="60.2591785323" lon="30.5129000265"><ele>82.37</ele><time>2026-08-29T09:12:36Z</time></trkpt><trkpt lat="60.2591254748" lon="30.5130765494"><ele>81.78</ele><time>2026-08-29T09:12:50Z</time></trkpt><trkpt lat="60.2590962220" lon="30.5131847598"><ele>82.37</ele><time>2026-08-29T09:12:56Z</time></trkpt><trkpt lat="60.2590810508" lon="30.5132330395"><ele>81.68</ele><time>2026-08-29T09:12:58Z</time></trkpt><trkpt lat="60.2590711601" lon="30.5134820659"><ele>82.04</ele><time>2026-08-29T09:13:12Z</time></trkpt><trkpt lat="60.2590313461" lon="30.5135264900"><ele>81.99</ele><time>2026-08-29T09:13:17Z</time></trkpt><trkpt lat="60.2589813899" lon="30.5138060264"><ele>82.06</ele><time>2026-08-29T09:13:32Z</time></trkpt><trkpt lat="60.2589340322" lon="30.5139896739"><ele>81.64</ele><time>2026-08-29T09:13:45Z</time></trkpt><trkpt lat="60.2588822320" lon="30.5142719764"><ele>81.87</ele><time>2026-08-29T09:13:59Z</time></trkpt><trkpt lat="60.2588107344" lon="30.5144477449"><ele>81.82</ele><time>2026-08-29T09:14:14Z</time></trkpt><trkpt lat="60.2588155959" lon="30.5144498404"><ele>82.42</ele><time>2026-08-29T09:14:42Z</time></trkpt><trkpt lat="60.2588153444" lon="30.5144898221"><ele>81.99</ele><time>2026-08-29T09:15:04Z</time></trkpt><trkpt lat="60.2587886900" lon="30.5144897383"><ele>81.75</ele><time>2026-08-29T09:15:37Z</time></trkpt><trkpt lat="60.2586660627" lon="30.5145082623"><ele>80.83</ele><time>2026-08-29T09:15:54Z</time></trkpt><trkpt lat="60.2586041205" lon="30.5144536961"><ele>80.81</ele><time>2026-08-29T09:16:07Z</time></trkpt><trkpt lat="60.2586064674" lon="30.5143664405"><ele>81.14</ele><time>2026-08-29T09:16:19Z</time></trkpt><trkpt lat="60.2585895360" lon="30.5142444000"><ele>81.48</ele><time>2026-08-29T09:16:32Z</time></trkpt><trkpt lat="60.2585869376" lon="30.5142127164"><ele>81.29</ele><time>2026-08-29T09:16:55Z</time></trkpt><trkpt lat="60.2586045396" lon="30.5142823700"><ele>81.61</ele><time>2026-08-29T09:17:29Z</time></trkpt><trkpt lat="60.2585799806" lon="30.5142814480"><ele>80.71</ele><time>2026-08-29T09:17:41Z</time></trkpt><trkpt lat="60.2585140988" lon="30.5141426437"><ele>80.47</ele><time>2026-08-29T09:17:56Z</time></trkpt><trkpt lat="60.2584999334" lon="30.5140097905"><ele>80.86</ele><time>2026-08-29T09:18:07Z</time></trkpt><trkpt lat="60.2585067227" lon="30.5139931943"><ele>80.69</ele><time>2026-08-29T09:18:09Z</time></trkpt><trkpt lat="60.2584302798" lon="30.5138692260"><ele>81.08</ele><time>2026-08-29T09:18:23Z</time></trkpt><trkpt lat="60.2583887894" lon="30.5138269812"><ele>80.89</ele><time>2026-08-29T09:18:28Z</time></trkpt><trkpt lat="60.2583418507" lon="30.5137441680"><ele>80.48</ele><time>2026-08-29T09:18:36Z</time></trkpt><trkpt lat="60.2582786512" lon="30.5135921203"><ele>80.71</ele><time>2026-08-29T09:18:46Z</time></trkpt><trkpt lat="60.2582738735" lon="30.5134699959"><ele>80.74</ele><time>2026-08-29T09:18:54Z</time></trkpt><trkpt lat="60.2582346462" lon="30.5134651344"><ele>80.52</ele><time>2026-08-29T09:19:09Z</time></trkpt><trkpt lat="60.2582148649" lon="30.5134153459"><ele>80.73</ele><time>2026-08-29T09:19:21Z</time></trkpt><trkpt lat="60.2582146134" lon="30.5132574309"><ele>80.75</ele><time>2026-08-29T09:19:35Z</time></trkpt><trkpt lat="60.2581113484" lon="30.5130165350"><ele>80.44</ele><time>2026-08-29T09:19:48Z</time></trkpt><trkpt lat="60.2580927406" lon="30.5130132660"><ele>80.37</ele><time>2026-08-29T09:19:51Z</time></trkpt><trkpt lat="60.2579862066" lon="30.5129882041"><ele>79.92</ele><time>2026-08-29T09:20:01Z</time></trkpt><trkpt lat="60.2579253539" lon="30.5129220709"><ele>81.21</ele><time>2026-08-29T09:20:15Z</time></trkpt><trkpt lat="60.2579055727" lon="30.5128849391"><ele>82.49</ele><time>2026-08-29T09:20:18Z</time></trkpt><trkpt lat="60.2578587178" lon="30.5128677562"><ele>80.31</ele><time>2026-08-29T09:20:22Z</time></trkpt><trkpt lat="60.2577638347" lon="30.5128624756"><ele>80.36</ele><time>2026-08-29T09:20:35Z</time></trkpt><trkpt lat="60.2577326540" lon="30.5128222425"><ele>80.39</ele><time>2026-08-29T09:20:45Z</time></trkpt><trkpt lat="60.2577068377" lon="30.5126843601"><ele>81.08</ele><time>2026-08-29T09:21:07Z</time></trkpt><trkpt lat="60.2577025630" lon="30.5126501620"><ele>80.43</ele><time>2026-08-29T09:21:50Z</time></trkpt><trkpt lat="60.2577180695" lon="30.5126169696"><ele>79.87</ele><time>2026-08-29T09:22:12Z</time></trkpt><trkpt lat="60.2577493340" lon="30.5125546921"><ele>80.86</ele><time>2026-08-29T09:22:42Z</time></trkpt><trkpt lat="60.2578015532" lon="30.5123971961"><ele>81.36</ele><time>2026-08-29T09:22:50Z</time></trkpt><trkpt lat="60.2578936704" lon="30.5122683663"><ele>81.54</ele><time>2026-08-29T09:23:02Z</time></trkpt><trkpt lat="60.2579330653" lon="30.5121508520"><ele>81.54</ele><time>2026-08-29T09:23:18Z</time></trkpt><trkpt lat="60.2580286190" lon="30.5119937751"><ele>81.11</ele><time>2026-08-29T09:23:34Z</time></trkpt><trkpt lat="60.2580711991" lon="30.5117898434"><ele>82.12</ele><time>2026-08-29T09:23:48Z</time></trkpt><trkpt lat="60.2581356559" lon="30.5116774421"><ele>82.25</ele><time>2026-08-29T09:24:04Z</time></trkpt><trkpt lat="60.2581888810" lon="30.5116441660"><ele>81.66</ele><time>2026-08-29T09:24:20Z</time></trkpt><trkpt lat="60.2582193911" lon="30.5115422420"><ele>82.53</ele><time>2026-08-29T09:24:32Z</time></trkpt><trkpt lat="60.2582339756" lon="30.5114835687"><ele>82.40</ele><time>2026-08-29T09:24:47Z</time></trkpt><trkpt lat="60.2582316287" lon="30.5115249753"><ele>82.29</ele><time>2026-08-29T09:25:23Z</time></trkpt><trkpt lat="60.2582222410" lon="30.5115377996"><ele>81.47</ele><time>2026-08-29T09:25:50Z</time></trkpt><trkpt lat="60.2582263481" lon="30.5115356203"><ele>81.51</ele><time>2026-08-29T09:26:05Z</time></trkpt><trkpt lat="60.2582810819" lon="30.5114848260"><ele>81.45</ele><time>2026-08-29T09:26:09Z</time></trkpt><trkpt lat="60.2583319601" lon="30.5115026794"><ele>81.56</ele><time>2026-08-29T09:26:17Z</time></trkpt><trkpt lat="60.2583884541" lon="30.5114797968"><ele>81.35</ele><time>2026-08-29T09:26:22Z</time></trkpt><trkpt lat="60.2584075648" lon="30.5114579201"><ele>81.45</ele><time>2026-08-29T09:26:24Z</time></trkpt><trkpt lat="60.2584720217" lon="30.5113510508"><ele>81.77</ele><time>2026-08-29T09:26:37Z</time></trkpt><trkpt lat="60.2585535776" lon="30.5111128371"><ele>81.91</ele><time>2026-08-29T09:26:51Z</time></trkpt><trkpt lat="60.2585697547" lon="30.5110362265"><ele>81.78</ele><time>2026-08-29T09:26:58Z</time></trkpt><trkpt lat="60.2586474549" lon="30.5109361466"><ele>81.65</ele><time>2026-08-29T09:27:07Z</time></trkpt><trkpt lat="60.2587196231" lon="30.5108393356"><ele>81.77</ele><time>2026-08-29T09:27:19Z</time></trkpt><trkpt lat="60.2588265762" lon="30.5106477253"><ele>81.63</ele><time>2026-08-29T09:27:33Z</time></trkpt><trkpt lat="60.2588267438" lon="30.5106094200"><ele>81.71</ele><time>2026-08-29T09:27:34Z</time></trkpt><trkpt lat="60.2588403225" lon="30.5105768982"><ele>81.69</ele><time>2026-08-29T09:27:37Z</time></trkpt><trkpt lat="60.2589456830" lon="30.5105076637"><ele>81.47</ele><time>2026-08-29T09:27:48Z</time></trkpt><trkpt lat="60.2589900233" lon="30.5105048139"><ele>81.53</ele><time>2026-08-29T09:27:54Z</time></trkpt><trkpt lat="60.2589969803" lon="30.5104059912"><ele>81.46</ele><time>2026-08-29T09:28:01Z</time></trkpt><trkpt lat="60.2589972317" lon="30.5103967711"><ele>81.21</ele><time>2026-08-29T09:28:14Z</time></trkpt><trkpt lat="60.2590074576" lon="30.5104010459"><ele>81.30</ele><time>2026-08-29T09:28:39Z</time></trkpt><trkpt lat="60.2590144984" lon="30.5104055721"><ele>81.26</ele><time>2026-08-29T09:29:09Z</time></trkpt><trkpt lat="60.2590347826" lon="30.5103915744"><ele>81.09</ele><time>2026-08-29T09:29:21Z</time></trkpt><trkpt lat="60.2590322681" lon="30.5103724636"><ele>81.87</ele><time>2026-08-29T09:29:48Z</time></trkpt><trkpt lat="60.2590236347" lon="30.5103892274"><ele>81.28</ele><time>2026-08-29T09:30:11Z</time></trkpt><trkpt lat="60.2590276580" lon="30.5104054883"><ele>81.26</ele><time>2026-08-29T09:30:51Z</time></trkpt><trkpt lat="60.2590099722" lon="30.5104309693"><ele>81.90</ele><time>2026-08-29T09:31:18Z</time></trkpt><trkpt lat="60.2590467688" lon="30.5104531813"><ele>81.94</ele><time>2026-08-29T09:31:26Z</time></trkpt><trkpt lat="60.2590655442" lon="30.5104574561"><ele>81.24</ele><time>2026-08-29T09:31:40Z</time></trkpt><trkpt lat="60.2590743452" lon="30.5105039757"><ele>81.28</ele><time>2026-08-29T09:32:11Z</time></trkpt><trkpt lat="60.2590707410" lon="30.5107119307"><ele>81.22</ele><time>2026-08-29T09:32:22Z</time></trkpt><trkpt lat="60.2590909414" lon="30.5106764752"><ele>81.06</ele><time>2026-08-29T09:32:47Z</time></trkpt><trkpt lat="60.2590705734" lon="30.5106880423"><ele>80.91</ele><time>2026-08-29T09:33:14Z</time></trkpt><trkpt lat="60.2590693999" lon="30.5106693506"><ele>81.73</ele><time>2026-08-29T09:33:38Z</time></trkpt><trkpt lat="60.2590066195" lon="30.5107267667"><ele>81.04</ele><time>2026-08-29T09:33:54Z</time></trkpt><trkpt lat="60.2589357924" lon="30.5107355677"><ele>80.69</ele><time>2026-08-29T09:34:08Z</time></trkpt><trkpt lat="60.2588908654" lon="30.5107211508"><ele>81.47</ele><time>2026-08-29T09:34:21Z</time></trkpt><trkpt lat="60.2587188687" lon="30.5109509826"><ele>81.53</ele><time>2026-08-29T09:34:39Z</time></trkpt><trkpt lat="60.2586221416" lon="30.5111339595"><ele>82.11</ele><time>2026-08-29T09:34:55Z</time></trkpt><trkpt lat="60.2585214749" lon="30.5113929603"><ele>81.30</ele><time>2026-08-29T09:35:11Z</time></trkpt><trkpt lat="60.2584144380" lon="30.5114783719"><ele>81.38</ele><time>2026-08-29T09:35:29Z</time></trkpt><trkpt lat="60.2583594527" lon="30.5115556531"><ele>81.33</ele><time>2026-08-29T09:35:39Z</time></trkpt><trkpt lat="60.2582275216" lon="30.5116120633"><ele>80.90</ele><time>2026-08-29T09:35:53Z</time></trkpt><trkpt lat="60.2581537608" lon="30.5116666295"><ele>80.59</ele><time>2026-08-29T09:36:03Z</time></trkpt><trkpt lat="60.2580680978" lon="30.5117229559"><ele>80.72</ele><time>2026-08-29T09:36:16Z</time></trkpt><trkpt lat="60.2579623181" lon="30.5117640272"><ele>80.78</ele><time>2026-08-29T09:36:29Z</time></trkpt><trkpt lat="60.2579646651" lon="30.5116142426"><ele>80.46</ele><time>2026-08-29T09:36:34Z</time></trkpt><trkpt lat="60.2579809260" lon="30.5114334449"><ele>80.67</ele><time>2026-08-29T09:36:42Z</time></trkpt><trkpt lat="60.2579695266" lon="30.5112661421"><ele>80.65</ele><time>2026-08-29T09:36:49Z</time></trkpt><trkpt lat="60.2579740528" lon="30.5110253301"><ele>80.60</ele><time>2026-08-29T09:37:01Z</time></trkpt><trkpt lat="60.2579696942" lon="30.5109862704"><ele>80.60</ele><time>2026-08-29T09:37:03Z</time></trkpt><trkpt lat="60.2579646651" lon="30.5109279323"><ele>80.61</ele><time>2026-08-29T09:37:05Z</time></trkpt><trkpt lat="60.2580087539" lon="30.5108488910"><ele>80.54</ele><time>2026-08-29T09:37:10Z</time></trkpt><trkpt lat="60.2579350770" lon="30.5106512457"><ele>80.65</ele><time>2026-08-29T09:37:23Z</time></trkpt><trkpt lat="60.2579295449" lon="30.5105685163"><ele>80.80</ele><time>2026-08-29T09:37:26Z</time></trkpt><trkpt lat="60.2579147927" lon="30.5104015488"><ele>80.64</ele><time>2026-08-29T09:37:33Z</time></trkpt><trkpt lat="60.2579172235" lon="30.5103351641"><ele>80.62</ele><time>2026-08-29T09:37:36Z</time></trkpt><trkpt lat="60.2578356676" lon="30.5100962799"><ele>81.07</ele><time>2026-08-29T09:37:51Z</time></trkpt><trkpt lat="60.2578060795" lon="30.5100313202"><ele>81.24</ele><time>2026-08-29T09:37:55Z</time></trkpt><trkpt lat="60.2577886451" lon="30.5099131353"><ele>81.45</ele><time>2026-08-29T09:38:07Z</time></trkpt><trkpt lat="60.2577485796" lon="30.5099226907"><ele>81.18</ele><time>2026-08-29T09:38:31Z</time></trkpt><trkpt lat="60.2577708755" lon="30.5098997243"><ele>81.41</ele><time>2026-08-29T09:39:16Z</time></trkpt><trkpt lat="60.2577598952" lon="30.5098681245"><ele>81.19</ele><time>2026-08-29T09:39:58Z</time></trkpt><trkpt lat="60.2577534411" lon="30.5099881534"><ele>80.53</ele><time>2026-08-29T09:40:14Z</time></trkpt><trkpt lat="60.2577054966" lon="30.5101950187"><ele>79.97</ele><time>2026-08-29T09:40:28Z</time></trkpt><trkpt lat="60.2576636709" lon="30.5102751497"><ele>79.04</ele><time>2026-08-29T09:40:42Z</time></trkpt><trkpt lat="60.2576473262" lon="30.5104370881"><ele>78.98</ele><time>2026-08-29T09:40:56Z</time></trkpt><trkpt lat="60.2576624975" lon="30.5106702726"><ele>79.26</ele><time>2026-08-29T09:41:08Z</time></trkpt><trkpt lat="60.2576689515" lon="30.5109947361"><ele>78.43</ele><time>2026-08-29T09:41:22Z</time></trkpt><trkpt lat="60.2576936781" lon="30.5112396553"><ele>78.04</ele><time>2026-08-29T09:41:36Z</time></trkpt><trkpt lat="60.2576418780" lon="30.5114444252"><ele>78.03</ele><time>2026-08-29T09:41:49Z</time></trkpt><trkpt lat="60.2576493379" lon="30.5116927810"><ele>77.64</ele><time>2026-08-29T09:42:04Z</time></trkpt><trkpt lat="60.2576221805" lon="30.5118848942"><ele>77.68</ele><time>2026-08-29T09:42:16Z</time></trkpt><trkpt lat="60.2576206718" lon="30.5119429808"><ele>77.92</ele><time>2026-08-29T09:42:19Z</time></trkpt><trkpt lat="60.2576310653" lon="30.5120588187"><ele>77.48</ele><time>2026-08-29T09:42:26Z</time></trkpt><trkpt lat="60.2575877309" lon="30.5121555459"><ele>77.06</ele><time>2026-08-29T09:42:34Z</time></trkpt><trkpt lat="60.2575289737" lon="30.5121486727"><ele>76.96</ele><time>2026-08-29T09:42:45Z</time></trkpt><trkpt lat="60.2575293928" lon="30.5120527837"><ele>77.01</ele><time>2026-08-29T09:43:01Z</time></trkpt><trkpt lat="60.2575053368" lon="30.5120396242"><ele>77.01</ele><time>2026-08-29T09:43:31Z</time></trkpt><trkpt lat="60.2575117908" lon="30.5120414682"><ele>76.78</ele><time>2026-08-29T09:44:04Z</time></trkpt><trkpt lat="60.2575048339" lon="30.5120201781"><ele>76.76</ele><time>2026-08-29T09:44:15Z</time></trkpt><trkpt lat="60.2574296482" lon="30.5119613372"><ele>76.88</ele><time>2026-08-29T09:44:28Z</time></trkpt><trkpt lat="60.2573853917" lon="30.5119667854"><ele>76.71</ele><time>2026-08-29T09:44:31Z</time></trkpt><trkpt lat="60.2573604137" lon="30.5119667854"><ele>76.69</ele><time>2026-08-29T09:44:33Z</time></trkpt><trkpt lat="60.2572766785" lon="30.5120047554"><ele>76.71</ele><time>2026-08-29T09:44:48Z</time></trkpt><trkpt lat="60.2572217770" lon="30.5119612534"><ele>77.08</ele><time>2026-08-29T09:45:28Z</time></trkpt><trkpt lat="60.2571642771" lon="30.5119856447"><ele>77.35</ele><time>2026-08-29T09:45:41Z</time></trkpt><trkpt lat="60.2570942882" lon="30.5119785201"><ele>76.70</ele><time>2026-08-29T09:45:55Z</time></trkpt><trkpt lat="60.2570455894" lon="30.5117670447"><ele>76.67</ele><time>2026-08-29T09:46:08Z</time></trkpt><trkpt lat="60.2570222877" lon="30.5116744246"><ele>76.76</ele><time>2026-08-29T09:46:15Z</time></trkpt><trkpt lat="60.2570361178" lon="30.5115160905"><ele>76.79</ele><time>2026-08-29T09:46:23Z</time></trkpt><trkpt lat="60.2570174262" lon="30.5113942176"><ele>77.70</ele><time>2026-08-29T09:46:35Z</time></trkpt><trkpt lat="60.2569035999" lon="30.5113267433"><ele>76.87</ele><time>2026-08-29T09:46:47Z</time></trkpt><trkpt lat="60.2568042744" lon="30.5112813972"><ele>77.40</ele><time>2026-08-29T09:46:57Z</time></trkpt><trkpt lat="60.2567036916" lon="30.5112075526"><ele>76.68</ele><time>2026-08-29T09:47:10Z</time></trkpt><trkpt lat="60.2566595189" lon="30.5112014338"><ele>76.62</ele><time>2026-08-29T09:47:13Z</time></trkpt><trkpt lat="60.2566556633" lon="30.5111016892"><ele>76.91</ele><time>2026-08-29T09:47:26Z</time></trkpt><trkpt lat="60.2566448506" lon="30.5111109931"><ele>77.84</ele><time>2026-08-29T09:47:30Z</time></trkpt><trkpt lat="60.2565884404" lon="30.5110952351"><ele>77.17</ele><time>2026-08-29T09:47:38Z</time></trkpt><trkpt lat="60.2564387396" lon="30.5109750386"><ele>77.04</ele><time>2026-08-29T09:47:49Z</time></trkpt><trkpt lat="60.2564114984" lon="30.5109367333"><ele>77.48</ele><time>2026-08-29T09:47:59Z</time></trkpt><trkpt lat="60.2563548367" lon="30.5109670758"><ele>76.91</ele><time>2026-08-29T09:48:08Z</time></trkpt><trkpt lat="60.2563224826" lon="30.5108733661"><ele>77.02</ele><time>2026-08-29T09:48:13Z</time></trkpt><trkpt lat="60.2563248295" lon="30.5108442809"><ele>76.89</ele><time>2026-08-29T09:48:15Z</time></trkpt><trkpt lat="60.2562926430" lon="30.5107029621"><ele>77.09</ele><time>2026-08-29T09:48:31Z</time></trkpt><trkpt lat="60.2562165353" lon="30.5107065663"><ele>77.10</ele><time>2026-08-29T09:48:47Z</time></trkpt><trkpt lat="60.2561826725" lon="30.5107315443"><ele>77.63</ele><time>2026-08-29T09:49:13Z</time></trkpt><trkpt lat="60.2562178764" lon="30.5106941611"><ele>76.60</ele><time>2026-08-29T09:49:45Z</time></trkpt><trkpt lat="60.2562381607" lon="30.5106808338"><ele>76.59</ele><time>2026-08-29T09:49:52Z</time></trkpt><trkpt lat="60.2562249172" lon="30.5105012935"><ele>77.22</ele><time>2026-08-29T09:50:03Z</time></trkpt><trkpt lat="60.2561580297" lon="30.5104440451"><ele>77.04</ele><time>2026-08-29T09:50:29Z</time></trkpt><trkpt lat="60.2561392542" lon="30.5104466435"><ele>76.92</ele><time>2026-08-29T09:50:33Z</time></trkpt><trkpt lat="60.2560813352" lon="30.5102766585"><ele>77.84</ele><time>2026-08-29T09:50:46Z</time></trkpt><trkpt lat="60.2560354862" lon="30.5101517681"><ele>77.81</ele><time>2026-08-29T09:50:59Z</time></trkpt><trkpt lat="60.2559691854" lon="30.5102366768"><ele>77.67</ele><time>2026-08-29T09:51:09Z</time></trkpt><trkpt lat="60.2558505815" lon="30.5101677775"><ele>77.16</ele><time>2026-08-29T09:51:24Z</time></trkpt><trkpt lat="60.2558170538" lon="30.5100516882"><ele>77.36</ele><time>2026-08-29T09:51:31Z</time></trkpt><trkpt lat="60.2557596378" lon="30.5099145602"><ele>77.02</ele><time>2026-08-29T09:51:45Z</time></trkpt><trkpt lat="60.2556795906" lon="30.5098923482"><ele>76.31</ele><time>2026-08-29T09:52:02Z</time></trkpt><trkpt lat="60.2556042373" lon="30.5099578947"><ele>77.26</ele><time>2026-08-29T09:52:16Z</time></trkpt><trkpt lat="60.2556161396" lon="30.5099442322"><ele>77.08</ele><time>2026-08-29T09:52:35Z</time></trkpt><trkpt lat="60.2556710411" lon="30.5098639335"><ele>76.98</ele><time>2026-08-29T09:52:42Z</time></trkpt><trkpt lat="60.2556798421" lon="30.5097682960"><ele>77.05</ele><time>2026-08-29T09:52:45Z</time></trkpt><trkpt lat="60.2556822728" lon="30.5096579902"><ele>77.03</ele><time>2026-08-29T09:52:48Z</time></trkpt><trkpt lat="60.2556849550" lon="30.5095790327"><ele>77.27</ele><time>2026-08-29T09:53:03Z</time></trkpt><trkpt lat="60.2556107752" lon="30.5096205231"><ele>76.98</ele><time>2026-08-29T09:53:17Z</time></trkpt><trkpt lat="60.2555618249" lon="30.5095635261"><ele>77.09</ele><time>2026-08-29T09:53:23Z</time></trkpt><trkpt lat="60.2555286326" lon="30.5095531326"><ele>77.13</ele><time>2026-08-29T09:53:26Z</time></trkpt><trkpt lat="60.2554460708" lon="30.5095836427"><ele>77.76</ele><time>2026-08-29T09:53:36Z</time></trkpt><trkpt lat="60.2554424666" lon="30.5093914457"><ele>77.33</ele><time>2026-08-29T09:53:47Z</time></trkpt><trkpt lat="60.2554079331" lon="30.5093110632"><ele>77.25</ele><time>2026-08-29T09:53:59Z</time></trkpt><trkpt lat="60.2553175762" lon="30.5093282461"><ele>76.72</ele><time>2026-08-29T09:54:15Z</time></trkpt><trkpt lat="60.2552711405" lon="30.5091885198"><ele>77.15</ele><time>2026-08-29T09:54:22Z</time></trkpt><trkpt lat="60.2551871538" lon="30.5090865958"><ele>76.93</ele><time>2026-08-29T09:54:34Z</time></trkpt><trkpt lat="60.2551295701" lon="30.5091030244"><ele>77.46</ele><time>2026-08-29T09:54:43Z</time></trkpt><trkpt lat="60.2551122196" lon="30.5090669822"><ele>77.49</ele><time>2026-08-29T09:54:45Z</time></trkpt><trkpt lat="60.2550999820" lon="30.5090327002"><ele>77.45</ele><time>2026-08-29T09:54:47Z</time></trkpt><trkpt lat="60.2550961263" lon="30.5088480469"><ele>77.05</ele><time>2026-08-29T09:55:01Z</time></trkpt><trkpt lat="60.2551026642" lon="30.5088705942"><ele>76.97</ele><time>2026-08-29T09:55:33Z</time></trkpt><trkpt lat="60.2551070228" lon="30.5088669900"><ele>76.98</ele><time>2026-08-29T09:56:02Z</time></trkpt><trkpt lat="60.2551166620" lon="30.5089030322"><ele>76.71</ele><time>2026-08-29T09:56:27Z</time></trkpt><trkpt lat="60.2551244572" lon="30.5087626353"><ele>76.10</ele><time>2026-08-29T09:56:37Z</time></trkpt><trkpt lat="60.2550912648" lon="30.5086581968"><ele>76.66</ele><time>2026-08-29T09:56:58Z</time></trkpt><trkpt lat="60.2550518699" lon="30.5084958393"><ele>76.56</ele><time>2026-08-29T09:57:08Z</time></trkpt><trkpt lat="60.2549883351" lon="30.5084453803"><ele>76.51</ele><time>2026-08-29T09:57:12Z</time></trkpt><trkpt lat="60.2549577411" lon="30.5083552748"><ele>76.52</ele><time>2026-08-29T09:57:17Z</time></trkpt><trkpt lat="60.2549706493" lon="30.5081280414"><ele>76.75</ele><time>2026-08-29T09:57:28Z</time></trkpt><trkpt lat="60.2549738344" lon="30.5080792587"><ele>76.74</ele><time>2026-08-29T09:57:38Z</time></trkpt><trkpt lat="60.2549483534" lon="30.5080332421"><ele>76.72</ele><time>2026-08-29T09:57:53Z</time></trkpt><trkpt lat="60.2549308352" lon="30.5079552904"><ele>76.67</ele><time>2026-08-29T09:58:04Z</time></trkpt><trkpt lat="60.2549414802" lon="30.5079205893"><ele>76.59</ele><time>2026-08-29T09:58:06Z</time></trkpt><trkpt lat="60.2549466770" lon="30.5078778416"><ele>76.69</ele><time>2026-08-29T09:58:08Z</time></trkpt><trkpt lat="60.2549143229" lon="30.5077194236"><ele>77.52</ele><time>2026-08-29T09:58:20Z</time></trkpt><trkpt lat="60.2548160870" lon="30.5076644383"><ele>77.32</ele><time>2026-08-29T09:58:31Z</time></trkpt><trkpt lat="60.2546947170" lon="30.5075846426"><ele>77.30</ele><time>2026-08-29T09:58:41Z</time></trkpt><trkpt lat="60.2545926254" lon="30.5076513626"><ele>76.42</ele><time>2026-08-29T09:58:53Z</time></trkpt><trkpt lat="60.2545323595" lon="30.5075950362"><ele>76.59</ele><time>2026-08-29T09:59:05Z</time></trkpt><trkpt lat="60.2545472793" lon="30.5074332654"><ele>76.95</ele><time>2026-08-29T09:59:16Z</time></trkpt><trkpt lat="60.2545371372" lon="30.5072189402"><ele>76.90</ele><time>2026-08-29T09:59:30Z</time></trkpt><trkpt lat="60.2545501292" lon="30.5071859993"><ele>76.57</ele><time>2026-08-29T09:59:34Z</time></trkpt><trkpt lat="60.2545385621" lon="30.5071329419"><ele>77.14</ele><time>2026-08-29T09:59:43Z</time></trkpt><trkpt lat="60.2544812299" lon="30.5070920382"><ele>76.99</ele><time>2026-08-29T09:59:51Z</time></trkpt><trkpt lat="60.2544041164" lon="30.5069865938"><ele>76.83</ele><time>2026-08-29T10:00:04Z</time></trkpt><trkpt lat="60.2543085627" lon="30.5068986677"><ele>77.56</ele><time>2026-08-29T10:00:17Z</time></trkpt><trkpt lat="60.2542137634" lon="30.5068423413"><ele>77.08</ele><time>2026-08-29T10:00:30Z</time></trkpt><trkpt lat="60.2541636396" lon="30.5068165250"><ele>77.91</ele><time>2026-08-29T10:01:02Z</time></trkpt><trkpt lat="60.2541540843" lon="30.5067786388"><ele>77.44</ele><time>2026-08-29T10:01:40Z</time></trkpt><trkpt lat="60.2541472949" lon="30.5066581909"><ele>77.43</ele><time>2026-08-29T10:01:49Z</time></trkpt><trkpt lat="60.2541299444" lon="30.5066298600"><ele>76.29</ele><time>2026-08-29T10:01:51Z</time></trkpt><trkpt lat="60.2540504839" lon="30.5065658223"><ele>76.72</ele><time>2026-08-29T10:02:03Z</time></trkpt><trkpt lat="60.2539739572" lon="30.5064048059"><ele>76.68</ele><time>2026-08-29T10:02:14Z</time></trkpt><trkpt lat="60.2538825944" lon="30.5063118506"><ele>76.05</ele><time>2026-08-29T10:02:27Z</time></trkpt><trkpt lat="60.2538287826" lon="30.5061828531"><ele>77.23</ele><time>2026-08-29T10:02:40Z</time></trkpt><trkpt lat="60.2537761442" lon="30.5060870480"><ele>77.72</ele><time>2026-08-29T10:02:50Z</time></trkpt><trkpt lat="60.2537018806" lon="30.5060058273"><ele>76.95</ele><time>2026-08-29T10:03:03Z</time></trkpt><trkpt lat="60.2536854520" lon="30.5061182287"><ele>76.36</ele><time>2026-08-29T10:03:20Z</time></trkpt><trkpt lat="60.2536492422" lon="30.5062474776"><ele>76.29</ele><time>2026-08-29T10:03:34Z</time></trkpt><trkpt lat="60.2536087576" lon="30.5063773971"><ele>76.24</ele><time>2026-08-29T10:03:48Z</time></trkpt><trkpt lat="60.2535989508" lon="30.5063062347"><ele>76.20</ele><time>2026-08-29T10:04:10Z</time></trkpt><trkpt lat="60.2536333166" lon="30.5063540954"><ele>76.98</ele><time>2026-08-29T10:04:37Z</time></trkpt><trkpt lat="60.2536197379" lon="30.5063262675"><ele>76.30</ele><time>2026-08-29T10:05:03Z</time></trkpt><trkpt lat="60.2536237612" lon="30.5063375831"><ele>76.29</ele><time>2026-08-29T10:05:11Z</time></trkpt><trkpt lat="60.2536511701" lon="30.5061902292"><ele>76.45</ele><time>2026-08-29T10:05:20Z</time></trkpt><trkpt lat="60.2536852844" lon="30.5059334915"><ele>76.88</ele><time>2026-08-29T10:05:32Z</time></trkpt><trkpt lat="60.2536452189" lon="30.5058337469"><ele>78.38</ele><time>2026-08-29T10:05:44Z</time></trkpt><trkpt lat="60.2535792533" lon="30.5058036558"><ele>77.56</ele><time>2026-08-29T10:05:58Z</time></trkpt><trkpt lat="60.2535755653" lon="30.5058071762"><ele>77.57</ele><time>2026-08-29T10:06:22Z</time></trkpt><trkpt lat="60.2535605617" lon="30.5057793483"><ele>78.10</ele><time>2026-08-29T10:06:54Z</time></trkpt><trkpt lat="60.2535006311" lon="30.5055990536"><ele>77.52</ele><time>2026-08-29T10:07:09Z</time></trkpt><trkpt lat="60.2533857990" lon="30.5054906756"><ele>76.47</ele><time>2026-08-29T10:07:25Z</time></trkpt><trkpt lat="60.2533633355" lon="30.5054545496"><ele>76.83</ele><time>2026-08-29T10:07:48Z</time></trkpt><trkpt lat="60.2533327416" lon="30.5054342654"><ele>76.82</ele><time>2026-08-29T10:07:51Z</time></trkpt><trkpt lat="60.2532770857" lon="30.5053998996"><ele>77.36</ele><time>2026-08-29T10:08:02Z</time></trkpt><trkpt lat="60.2531998884" lon="30.5052908510"><ele>77.58</ele><time>2026-08-29T10:08:18Z</time></trkpt><trkpt lat="60.2530751657" lon="30.5053494405"><ele>77.26</ele><time>2026-08-29T10:08:32Z</time></trkpt><trkpt lat="60.2530295681" lon="30.5054301582"><ele>77.27</ele><time>2026-08-29T10:08:42Z</time></trkpt><trkpt lat="60.2529164962" lon="30.5054080300"><ele>77.06</ele><time>2026-08-29T10:08:53Z</time></trkpt><trkpt lat="60.2529085334" lon="30.5054102931"><ele>77.09</ele><time>2026-08-29T10:08:54Z</time></trkpt><trkpt lat="60.2528554760" lon="30.5053216964"><ele>76.74</ele><time>2026-08-29T10:09:11Z</time></trkpt><trkpt lat="60.2528237924" lon="30.5053491890"><ele>77.20</ele><time>2026-08-29T10:09:16Z</time></trkpt><trkpt lat="60.2527488582" lon="30.5054880772"><ele>76.69</ele><time>2026-08-29T10:09:28Z</time></trkpt><trkpt lat="60.2526882570" lon="30.5053610075"><ele>76.59</ele><time>2026-08-29T10:09:47Z</time></trkpt><trkpt lat="60.2525930386" lon="30.5054438207"><ele>76.70</ele><time>2026-08-29T10:10:02Z</time></trkpt><trkpt lat="60.2525264863" lon="30.5054987222"><ele>77.20</ele><time>2026-08-29T10:10:13Z</time></trkpt><trkpt lat="60.2525254805" lon="30.5055194255"><ele>77.15</ele><time>2026-08-29T10:10:14Z</time></trkpt><trkpt lat="60.2525418252" lon="30.5057110358"><ele>76.81</ele><time>2026-08-29T10:10:24Z</time></trkpt><trkpt lat="60.2525361255" lon="30.5058299750"><ele>76.97</ele><time>2026-08-29T10:10:37Z</time></trkpt><trkpt lat="60.2525462676" lon="30.5058328249"><ele>76.59</ele><time>2026-08-29T10:10:55Z</time></trkpt><trkpt lat="60.2525647916" lon="30.5055968743"><ele>76.12</ele><time>2026-08-29T10:11:06Z</time></trkpt><trkpt lat="60.2525617741" lon="30.5055165756"><ele>76.10</ele><time>2026-08-29T10:11:13Z</time></trkpt><trkpt lat="60.2524300944" lon="30.5054502748"><ele>76.63</ele><time>2026-08-29T10:11:26Z</time></trkpt><trkpt lat="60.2523605246" lon="30.5054562259"><ele>76.67</ele><time>2026-08-29T10:11:31Z</time></trkpt><trkpt lat="60.2523003425" lon="30.5054458324"><ele>76.54</ele><time>2026-08-29T10:11:43Z</time></trkpt><trkpt lat="60.2521604486" lon="30.5053932779"><ele>76.98</ele><time>2026-08-29T10:12:10Z</time></trkpt><trkpt lat="60.2521448582" lon="30.5053949542"><ele>77.22</ele><time>2026-08-29T10:12:51Z</time></trkpt><trkpt lat="60.2520757914" lon="30.5053786095"><ele>76.87</ele><time>2026-08-29T10:13:04Z</time></trkpt><trkpt lat="60.2519774716" lon="30.5055001471"><ele>76.86</ele><time>2026-08-29T10:13:14Z</time></trkpt><trkpt lat="60.2519059740" lon="30.5056211818"><ele>76.76</ele><time>2026-08-29T10:13:25Z</time></trkpt><trkpt lat="60.2518081572" lon="30.5056891590"><ele>76.59</ele><time>2026-08-29T10:13:37Z</time></trkpt><trkpt lat="60.2517638169" lon="30.5055910069"><ele>76.78</ele><time>2026-08-29T10:13:47Z</time></trkpt><trkpt lat="60.2517321333" lon="30.5055700522"><ele>77.28</ele><time>2026-08-29T10:13:53Z</time></trkpt><trkpt lat="60.2516413573" lon="30.5055476725"><ele>77.55</ele><time>2026-08-29T10:14:02Z</time></trkpt><trkpt lat="60.2516096737" lon="30.5054627638"><ele>77.41</ele><time>2026-08-29T10:14:08Z</time></trkpt><trkpt lat="60.2515633218" lon="30.5053278990"><ele>77.56</ele><time>2026-08-29T10:14:19Z</time></trkpt><trkpt lat="60.2514925785" lon="30.5052241310"><ele>77.53</ele><time>2026-08-29T10:14:35Z</time></trkpt><trkpt lat="60.2514460590" lon="30.5051503703"><ele>77.26</ele><time>2026-08-29T10:14:45Z</time></trkpt><trkpt lat="60.2513283771" lon="30.5050552357"><ele>77.08</ele><time>2026-08-29T10:14:57Z</time></trkpt><trkpt lat="60.2513079252" lon="30.5050317664"><ele>77.29</ele><time>2026-08-29T10:15:03Z</time></trkpt><trkpt lat="60.2512085997" lon="30.5050445069"><ele>77.64</ele><time>2026-08-29T10:15:15Z</time></trkpt><trkpt lat="60.2511464898" lon="30.5050548166"><ele>76.78</ele><time>2026-08-29T10:15:25Z</time></trkpt><trkpt lat="60.2510573901" lon="30.5049932934"><ele>76.91</ele><time>2026-08-29T10:15:37Z</time></trkpt><trkpt lat="60.2509997226" lon="30.5049687345"><ele>77.14</ele><time>2026-08-29T10:15:50Z</time></trkpt><trkpt lat="60.2509177476" lon="30.5048979912"><ele>76.94</ele><time>2026-08-29T10:16:11Z</time></trkpt><trkpt lat="60.2508297376" lon="30.5047761183"><ele>76.86</ele><time>2026-08-29T10:16:22Z</time></trkpt><trkpt lat="60.2507791948" lon="30.5047666468"><ele>76.90</ele><time>2026-08-29T10:16:30Z</time></trkpt><trkpt lat="60.2507355250" lon="30.5047658924"><ele>76.63</ele><time>2026-08-29T10:16:46Z</time></trkpt><trkpt lat="60.2507064398" lon="30.5047637969"><ele>76.66</ele><time>2026-08-29T10:17:09Z</time></trkpt><trkpt lat="60.2507005725" lon="30.5046546645"><ele>76.88</ele><time>2026-08-29T10:17:32Z</time></trkpt><trkpt lat="60.2506674640" lon="30.5047073867"><ele>77.39</ele><time>2026-08-29T10:17:48Z</time></trkpt><trkpt lat="60.2506636921" lon="30.5047227256"><ele>77.77</ele><time>2026-08-29T10:17:49Z</time></trkpt><trkpt lat="60.2506366186" lon="30.5048374739"><ele>77.20</ele><time>2026-08-29T10:17:55Z</time></trkpt><trkpt lat="60.2506181784" lon="30.5048969854"><ele>77.31</ele><time>2026-08-29T10:17:59Z</time></trkpt><trkpt lat="60.2505804598" lon="30.5048533995"><ele>76.32</ele><time>2026-08-29T10:18:04Z</time></trkpt><trkpt lat="60.2505421545" lon="30.5048539862"><ele>76.95</ele><time>2026-08-29T10:18:08Z</time></trkpt><trkpt lat="60.2505359519" lon="30.5049022660"><ele>76.83</ele><time>2026-08-29T10:18:10Z</time></trkpt><trkpt lat="60.2504933719" lon="30.5049228854"><ele>76.47</ele><time>2026-08-29T10:18:15Z</time></trkpt><trkpt lat="60.2504561562" lon="30.5049183592"><ele>76.53</ele><time>2026-08-29T10:18:20Z</time></trkpt><trkpt lat="60.2504062839" lon="30.5048965663"><ele>76.89</ele><time>2026-08-29T10:18:22Z</time></trkpt><trkpt lat="60.2503908612" lon="30.5048325285"><ele>76.97</ele><time>2026-08-29T10:18:34Z</time></trkpt><trkpt lat="60.2503367979" lon="30.5048888549"><ele>76.98</ele><time>2026-08-29T10:18:40Z</time></trkpt><trkpt lat="60.2502732631" lon="30.5049411580"><ele>76.39</ele><time>2026-08-29T10:18:46Z</time></trkpt><trkpt lat="60.2501570899" lon="30.5049741827"><ele>76.36</ele><time>2026-08-29T10:19:00Z</time></trkpt><trkpt lat="60.2500785515" lon="30.5049162637"><ele>75.99</ele><time>2026-08-29T10:19:12Z</time></trkpt><trkpt lat="60.2500067186" lon="30.5048248172"><ele>76.90</ele><time>2026-08-29T10:19:23Z</time></trkpt><trkpt lat="60.2499395795" lon="30.5047543254"><ele>76.83</ele><time>2026-08-29T10:19:32Z</time></trkpt><trkpt lat="60.2498258371" lon="30.5047906190"><ele>77.01</ele><time>2026-08-29T10:19:50Z</time></trkpt><trkpt lat="60.2497603744" lon="30.5047022738"><ele>77.02</ele><time>2026-08-29T10:20:00Z</time></trkpt><trkpt lat="60.2497015335" lon="30.5048267450"><ele>76.31</ele><time>2026-08-29T10:20:11Z</time></trkpt><trkpt lat="60.2495868690" lon="30.5049382243"><ele>76.23</ele><time>2026-08-29T10:20:25Z</time></trkpt><trkpt lat="60.2494787425" lon="30.5049805529"><ele>76.29</ele><time>2026-08-29T10:20:37Z</time></trkpt><trkpt lat="60.2494301274" lon="30.5049225502"><ele>76.89</ele><time>2026-08-29T10:20:53Z</time></trkpt><trkpt lat="60.2493590489" lon="30.5049743503"><ele>76.52</ele><time>2026-08-29T10:21:03Z</time></trkpt><trkpt lat="60.2492941730" lon="30.5048017669"><ele>77.16</ele><time>2026-08-29T10:21:16Z</time></trkpt><trkpt lat="60.2492278721" lon="30.5046890303"><ele>76.87</ele><time>2026-08-29T10:21:28Z</time></trkpt><trkpt lat="60.2491462324" lon="30.5046101566"><ele>77.05</ele><time>2026-08-29T10:21:42Z</time></trkpt><trkpt lat="60.2491241880" lon="30.5045647267"><ele>77.71</ele><time>2026-08-29T10:21:52Z</time></trkpt><trkpt lat="60.2490640897" lon="30.5044273473"><ele>78.43</ele><time>2026-08-29T10:22:03Z</time></trkpt><trkpt lat="60.2489888202" lon="30.5043893773"><ele>77.63</ele><time>2026-08-29T10:22:32Z</time></trkpt><trkpt lat="60.2489984594" lon="30.5044276826"><ele>77.03</ele><time>2026-08-29T10:22:47Z</time></trkpt><trkpt lat="60.2489964478" lon="30.5044237431"><ele>75.73</ele><time>2026-08-29T10:22:49Z</time></trkpt><trkpt lat="60.2489902452" lon="30.5044173729"><ele>78.95</ele><time>2026-08-29T10:22:56Z</time></trkpt><trkpt lat="60.2489901613" lon="30.5044323765"><ele>78.38</ele><time>2026-08-29T10:22:57Z</time></trkpt><trkpt lat="60.2489760797" lon="30.5044254195"><ele>78.34</ele><time>2026-08-29T10:23:14Z</time></trkpt><trkpt lat="60.2489200886" lon="30.5043687578"><ele>77.51</ele><time>2026-08-29T10:23:25Z</time></trkpt><trkpt lat="60.2488226909" lon="30.5045034550"><ele>76.92</ele><time>2026-08-29T10:23:39Z</time></trkpt><trkpt lat="60.2487322502" lon="30.5044822488"><ele>77.46</ele><time>2026-08-29T10:23:56Z</time></trkpt><trkpt lat="60.2486814559" lon="30.5044446979"><ele>77.65</ele><time>2026-08-29T10:24:01Z</time></trkpt><trkpt lat="60.2485801186" lon="30.5043243337"><ele>78.01</ele><time>2026-08-29T10:24:12Z</time></trkpt><trkpt lat="60.2485806216" lon="30.5044115894"><ele>77.74</ele><time>2026-08-29T10:24:22Z</time></trkpt><trkpt lat="60.2484626044" lon="30.5045220628"><ele>77.73</ele><time>2026-08-29T10:24:36Z</time></trkpt><trkpt lat="60.2484121453" lon="30.5045013595"><ele>77.61</ele><time>2026-08-29T10:24:41Z</time></trkpt><trkpt lat="60.2482821420" lon="30.5044283532"><ele>77.46</ele><time>2026-08-29T10:24:56Z</time></trkpt><trkpt lat="60.2482175175" lon="30.5043264292"><ele>77.86</ele><time>2026-08-29T10:25:08Z</time></trkpt><trkpt lat="60.2481335308" lon="30.5042832624"><ele>77.96</ele><time>2026-08-29T10:25:22Z</time></trkpt><trkpt lat="60.2480588481" lon="30.5044146907"><ele>77.20</ele><time>2026-08-29T10:25:33Z</time></trkpt><trkpt lat="60.2479765378" lon="30.5043919757"><ele>78.15</ele><time>2026-08-29T10:25:46Z</time></trkpt><trkpt lat="60.2479230613" lon="30.5043775588"><ele>77.74</ele><time>2026-08-29T10:25:56Z</time></trkpt><trkpt lat="60.2478517313" lon="30.5041668378"><ele>77.49</ele><time>2026-08-29T10:26:09Z</time></trkpt><trkpt lat="60.2478197962" lon="30.5041088350"><ele>77.77</ele><time>2026-08-29T10:26:12Z</time></trkpt><trkpt lat="60.2477677446" lon="30.5039807595"><ele>77.43</ele><time>2026-08-29T10:26:25Z</time></trkpt><trkpt lat="60.2477245778" lon="30.5039560329"><ele>77.41</ele><time>2026-08-29T10:26:38Z</time></trkpt><trkpt lat="60.2477277629" lon="30.5040418636"><ele>77.69</ele><time>2026-08-29T10:26:58Z</time></trkpt><trkpt lat="60.2477686666" lon="30.5039330665"><ele>77.42</ele><time>2026-08-29T10:27:24Z</time></trkpt><trkpt lat="60.2477859333" lon="30.5038594734"><ele>77.63</ele><time>2026-08-29T10:27:39Z</time></trkpt><trkpt lat="60.2477443591" lon="30.5036686175"><ele>78.03</ele><time>2026-08-29T10:27:51Z</time></trkpt><trkpt lat="60.2476806566" lon="30.5035867263"><ele>78.48</ele><time>2026-08-29T10:27:56Z</time></trkpt><trkpt lat="60.2476211451" lon="30.5033098720"><ele>78.85</ele><time>2026-08-29T10:28:08Z</time></trkpt><trkpt lat="60.2475612983" lon="30.5031850655"><ele>78.59</ele><time>2026-08-29T10:28:21Z</time></trkpt><trkpt lat="60.2474451251" lon="30.5031717382"><ele>78.24</ele><time>2026-08-29T10:28:31Z</time></trkpt><trkpt lat="60.2473664191" lon="30.5031591654"><ele>78.04</ele><time>2026-08-29T10:28:41Z</time></trkpt><trkpt lat="60.2473506611" lon="30.5030184332"><ele>78.02</ele><time>2026-08-29T10:28:52Z</time></trkpt><trkpt lat="60.2473652456" lon="30.5029798765"><ele>77.88</ele><time>2026-08-29T10:28:54Z</time></trkpt><trkpt lat="60.2474278584" lon="30.5027530622"><ele>79.10</ele><time>2026-08-29T10:29:06Z</time></trkpt><trkpt lat="60.2473563608" lon="30.5026607774"><ele>79.68</ele><time>2026-08-29T10:29:17Z</time></trkpt><trkpt lat="60.2472580411" lon="30.5025924649"><ele>78.96</ele><time>2026-08-29T10:29:29Z</time></trkpt><trkpt lat="60.2471753955" lon="30.5025836639"><ele>78.56</ele><time>2026-08-29T10:29:40Z</time></trkpt><trkpt lat="60.2471404430" lon="30.5024328735"><ele>79.00</ele><time>2026-08-29T10:29:51Z</time></trkpt><trkpt lat="60.2470596414" lon="30.5023436900"><ele>78.40</ele><time>2026-08-29T10:30:01Z</time></trkpt><trkpt lat="60.2469569631" lon="30.5023999326"><ele>79.21</ele><time>2026-08-29T10:30:14Z</time></trkpt><trkpt lat="60.2468647622" lon="30.5024949834"><ele>78.19</ele><time>2026-08-29T10:30:24Z</time></trkpt><trkpt lat="60.2468156442" lon="30.5023245793"><ele>77.99</ele><time>2026-08-29T10:30:36Z</time></trkpt><trkpt lat="60.2466801926" lon="30.5022819992"><ele>78.26</ele><time>2026-08-29T10:30:49Z</time></trkpt><trkpt lat="60.2466148976" lon="30.5023137666"><ele>78.58</ele><time>2026-08-29T10:30:57Z</time></trkpt><trkpt lat="60.2465659473" lon="30.5023585260"><ele>78.32</ele><time>2026-08-29T10:31:04Z</time></trkpt><trkpt lat="60.2465290669" lon="30.5022637267"><ele>77.62</ele><time>2026-08-29T10:31:15Z</time></trkpt><trkpt lat="60.2464828826" lon="30.5021374952"><ele>77.75</ele><time>2026-08-29T10:31:25Z</time></trkpt><trkpt lat="60.2464488521" lon="30.5020875391"><ele>77.97</ele><time>2026-08-29T10:31:38Z</time></trkpt><trkpt lat="60.2464397997" lon="30.5020822585"><ele>77.78</ele><time>2026-08-29T10:31:55Z</time></trkpt><trkpt lat="60.2464308310" lon="30.5020893831"><ele>78.56</ele><time>2026-08-29T10:32:04Z</time></trkpt><trkpt lat="60.2463549748" lon="30.5021316279"><ele>78.62</ele><time>2026-08-29T10:32:15Z</time></trkpt><trkpt lat="60.2463321760" lon="30.5021402612"><ele>78.30</ele><time>2026-08-29T10:32:31Z</time></trkpt><trkpt lat="60.2463372890" lon="30.5021522474"><ele>78.33</ele><time>2026-08-29T10:32:55Z</time></trkpt><trkpt lat="60.2463195194" lon="30.5021590367"><ele>79.65</ele><time>2026-08-29T10:33:06Z</time></trkpt><trkpt lat="60.2462614328" lon="30.5022222362"><ele>78.35</ele><time>2026-08-29T10:33:19Z</time></trkpt><trkpt lat="60.2462728322" lon="30.5023242440"><ele>78.29</ele><time>2026-08-29T10:33:37Z</time></trkpt><trkpt lat="60.2462589182" lon="30.5024063867"><ele>78.16</ele><time>2026-08-29T10:33:43Z</time></trkpt><trkpt lat="60.2461857442" lon="30.5024163611"><ele>78.31</ele><time>2026-08-29T10:33:56Z</time></trkpt><trkpt lat="60.2461592574" lon="30.5025936384"><ele>77.61</ele><time>2026-08-29T10:34:06Z</time></trkpt><trkpt lat="60.2461012546" lon="30.5028065387"><ele>78.45</ele><time>2026-08-29T10:34:17Z</time></trkpt><trkpt lat="60.2460771985" lon="30.5028548185"><ele>78.59</ele><time>2026-08-29T10:34:21Z</time></trkpt><trkpt lat="60.2459967323" lon="30.5028610211"><ele>78.99</ele><time>2026-08-29T10:34:33Z</time></trkpt><trkpt lat="60.2459563315" lon="30.5029057804"><ele>78.68</ele><time>2026-08-29T10:34:42Z</time></trkpt><trkpt lat="60.2458354644" lon="30.5030417349"><ele>78.39</ele><time>2026-08-29T10:34:56Z</time></trkpt><trkpt lat="60.2458086424" lon="30.5031579919"><ele>77.94</ele><time>2026-08-29T10:35:02Z</time></trkpt><trkpt lat="60.2457775455" lon="30.5032274779"><ele>78.54</ele><time>2026-08-29T10:35:10Z</time></trkpt><trkpt lat="60.2457109932" lon="30.5032865703"><ele>78.80</ele><time>2026-08-29T10:35:22Z</time></trkpt><trkpt lat="60.2456412558" lon="30.5033309944"><ele>78.48</ele><time>2026-08-29T10:35:33Z</time></trkpt><trkpt lat="60.2455816604" lon="30.5033314973"><ele>79.42</ele><time>2026-08-29T10:35:49Z</time></trkpt><trkpt lat="60.2455337998" lon="30.5034669489"><ele>79.40</ele><time>2026-08-29T10:35:59Z</time></trkpt><trkpt lat="60.2454927284" lon="30.5036939308"><ele>78.93</ele><time>2026-08-29T10:36:11Z</time></trkpt><trkpt lat="60.2454478852" lon="30.5038572941"><ele>78.52</ele><time>2026-08-29T10:36:21Z</time></trkpt><trkpt lat="60.2454027906" lon="30.5040075816"><ele>78.80</ele><time>2026-08-29T10:36:33Z</time></trkpt><trkpt lat="60.2453981806" lon="30.5040150415"><ele>78.72</ele><time>2026-08-29T10:36:34Z</time></trkpt><trkpt lat="60.2453713585" lon="30.5041704420"><ele>78.74</ele><time>2026-08-29T10:36:46Z</time></trkpt><trkpt lat="60.2453707717" lon="30.5041941628"><ele>79.35</ele><time>2026-08-29T10:37:08Z</time></trkpt><trkpt lat="60.2453156188" lon="30.5041571986"><ele>79.42</ele><time>2026-08-29T10:37:40Z</time></trkpt><trkpt lat="60.2452916466" lon="30.5041338131"><ele>79.55</ele><time>2026-08-29T10:37:44Z</time></trkpt><trkpt lat="60.2452478930" lon="30.5041149538"><ele>78.89</ele><time>2026-08-29T10:38:02Z</time></trkpt><trkpt lat="60.2452361584" lon="30.5040963460"><ele>79.65</ele><time>2026-08-29T10:38:30Z</time></trkpt><trkpt lat="60.2452067379" lon="30.5041849427"><ele>78.61</ele><time>2026-08-29T10:38:46Z</time></trkpt><trkpt lat="60.2451985236" lon="30.5043350626"><ele>79.05</ele><time>2026-08-29T10:38:56Z</time></trkpt><trkpt lat="60.2451748867" lon="30.5045764614"><ele>78.04</ele><time>2026-08-29T10:39:11Z</time></trkpt><trkpt lat="60.2451412752" lon="30.5047071353"><ele>78.63</ele><time>2026-08-29T10:39:23Z</time></trkpt><trkpt lat="60.2450868767" lon="30.5045630503"><ele>78.97</ele><time>2026-08-29T10:39:33Z</time></trkpt><trkpt lat="60.2450578753" lon="30.5046249926"><ele>78.14</ele><time>2026-08-29T10:39:48Z</time></trkpt><trkpt lat="60.2449823543" lon="30.5047192890"><ele>79.05</ele><time>2026-08-29T10:40:04Z</time></trkpt><trkpt lat="60.2449358348" lon="30.5049357936"><ele>78.96</ele><time>2026-08-29T10:40:16Z</time></trkpt><trkpt lat="60.2448660973" lon="30.5050298385"><ele>79.17</ele><time>2026-08-29T10:40:27Z</time></trkpt><trkpt lat="60.2447826974" lon="30.5052167550"><ele>78.38</ele><time>2026-08-29T10:40:47Z</time></trkpt><trkpt lat="60.2446988784" lon="30.5053341854"><ele>78.54</ele><time>2026-08-29T10:40:58Z</time></trkpt><trkpt lat="60.2446972858" lon="30.5053700600"><ele>78.35</ele><time>2026-08-29T10:41:01Z</time></trkpt><trkpt lat="60.2447543666" lon="30.5056222714"><ele>78.92</ele><time>2026-08-29T10:41:15Z</time></trkpt><trkpt lat="60.2447421290" lon="30.5057241954"><ele>79.10</ele><time>2026-08-29T10:41:19Z</time></trkpt><trkpt lat="60.2447212581" lon="30.5057687871"><ele>78.22</ele><time>2026-08-29T10:41:22Z</time></trkpt><trkpt lat="60.2447062545" lon="30.5059195776"><ele>78.48</ele><time>2026-08-29T10:41:34Z</time></trkpt><trkpt lat="60.2446576394" lon="30.5060980283"><ele>78.43</ele><time>2026-08-29T10:41:47Z</time></trkpt><trkpt lat="60.2446362656" lon="30.5061796680"><ele>78.93</ele><time>2026-08-29T10:41:53Z</time></trkpt><trkpt lat="60.2445942722" lon="30.5062646605"><ele>78.57</ele><time>2026-08-29T10:42:05Z</time></trkpt><trkpt lat="60.2445216849" lon="30.5063405167"><ele>78.47</ele><time>2026-08-29T10:42:17Z</time></trkpt><trkpt lat="60.2444575634" lon="30.5064948276"><ele>78.30</ele><time>2026-08-29T10:42:30Z</time></trkpt><trkpt lat="60.2444311604" lon="30.5065166205"><ele>78.40</ele><time>2026-08-29T10:42:33Z</time></trkpt><trkpt lat="60.2443610877" lon="30.5064693466"><ele>78.68</ele><time>2026-08-29T10:42:46Z</time></trkpt><trkpt lat="60.2443064377" lon="30.5064483918"><ele>78.89</ele><time>2026-08-29T10:42:55Z</time></trkpt><trkpt lat="60.2442946192" lon="30.5064757168"><ele>78.80</ele><time>2026-08-29T10:43:15Z</time></trkpt><trkpt lat="60.2442853991" lon="30.5065641459"><ele>78.64</ele><time>2026-08-29T10:43:45Z</time></trkpt><trkpt lat="60.2442570683" lon="30.5066259205"><ele>79.05</ele><time>2026-08-29T10:44:05Z</time></trkpt><trkpt lat="60.2442360297" lon="30.5068529863"><ele>78.92</ele><time>2026-08-29T10:44:17Z</time></trkpt><trkpt lat="60.2441883367" lon="30.5070113204"><ele>79.34</ele><time>2026-08-29T10:44:30Z</time></trkpt><trkpt lat="60.2441774402" lon="30.5070667248"><ele>79.75</ele><time>2026-08-29T10:44:34Z</time></trkpt><trkpt lat="60.2441156656" lon="30.5071839876"><ele>79.52</ele><time>2026-08-29T10:44:45Z</time></trkpt><trkpt lat="60.2440517955" lon="30.5073211994"><ele>79.62</ele><time>2026-08-29T10:44:55Z</time></trkpt><trkpt lat="60.2439471893" lon="30.5074245483"><ele>79.60</ele><time>2026-08-29T10:45:06Z</time></trkpt><trkpt lat="60.2438754402" lon="30.5073966365"><ele>79.87</ele><time>2026-08-29T10:45:15Z</time></trkpt><trkpt lat="60.2438054513" lon="30.5075510312"><ele>79.58</ele><time>2026-08-29T10:45:28Z</time></trkpt><trkpt lat="60.2437050361" lon="30.5075867381"><ele>78.96</ele><time>2026-08-29T10:45:44Z</time></trkpt><trkpt lat="60.2436817344" lon="30.5075634364"><ele>79.84</ele><time>2026-08-29T10:46:03Z</time></trkpt><trkpt lat="60.2436472848" lon="30.5076038372"><ele>79.57</ele><time>2026-08-29T10:46:30Z</time></trkpt><trkpt lat="60.2436643839" lon="30.5075906776"><ele>79.35</ele><time>2026-08-29T10:46:44Z</time></trkpt><trkpt lat="60.2436169423" lon="30.5074942857"><ele>79.57</ele><time>2026-08-29T10:46:56Z</time></trkpt><trkpt lat="60.2435238194" lon="30.5074677989"><ele>79.68</ele><time>2026-08-29T10:47:08Z</time></trkpt><trkpt lat="60.2433863562" lon="30.5076461658"><ele>79.04</ele><time>2026-08-29T10:47:22Z</time></trkpt><trkpt lat="60.2433378249" lon="30.5077098683"><ele>79.03</ele><time>2026-08-29T10:47:35Z</time></trkpt><trkpt lat="60.2433503978" lon="30.5077437311"><ele>78.90</ele><time>2026-08-29T10:47:59Z</time></trkpt><trkpt lat="60.2434090711" lon="30.5077964533"><ele>78.63</ele><time>2026-08-29T10:48:15Z</time></trkpt><trkpt lat="60.2434576862" lon="30.5078651849"><ele>79.09</ele><time>2026-08-29T10:48:27Z</time></trkpt><trkpt lat="60.2434958238" lon="30.5078615807"><ele>78.24</ele><time>2026-08-29T10:48:40Z</time></trkpt><trkpt lat="60.2434271760" lon="30.5078130495"><ele>79.07</ele><time>2026-08-29T10:48:53Z</time></trkpt><trkpt lat="60.2434014436" lon="30.5078055896"><ele>79.15</ele><time>2026-08-29T10:48:56Z</time></trkpt><trkpt lat="60.2433013637" lon="30.5076677911"><ele>79.36</ele><time>2026-08-29T10:49:08Z</time></trkpt><trkpt lat="60.2432417683" lon="30.5077045877"><ele>79.14</ele><time>2026-08-29T10:49:22Z</time></trkpt><trkpt lat="60.2431916445" lon="30.5077325832"><ele>79.15</ele><time>2026-08-29T10:49:26Z</time></trkpt><trkpt lat="60.2431284450" lon="30.5078726448"><ele>78.32</ele><time>2026-08-29T10:49:35Z</time></trkpt><trkpt lat="60.2430779859" lon="30.5078729801"><ele>78.72</ele><time>2026-08-29T10:49:40Z</time></trkpt><trkpt lat="60.2430324722" lon="30.5078633409"><ele>78.71</ele><time>2026-08-29T10:49:52Z</time></trkpt><trkpt lat="60.2429733798" lon="30.5078412965"><ele>79.14</ele><time>2026-08-29T10:50:04Z</time></trkpt><trkpt lat="60.2429667581" lon="30.5078360997"><ele>78.37</ele><time>2026-08-29T10:50:31Z</time></trkpt><trkpt lat="60.2429812588" lon="30.5078338366"><ele>78.48</ele><time>2026-08-29T10:50:54Z</time></trkpt><trkpt lat="60.2429489885" lon="30.5078518577"><ele>78.37</ele><time>2026-08-29T10:51:20Z</time></trkpt><trkpt lat="60.2429066598" lon="30.5077009834"><ele>79.65</ele><time>2026-08-29T10:51:32Z</time></trkpt><trkpt lat="60.2428275347" lon="30.5075970478"><ele>80.05</ele><time>2026-08-29T10:51:43Z</time></trkpt><trkpt lat="60.2427263651" lon="30.5076481774"><ele>79.66</ele><time>2026-08-29T10:51:54Z</time></trkpt><trkpt lat="60.2426425461" lon="30.5077180825"><ele>79.31</ele><time>2026-08-29T10:52:06Z</time></trkpt><trkpt lat="60.2426455636" lon="30.5079159793"><ele>78.99</ele><time>2026-08-29T10:52:20Z</time></trkpt><trkpt lat="60.2426241897" lon="30.5079653487"><ele>79.02</ele><time>2026-08-29T10:52:22Z</time></trkpt><trkpt lat="60.2425264567" lon="30.5080795940"><ele>79.24</ele><time>2026-08-29T10:52:33Z</time></trkpt><trkpt lat="60.2425163984" lon="30.5080826953"><ele>78.68</ele><time>2026-08-29T10:52:40Z</time></trkpt><trkpt lat="60.2424453199" lon="30.5081435479"><ele>78.47</ele><time>2026-08-29T10:52:54Z</time></trkpt><trkpt lat="60.2423335891" lon="30.5082747247"><ele>79.06</ele><time>2026-08-29T10:53:08Z</time></trkpt><trkpt lat="60.2422311623" lon="30.5082962662"><ele>79.56</ele><time>2026-08-29T10:53:22Z</time></trkpt><trkpt lat="60.2421593294" lon="30.5082937516"><ele>78.92</ele><time>2026-08-29T10:53:36Z</time></trkpt><trkpt lat="60.2420696430" lon="30.5083132815"><ele>78.76</ele><time>2026-08-29T10:53:51Z</time></trkpt><trkpt lat="60.2420559805" lon="30.5084127747"><ele>79.01</ele><time>2026-08-29T10:53:57Z</time></trkpt><trkpt lat="60.2419816330" lon="30.5084280297"><ele>79.43</ele><time>2026-08-29T10:54:08Z</time></trkpt><trkpt lat="60.2418980654" lon="30.5084894691"><ele>79.05</ele><time>2026-08-29T10:54:19Z</time></trkpt><trkpt lat="60.2419103868" lon="30.5087389983"><ele>79.23</ele><time>2026-08-29T10:54:37Z</time></trkpt><trkpt lat="60.2418946289" lon="30.5089320336"><ele>79.41</ele><time>2026-08-29T10:54:48Z</time></trkpt><trkpt lat="60.2417912800" lon="30.5091667268"><ele>77.93</ele><time>2026-08-29T10:55:03Z</time></trkpt><trkpt lat="60.2417453472" lon="30.5092277471"><ele>79.27</ele><time>2026-08-29T10:55:19Z</time></trkpt><trkpt lat="60.2417008393" lon="30.5092086364"><ele>79.05</ele><time>2026-08-29T10:55:35Z</time></trkpt><trkpt lat="60.2417101432" lon="30.5091542378"><ele>79.36</ele><time>2026-08-29T10:56:09Z</time></trkpt><trkpt lat="60.2417180222" lon="30.5092479475"><ele>79.01</ele><time>2026-08-29T10:56:21Z</time></trkpt><trkpt lat="60.2417044435" lon="30.5092928745"><ele>79.77</ele><time>2026-08-29T10:56:37Z</time></trkpt><trkpt lat="60.2416848298" lon="30.5093209539"><ele>79.05</ele><time>2026-08-29T10:56:51Z</time></trkpt><trkpt lat="60.2416610252" lon="30.5092600174"><ele>79.38</ele><time>2026-08-29T10:57:04Z</time></trkpt><trkpt lat="60.2416043635" lon="30.5093776155"><ele>79.42</ele><time>2026-08-29T10:57:20Z</time></trkpt><trkpt lat="60.2416049503" lon="30.5096809566"><ele>79.69</ele><time>2026-08-29T10:57:33Z</time></trkpt><trkpt lat="60.2415833250" lon="30.5098635983"><ele>80.19</ele><time>2026-08-29T10:57:46Z</time></trkpt><trkpt lat="60.2416092250" lon="30.5100244470"><ele>80.27</ele><time>2026-08-29T10:57:59Z</time></trkpt><trkpt lat="60.2415914554" lon="30.5101090204"><ele>80.47</ele><time>2026-08-29T10:58:14Z</time></trkpt><trkpt lat="60.2416295093" lon="30.5103206635"><ele>80.42</ele><time>2026-08-29T10:58:29Z</time></trkpt><trkpt lat="60.2416621987" lon="30.5105325580"><ele>80.09</ele><time>2026-08-29T10:58:40Z</time></trkpt><trkpt lat="60.2416979894" lon="30.5105620623"><ele>79.86</ele><time>2026-08-29T10:58:56Z</time></trkpt><trkpt lat="60.2417250630" lon="30.5107330531"><ele>79.86</ele><time>2026-08-29T10:59:09Z</time></trkpt><trkpt lat="60.2417458501" lon="30.5108692590"><ele>80.27</ele><time>2026-08-29T10:59:20Z</time></trkpt><trkpt lat="60.2417599317" lon="30.5109788943"><ele>80.32</ele><time>2026-08-29T10:59:40Z</time></trkpt><trkpt lat="60.2417997457" lon="30.5108923931"><ele>80.10</ele><time>2026-08-29T10:59:55Z</time></trkpt><trkpt lat="60.2417939622" lon="30.5109212268"><ele>80.07</ele><time>2026-08-29T11:00:14Z</time></trkpt><trkpt lat="60.2418100554" lon="30.5109323747"><ele>80.22</ele><time>2026-08-29T11:00:36Z</time></trkpt><trkpt lat="60.2418135758" lon="30.5109420978"><ele>80.48</ele><time>2026-08-29T11:00:59Z</time></trkpt><trkpt lat="60.2417928725" lon="30.5109299440"><ele>80.70</ele><time>2026-08-29T11:01:16Z</time></trkpt><trkpt lat="60.2417829819" lon="30.5109217297"><ele>79.71</ele><time>2026-08-29T11:01:18Z</time></trkpt><trkpt lat="60.2418045234" lon="30.5109301955"><ele>79.70</ele><time>2026-08-29T11:01:42Z</time></trkpt><trkpt lat="60.2417953871" lon="30.5109713506"><ele>81.56</ele><time>2026-08-29T11:01:46Z</time></trkpt><trkpt lat="60.2417795453" lon="30.5110940617"><ele>81.50</ele><time>2026-08-29T11:01:50Z</time></trkpt><trkpt lat="60.2417201176" lon="30.5114081316"><ele>80.96</ele><time>2026-08-29T11:02:01Z</time></trkpt><trkpt lat="60.2417961415" lon="30.5116807949"><ele>81.44</ele><time>2026-08-29T11:02:16Z</time></trkpt><trkpt lat="60.2418057807" lon="30.5119575653"><ele>81.95</ele><time>2026-08-29T11:02:26Z</time></trkpt><trkpt lat="60.2417982370" lon="30.5121245328"><ele>81.74</ele><time>2026-08-29T11:02:40Z</time></trkpt><trkpt lat="60.2417836525" lon="30.5122855492"><ele>81.54</ele><time>2026-08-29T11:03:00Z</time></trkpt><trkpt lat="60.2417981531" lon="30.5124688614"><ele>81.57</ele><time>2026-08-29T11:03:14Z</time></trkpt><trkpt lat="60.2418331895" lon="30.5126887187"><ele>81.49</ele><time>2026-08-29T11:03:27Z</time></trkpt><trkpt lat="60.2417852450" lon="30.5129240826"><ele>82.60</ele><time>2026-08-29T11:03:44Z</time></trkpt><trkpt lat="60.2417811379" lon="30.5129580293"><ele>81.69</ele><time>2026-08-29T11:03:46Z</time></trkpt><trkpt lat="60.2417625301" lon="30.5131204706"><ele>81.63</ele><time>2026-08-29T11:04:00Z</time></trkpt><trkpt lat="60.2417007554" lon="30.5131958239"><ele>81.24</ele><time>2026-08-29T11:04:21Z</time></trkpt><trkpt lat="60.2416787948" lon="30.5134591833"><ele>82.18</ele><time>2026-08-29T11:04:32Z</time></trkpt><trkpt lat="60.2416825667" lon="30.5135620292"><ele>82.50</ele><time>2026-08-29T11:04:41Z</time></trkpt><trkpt lat="60.2416986600" lon="30.5136437528"><ele>82.29</ele><time>2026-08-29T11:04:54Z</time></trkpt><trkpt lat="60.2416516375" lon="30.5137316789"><ele>82.87</ele><time>2026-08-29T11:05:25Z</time></trkpt><trkpt lat="60.2416548226" lon="30.5137217883"><ele>79.77</ele><time>2026-08-29T11:05:27Z</time></trkpt><trkpt lat="60.2416539844" lon="30.5137182679"><ele>79.15</ele><time>2026-08-29T11:05:29Z</time></trkpt><trkpt lat="60.2416636236" lon="30.5137253925"><ele>84.39</ele><time>2026-08-29T11:05:39Z</time></trkpt><trkpt lat="60.2416627854" lon="30.5137299187"><ele>82.98</ele><time>2026-08-29T11:05:40Z</time></trkpt><trkpt lat="60.2416306827" lon="30.5137631949"><ele>81.50</ele><time>2026-08-29T11:06:04Z</time></trkpt><trkpt lat="60.2415177785" lon="30.5139362812"><ele>82.30</ele><time>2026-08-29T11:06:18Z</time></trkpt><trkpt lat="60.2414219733" lon="30.5141292326"><ele>81.72</ele><time>2026-08-29T11:06:30Z</time></trkpt><trkpt lat="60.2413663175" lon="30.5142618343"><ele>81.53</ele><time>2026-08-29T11:06:42Z</time></trkpt><trkpt lat="60.2413171995" lon="30.5142926797"><ele>81.94</ele><time>2026-08-29T11:06:53Z</time></trkpt><trkpt lat="60.2412970830" lon="30.5143030733"><ele>81.18</ele><time>2026-08-29T11:07:02Z</time></trkpt><trkpt lat="60.2412731946" lon="30.5143287219"><ele>81.40</ele><time>2026-08-29T11:07:04Z</time></trkpt><trkpt lat="60.2411624696" lon="30.5143837072"><ele>81.84</ele><time>2026-08-29T11:07:18Z</time></trkpt><trkpt lat="60.2411725279" lon="30.5145685282"><ele>82.31</ele><time>2026-08-29T11:07:31Z</time></trkpt><trkpt lat="60.2411554288" lon="30.5148041435"><ele>83.28</ele><time>2026-08-29T11:07:45Z</time></trkpt><trkpt lat="60.2411516570" lon="30.5151004437"><ele>82.49</ele><time>2026-08-29T11:07:57Z</time></trkpt><trkpt lat="60.2411562670" lon="30.5152787268"><ele>82.43</ele><time>2026-08-29T11:08:12Z</time></trkpt><trkpt lat="60.2411178779" lon="30.5154471193"><ele>82.42</ele><time>2026-08-29T11:08:24Z</time></trkpt><trkpt lat="60.2410468832" lon="30.5156769510"><ele>82.96</ele><time>2026-08-29T11:08:38Z</time></trkpt><trkpt lat="60.2410728671" lon="30.5158879235"><ele>82.51</ele><time>2026-08-29T11:08:52Z</time></trkpt><trkpt lat="60.2410684247" lon="30.5160759296"><ele>83.00</ele><time>2026-08-29T11:09:12Z</time></trkpt><trkpt lat="60.2410365734" lon="30.5162567273"><ele>82.49</ele><time>2026-08-29T11:09:26Z</time></trkpt><trkpt lat="60.2409905568" lon="30.5162998941"><ele>82.83</ele><time>2026-08-29T11:09:44Z</time></trkpt><trkpt lat="60.2410147805" lon="30.5163283926"><ele>82.82</ele><time>2026-08-29T11:10:02Z</time></trkpt><trkpt lat="60.2409957536" lon="30.5163257942"><ele>82.53</ele><time>2026-08-29T11:10:33Z</time></trkpt><trkpt lat="60.2409477253" lon="30.5162644386"><ele>82.79</ele><time>2026-08-29T11:11:02Z</time></trkpt><trkpt lat="60.2408477291" lon="30.5164398719"><ele>83.74</ele><time>2026-08-29T11:11:18Z</time></trkpt><trkpt lat="60.2407601383" lon="30.5164894927"><ele>82.81</ele><time>2026-08-29T11:11:33Z</time></trkpt><trkpt lat="60.2407020517" lon="30.5163840484"><ele>84.16</ele><time>2026-08-29T11:11:52Z</time></trkpt><trkpt lat="60.2406521793" lon="30.5164154805"><ele>84.13</ele><time>2026-08-29T11:12:11Z</time></trkpt><trkpt lat="60.2405129559" lon="30.5164500978"><ele>84.69</ele><time>2026-08-29T11:12:22Z</time></trkpt><trkpt lat="60.2404236887" lon="30.5163583998"><ele>84.20</ele><time>2026-08-29T11:12:35Z</time></trkpt><trkpt lat="60.2403734811" lon="30.5162989721"><ele>84.93</ele><time>2026-08-29T11:12:40Z</time></trkpt><trkpt lat="60.2403085213" lon="30.5161901750"><ele>85.18</ele><time>2026-08-29T11:12:52Z</time></trkpt><trkpt lat="60.2401900012" lon="30.5160887539"><ele>84.51</ele><time>2026-08-29T11:13:03Z</time></trkpt><trkpt lat="60.2401252929" lon="30.5159471836"><ele>84.41</ele><time>2026-08-29T11:13:16Z</time></trkpt><trkpt lat="60.2401123010" lon="30.5159321800"><ele>84.25</ele><time>2026-08-29T11:13:18Z</time></trkpt><trkpt lat="60.2400134783" lon="30.5158737581"><ele>83.87</ele><time>2026-08-29T11:13:24Z</time></trkpt><trkpt lat="60.2398963831" lon="30.5159242172"><ele>83.55</ele><time>2026-08-29T11:13:37Z</time></trkpt><trkpt lat="60.2398726624" lon="30.5159986485"><ele>83.74</ele><time>2026-08-29T11:13:41Z</time></trkpt><trkpt lat="60.2398293279" lon="30.5161075294"><ele>83.44</ele><time>2026-08-29T11:13:50Z</time></trkpt><trkpt lat="60.2398035955" lon="30.5161485169"><ele>83.22</ele><time>2026-08-29T11:13:53Z</time></trkpt><trkpt lat="60.2397605963" lon="30.5161660351"><ele>82.63</ele><time>2026-08-29T11:13:57Z</time></trkpt><trkpt lat="60.2397315949" lon="30.5162767600"><ele>82.28</ele><time>2026-08-29T11:14:11Z</time></trkpt><trkpt lat="60.2397093829" lon="30.5163107906"><ele>82.18</ele><time>2026-08-29T11:14:26Z</time></trkpt><trkpt lat="60.2396726701" lon="30.5163041689"><ele>81.03</ele><time>2026-08-29T11:14:40Z</time></trkpt><trkpt lat="60.2396560740" lon="30.5163327511"><ele>81.02</ele><time>2026-08-29T11:15:56Z</time></trkpt><trkpt lat="60.2396539785" lon="30.5163376965"><ele>80.67</ele><time>2026-08-29T11:17:37Z</time></trkpt><trkpt lat="60.2396516316" lon="30.5163139757"><ele>81.07</ele><time>2026-08-29T11:18:20Z</time></trkpt><trkpt lat="60.2396462671" lon="30.5163048394"><ele>80.90</ele><time>2026-08-29T11:20:02Z</time></trkpt><trkpt lat="60.2396451775" lon="30.5163057614"><ele>81.57</ele><time>2026-08-29T11:21:41Z</time></trkpt><trkpt lat="60.2396457642" lon="30.5163054261"><ele>81.13</ele><time>2026-08-29T11:23:25Z</time></trkpt><trkpt lat="60.2396794595" lon="30.5163009837"><ele>82.93</ele><time>2026-08-29T11:23:40Z</time></trkpt><trkpt lat="60.2397111431" lon="30.5162648577"><ele>82.30</ele><time>2026-08-29T11:24:07Z</time></trkpt><trkpt lat="60.2397181839" lon="30.5162379518"><ele>82.24</ele><time>2026-08-29T11:24:08Z</time></trkpt><trkpt lat="60.2397350315" lon="30.5161674600"><ele>82.52</ele><time>2026-08-29T11:24:14Z</time></trkpt><trkpt lat="60.2397917770" lon="30.5160897598"><ele>83.28</ele><time>2026-08-29T11:24:22Z</time></trkpt><trkpt lat="60.2398355305" lon="30.5159868300"><ele>83.92</ele><time>2026-08-29T11:24:30Z</time></trkpt><trkpt lat="60.2398635261" lon="30.5159417354"><ele>83.91</ele><time>2026-08-29T11:24:35Z</time></trkpt><trkpt lat="60.2398140728" lon="30.5157495383"><ele>83.83</ele><time>2026-08-29T11:24:49Z</time></trkpt><trkpt lat="60.2397643682" lon="30.5156461895"><ele>83.66</ele><time>2026-08-29T11:25:04Z</time></trkpt><trkpt lat="60.2397403959" lon="30.5154010188"><ele>83.41</ele><time>2026-08-29T11:25:17Z</time></trkpt><trkpt lat="60.2396660484" lon="30.5154297687"><ele>83.60</ele><time>2026-08-29T11:25:35Z</time></trkpt><trkpt lat="60.2396003343" lon="30.5153001845"><ele>83.29</ele><time>2026-08-29T11:25:54Z</time></trkpt><trkpt lat="60.2395529766" lon="30.5151391681"><ele>83.44</ele><time>2026-08-29T11:26:06Z</time></trkpt><trkpt lat="60.2393947262" lon="30.5149893835"><ele>83.12</ele><time>2026-08-29T11:26:21Z</time></trkpt><trkpt lat="60.2393734362" lon="30.5149336439"><ele>83.10</ele><time>2026-08-29T11:26:47Z</time></trkpt><trkpt lat="60.2393445186" lon="30.5150320474"><ele>83.00</ele><time>2026-08-29T11:27:15Z</time></trkpt><trkpt lat="60.2392711770" lon="30.5150667485"><ele>82.49</ele><time>2026-08-29T11:27:28Z</time></trkpt><trkpt lat="60.2392186224" lon="30.5150554329"><ele>82.81</ele><time>2026-08-29T11:27:48Z</time></trkpt><trkpt lat="60.2391515672" lon="30.5149917305"><ele>82.23</ele><time>2026-08-29T11:28:01Z</time></trkpt><trkpt lat="60.2391382400" lon="30.5150021240"><ele>82.15</ele><time>2026-08-29T11:28:04Z</time></trkpt><trkpt lat="60.2390901279" lon="30.5149788223"><ele>82.82</ele><time>2026-08-29T11:28:09Z</time></trkpt><trkpt lat="60.2390525769" lon="30.5149555206"><ele>82.40</ele><time>2026-08-29T11:28:22Z</time></trkpt><trkpt lat="60.2391396649" lon="30.5147844460"><ele>83.21</ele><time>2026-08-29T11:28:37Z</time></trkpt><trkpt lat="60.2391480468" lon="30.5146439653"><ele>83.52</ele><time>2026-08-29T11:28:57Z</time></trkpt><trkpt lat="60.2391330432" lon="30.5146332365"><ele>83.20</ele><time>2026-08-29T11:29:23Z</time></trkpt><trkpt lat="60.2391587757" lon="30.5145705398"><ele>84.54</ele><time>2026-08-29T11:29:55Z</time></trkpt><trkpt lat="60.2391435206" lon="30.5146105215"><ele>84.05</ele><time>2026-08-29T11:30:32Z</time></trkpt><trkpt lat="60.2391290199" lon="30.5146226753"><ele>84.08</ele><time>2026-08-29T11:31:02Z</time></trkpt><trkpt lat="60.2391541656" lon="30.5145674385"><ele>84.95</ele><time>2026-08-29T11:31:43Z</time></trkpt><trkpt lat="60.2391653974" lon="30.5145829450"><ele>84.76</ele><time>2026-08-29T11:32:10Z</time></trkpt><trkpt lat="60.2392462827" lon="30.5145387724"><ele>84.69</ele><time>2026-08-29T11:32:25Z</time></trkpt><trkpt lat="60.2392197959" lon="30.5145550333"><ele>84.61</ele><time>2026-08-29T11:32:53Z</time></trkpt><trkpt lat="60.2392765414" lon="30.5145864654"><ele>84.52</ele><time>2026-08-29T11:33:28Z</time></trkpt><trkpt lat="60.2392755356" lon="30.5146886408"><ele>84.39</ele><time>2026-08-29T11:33:47Z</time></trkpt><trkpt lat="60.2391585242" lon="30.5146876350"><ele>83.83</ele><time>2026-08-29T11:34:02Z</time></trkpt><trkpt lat="60.2390172891" lon="30.5146278720"><ele>84.12</ele><time>2026-08-29T11:34:15Z</time></trkpt><trkpt lat="60.2389382478" lon="30.5144853797"><ele>84.29</ele><time>2026-08-29T11:34:29Z</time></trkpt><trkpt lat="60.2388498187" lon="30.5144449789"><ele>84.22</ele><time>2026-08-29T11:34:43Z</time></trkpt><trkpt lat="60.2387539297" lon="30.5143938493"><ele>82.75</ele><time>2026-08-29T11:35:10Z</time></trkpt><trkpt lat="60.2387262695" lon="30.5143964477"><ele>84.65</ele><time>2026-08-29T11:35:22Z</time></trkpt><trkpt lat="60.2387045603" lon="30.5142182484"><ele>84.24</ele><time>2026-08-29T11:35:38Z</time></trkpt><trkpt lat="60.2387024648" lon="30.5144747347"><ele>84.28</ele><time>2026-08-29T11:35:54Z</time></trkpt><trkpt lat="60.2386898920" lon="30.5143551249"><ele>84.33</ele><time>2026-08-29T11:36:12Z</time></trkpt><trkpt lat="60.2385585476" lon="30.5140860658"><ele>84.74</ele><time>2026-08-29T11:36:27Z</time></trkpt><trkpt lat="60.2384367585" lon="30.5139039271"><ele>85.08</ele><time>2026-08-29T11:36:43Z</time></trkpt><trkpt lat="60.2383986209" lon="30.5138328485"><ele>84.80</ele><time>2026-08-29T11:37:11Z</time></trkpt><trkpt lat="60.2383335773" lon="30.5138587486"><ele>84.71</ele><time>2026-08-29T11:37:37Z</time></trkpt><trkpt lat="60.2383151371" lon="30.5138781946"><ele>84.58</ele><time>2026-08-29T11:38:08Z</time></trkpt><trkpt lat="60.2382876445" lon="30.5139227863"><ele>84.55</ele><time>2026-08-29T11:38:32Z</time></trkpt><trkpt lat="60.2382305637" lon="30.5139401369"><ele>85.15</ele><time>2026-08-29T11:38:49Z</time></trkpt><trkpt lat="60.2381818648" lon="30.5138755962"><ele>85.53</ele><time>2026-08-29T11:39:07Z</time></trkpt><trkpt lat="60.2381361835" lon="30.5139156617"><ele>84.74</ele><time>2026-08-29T11:39:23Z</time></trkpt><trkpt lat="60.2381392848" lon="30.5139621813"><ele>84.78</ele><time>2026-08-29T11:39:40Z</time></trkpt><trkpt lat="60.2381252870" lon="30.5139091238"><ele>84.86</ele><time>2026-08-29T11:39:52Z</time></trkpt><trkpt lat="60.2380075213" lon="30.5140026659"><ele>84.84</ele><time>2026-08-29T11:40:06Z</time></trkpt><trkpt lat="60.2378660347" lon="30.5140595790"><ele>85.08</ele><time>2026-08-29T11:40:22Z</time></trkpt><trkpt lat="60.2376930322" lon="30.5141327530"><ele>85.35</ele><time>2026-08-29T11:40:39Z</time></trkpt><trkpt lat="60.2376756817" lon="30.5142050888"><ele>84.98</ele><time>2026-08-29T11:40:59Z</time></trkpt><trkpt lat="60.2376736701" lon="30.5142177455"><ele>85.01</ele><time>2026-08-29T11:41:31Z</time></trkpt><trkpt lat="60.2376756817" lon="30.5141838826"><ele>84.90</ele><time>2026-08-29T11:41:57Z</time></trkpt><trkpt lat="60.2377231233" lon="30.5141281430"><ele>84.98</ele><time>2026-08-29T11:42:19Z</time></trkpt><trkpt lat="60.2378605865" lon="30.5140620936"><ele>85.61</ele><time>2026-08-29T11:42:32Z</time></trkpt><trkpt lat="60.2379165776" lon="30.5140563939"><ele>84.53</ele><time>2026-08-29T11:42:37Z</time></trkpt><trkpt lat="60.2380134724" lon="30.5139356945"><ele>85.21</ele><time>2026-08-29T11:42:50Z</time></trkpt><trkpt lat="60.2380399592" lon="30.5137295835"><ele>85.85</ele><time>2026-08-29T11:43:05Z</time></trkpt><trkpt lat="60.2381065954" lon="30.5136530567"><ele>84.93</ele><time>2026-08-29T11:43:16Z</time></trkpt><trkpt lat="60.2382432204" lon="30.5137069523"><ele>84.56</ele><time>2026-08-29T11:43:37Z</time></trkpt><trkpt lat="60.2383926697" lon="30.5136843212"><ele>85.52</ele><time>2026-08-29T11:43:50Z</time></trkpt><trkpt lat="60.2384397760" lon="30.5136652943"><ele>84.72</ele><time>2026-08-29T11:43:55Z</time></trkpt><trkpt lat="60.2384987846" lon="30.5135834869"><ele>84.50</ele><time>2026-08-29T11:44:03Z</time></trkpt><trkpt lat="60.2385655046" lon="30.5136024300"><ele>84.79</ele><time>2026-08-29T11:44:18Z</time></trkpt><trkpt lat="60.2385828551" lon="30.5136026815"><ele>85.11</ele><time>2026-08-29T11:44:42Z</time></trkpt><trkpt lat="60.2386530954" lon="30.5134724267"><ele>85.25</ele><time>2026-08-29T11:45:00Z</time></trkpt><trkpt lat="60.2386858687" lon="30.5133455247"><ele>85.62</ele><time>2026-08-29T11:45:16Z</time></trkpt><trkpt lat="60.2386806719" lon="30.5131070595"><ele>86.07</ele><time>2026-08-29T11:45:31Z</time></trkpt><trkpt lat="60.2386385947" lon="30.5129453726"><ele>85.92</ele><time>2026-08-29T11:45:44Z</time></trkpt><trkpt lat="60.2386368345" lon="30.5127512477"><ele>85.98</ele><time>2026-08-29T11:45:58Z</time></trkpt><trkpt lat="60.2386656683" lon="30.5125681870"><ele>85.64</ele><time>2026-08-29T11:46:09Z</time></trkpt><trkpt lat="60.2387457993" lon="30.5124313943"><ele>85.65</ele><time>2026-08-29T11:46:22Z</time></trkpt><trkpt lat="60.2387644909" lon="30.5123053305"><ele>85.97</ele><time>2026-08-29T11:46:35Z</time></trkpt><trkpt lat="60.2388187218" lon="30.5122287199"><ele>85.81</ele><time>2026-08-29T11:46:48Z</time></trkpt><trkpt lat="60.2388527524" lon="30.5120464973"><ele>86.17</ele><time>2026-08-29T11:47:00Z</time></trkpt><trkpt lat="60.2388630621" lon="30.5119090341"><ele>85.54</ele><time>2026-08-29T11:47:14Z</time></trkpt><trkpt lat="60.2388671692" lon="30.5117526278"><ele>85.06</ele><time>2026-08-29T11:47:27Z</time></trkpt><trkpt lat="60.2388480585" lon="30.5115622748"><ele>85.03</ele><time>2026-08-29T11:47:39Z</time></trkpt><trkpt lat="60.2387907263" lon="30.5113508832"><ele>85.46</ele><time>2026-08-29T11:47:52Z</time></trkpt><trkpt lat="60.2387340646" lon="30.5111778807"><ele>84.91</ele><time>2026-08-29T11:48:03Z</time></trkpt><trkpt lat="60.2387234196" lon="30.5111232307"><ele>84.96</ele><time>2026-08-29T11:48:22Z</time></trkpt><trkpt lat="60.2387383394" lon="30.5111915432"><ele>84.78</ele><time>2026-08-29T11:49:01Z</time></trkpt><trkpt lat="60.2387612220" lon="30.5111974943"><ele>84.70</ele><time>2026-08-29T11:49:26Z</time></trkpt><trkpt lat="60.2387858648" lon="30.5112101510"><ele>84.80</ele><time>2026-08-29T11:49:29Z</time></trkpt><trkpt lat="60.2388988528" lon="30.5112141743"><ele>85.01</ele><time>2026-08-29T11:49:44Z</time></trkpt><trkpt lat="60.2389989328" lon="30.5112278368"><ele>85.79</ele><time>2026-08-29T11:49:56Z</time></trkpt><trkpt lat="60.2390383277" lon="30.5111394916"><ele>85.85</ele><time>2026-08-29T11:50:12Z</time></trkpt><trkpt lat="60.2391052991" lon="30.5110952351"><ele>85.09</ele><time>2026-08-29T11:50:22Z</time></trkpt><trkpt lat="60.2391468734" lon="30.5110772979"><ele>85.36</ele><time>2026-08-29T11:50:38Z</time></trkpt><trkpt lat="60.2391732763" lon="30.5111267511"><ele>86.25</ele><time>2026-08-29T11:51:04Z</time></trkpt><trkpt lat="60.2391638886" lon="30.5110499728"><ele>85.26</ele><time>2026-08-29T11:51:38Z</time></trkpt><trkpt lat="60.2391886991" lon="30.5109259207"><ele>84.75</ele><time>2026-08-29T11:51:50Z</time></trkpt><trkpt lat="60.2392575983" lon="30.5108586140"><ele>85.08</ele><time>2026-08-29T11:52:01Z</time></trkpt><trkpt lat="60.2392480429" lon="30.5106996931"><ele>85.52</ele><time>2026-08-29T11:52:17Z</time></trkpt><trkpt lat="60.2391725220" lon="30.5106328893"><ele>84.54</ele><time>2026-08-29T11:52:30Z</time></trkpt><trkpt lat="60.2391008567" lon="30.5104470626"><ele>84.34</ele><time>2026-08-29T11:52:43Z</time></trkpt><trkpt lat="60.2390391659" lon="30.5102881417"><ele>86.16</ele><time>2026-08-29T11:52:54Z</time></trkpt><trkpt lat="60.2390389144" lon="30.5102744792"><ele>85.00</ele><time>2026-08-29T11:52:56Z</time></trkpt><trkpt lat="60.2390426863" lon="30.5102164764"><ele>84.53</ele><time>2026-08-29T11:53:03Z</time></trkpt><trkpt lat="60.2390670776" lon="30.5101830326"><ele>84.55</ele><time>2026-08-29T11:53:07Z</time></trkpt><trkpt lat="60.2391008567" lon="30.5101317354"><ele>84.47</ele><time>2026-08-29T11:53:11Z</time></trkpt><trkpt lat="60.2391158603" lon="30.5099306535"><ele>84.58</ele><time>2026-08-29T11:53:21Z</time></trkpt><trkpt lat="60.2391168661" lon="30.5098720640"><ele>84.11</ele><time>2026-08-29T11:53:24Z</time></trkpt><trkpt lat="60.2390573546" lon="30.5097186752"><ele>84.79</ele><time>2026-08-29T11:53:35Z</time></trkpt><trkpt lat="60.2389738709" lon="30.5096006580"><ele>84.67</ele><time>2026-08-29T11:53:49Z</time></trkpt><trkpt lat="60.2389409300" lon="30.5095565692"><ele>84.61</ele><time>2026-08-29T11:53:53Z</time></trkpt><trkpt lat="60.2389139403" lon="30.5092921201"><ele>84.36</ele><time>2026-08-29T11:54:06Z</time></trkpt><trkpt lat="60.2388931531" lon="30.5092122406"><ele>84.50</ele><time>2026-08-29T11:54:11Z</time></trkpt><trkpt lat="60.2388744615" lon="30.5091756955"><ele>84.74</ele><time>2026-08-29T11:54:14Z</time></trkpt><trkpt lat="60.2388679236" lon="30.5091270804"><ele>84.61</ele><time>2026-08-29T11:54:16Z</time></trkpt><trkpt lat="60.2388484776" lon="30.5090455245"><ele>84.61</ele><time>2026-08-29T11:54:21Z</time></trkpt><trkpt lat="60.2387699392" lon="30.5089158565"><ele>84.72</ele><time>2026-08-29T11:54:32Z</time></trkpt><trkpt lat="60.2386639919" lon="30.5088848434"><ele>84.96</ele><time>2026-08-29T11:54:44Z</time></trkpt><trkpt lat="60.2386417799" lon="30.5088669900"><ele>84.65</ele><time>2026-08-29T11:54:48Z</time></trkpt><trkpt lat="60.2385616489" lon="30.5089147668"><ele>84.61</ele><time>2026-08-29T11:55:01Z</time></trkpt><trkpt lat="60.2384665981" lon="30.5089494679"><ele>84.92</ele><time>2026-08-29T11:55:13Z</time></trkpt><trkpt lat="60.2384728845" lon="30.5089359730"><ele>84.58</ele><time>2026-08-29T11:55:43Z</time></trkpt><trkpt lat="60.2384700347" lon="30.5089459475"><ele>84.01</ele><time>2026-08-29T11:56:14Z</time></trkpt><trkpt lat="60.2384659275" lon="30.5089352187"><ele>84.23</ele><time>2026-08-29T11:56:47Z</time></trkpt><trkpt lat="60.2384733874" lon="30.5089098215"><ele>84.21</ele><time>2026-08-29T11:56:55Z</time></trkpt><trkpt lat="60.2384531870" lon="30.5087812431"><ele>84.01</ele><time>2026-08-29T11:57:07Z</time></trkpt><trkpt lat="60.2384545282" lon="30.5087494757"><ele>83.89</ele><time>2026-08-29T11:57:08Z</time></trkpt><trkpt lat="60.2384102717" lon="30.5086046364"><ele>83.97</ele><time>2026-08-29T11:57:20Z</time></trkpt><trkpt lat="60.2384116966" lon="30.5084518343"><ele>83.79</ele><time>2026-08-29T11:57:40Z</time></trkpt><trkpt lat="60.2384346630" lon="30.5083111860"><ele>83.94</ele><time>2026-08-29T11:57:53Z</time></trkpt><trkpt lat="60.2384085953" lon="30.5082587991"><ele>83.91</ele><time>2026-08-29T11:58:05Z</time></trkpt><trkpt lat="60.2383935917" lon="30.5081509240"><ele>83.86</ele><time>2026-08-29T11:58:10Z</time></trkpt><trkpt lat="60.2384189889" lon="30.5080585554"><ele>84.44</ele><time>2026-08-29T11:58:25Z</time></trkpt><trkpt lat="60.2384220902" lon="30.5080490839"><ele>84.36</ele><time>2026-08-29T11:58:44Z</time></trkpt><trkpt lat="60.2384230960" lon="30.5080157239"><ele>84.11</ele><time>2026-08-29T11:58:57Z</time></trkpt><trkpt lat="60.2384145465" lon="30.5078414641"><ele>83.71</ele><time>2026-08-29T11:59:12Z</time></trkpt><trkpt lat="60.2384114452" lon="30.5078353453"><ele>83.64</ele><time>2026-08-29T11:59:13Z</time></trkpt><trkpt lat="60.2383096889" lon="30.5076996423"><ele>83.42</ele><time>2026-08-29T11:59:29Z</time></trkpt><trkpt lat="60.2383058332" lon="30.5077373609"><ele>83.42</ele><time>2026-08-29T11:59:34Z</time></trkpt><trkpt lat="60.2383439709" lon="30.5078488402"><ele>83.41</ele><time>2026-08-29T11:59:49Z</time></trkpt><trkpt lat="60.2383451443" lon="30.5077975430"><ele>83.54</ele><time>2026-08-29T12:00:15Z</time></trkpt><trkpt lat="60.2383036539" lon="30.5077082757"><ele>83.63</ele><time>2026-08-29T12:00:30Z</time></trkpt><trkpt lat="60.2382758260" lon="30.5076058488"><ele>83.60</ele><time>2026-08-29T12:00:43Z</time></trkpt><trkpt lat="60.2382415440" lon="30.5075208563"><ele>83.51</ele><time>2026-08-29T12:00:56Z</time></trkpt><trkpt lat="60.2381988801" lon="30.5073551461"><ele>83.35</ele><time>2026-08-29T12:01:13Z</time></trkpt><trkpt lat="60.2381275501" lon="30.5072080437"><ele>83.31</ele><time>2026-08-29T12:01:25Z</time></trkpt><trkpt lat="60.2380674519" lon="30.5071113165"><ele>83.64</ele><time>2026-08-29T12:01:37Z</time></trkpt><trkpt lat="60.2380303200" lon="30.5071338639"><ele>84.17</ele><time>2026-08-29T12:01:54Z</time></trkpt><trkpt lat="60.2379856445" lon="30.5069585983"><ele>83.31</ele><time>2026-08-29T12:02:09Z</time></trkpt><trkpt lat="60.2379713114" lon="30.5067834165"><ele>84.31</ele><time>2026-08-29T12:02:26Z</time></trkpt><trkpt lat="60.2379449923" lon="30.5066154432"><ele>83.45</ele><time>2026-08-29T12:02:35Z</time></trkpt><trkpt lat="60.2379259653" lon="30.5066475458"><ele>83.96</ele><time>2026-08-29T12:02:51Z</time></trkpt><trkpt lat="60.2379181702" lon="30.5067982525"><ele>84.10</ele><time>2026-08-29T12:02:56Z</time></trkpt><trkpt lat="60.2378334291" lon="30.5069246516"><ele>84.07</ele><time>2026-08-29T12:03:07Z</time></trkpt><trkpt lat="60.2377065271" lon="30.5068234820"><ele>83.70</ele><time>2026-08-29T12:03:20Z</time></trkpt><trkpt lat="60.2376938704" lon="30.5068815686"><ele>84.13</ele><time>2026-08-29T12:03:40Z</time></trkpt><trkpt lat="60.2376872487" lon="30.5068168603"><ele>84.22</ele><time>2026-08-29T12:04:02Z</time></trkpt><trkpt lat="60.2377526276" lon="30.5068106577"><ele>84.19</ele><time>2026-08-29T12:04:39Z</time></trkpt><trkpt lat="60.2376799565" lon="30.5066717695"><ele>83.73</ele><time>2026-08-29T12:05:03Z</time></trkpt><trkpt lat="60.2376715746" lon="30.5064290296"><ele>83.78</ele><time>2026-08-29T12:05:15Z</time></trkpt><trkpt lat="60.2376735862" lon="30.5064025428"><ele>83.70</ele><time>2026-08-29T12:05:16Z</time></trkpt><trkpt lat="60.2376648691" lon="30.5063487310"><ele>83.76</ele><time>2026-08-29T12:05:20Z</time></trkpt><trkpt lat="60.2376856562" lon="30.5061474815"><ele>83.72</ele><time>2026-08-29T12:05:29Z</time></trkpt><trkpt lat="60.2376936190" lon="30.5060260277"><ele>83.53</ele><time>2026-08-29T12:05:39Z</time></trkpt><trkpt lat="60.2376040164" lon="30.5059007183"><ele>83.39</ele><time>2026-08-29T12:05:48Z</time></trkpt><trkpt lat="60.2375876717" lon="30.5058559589"><ele>83.36</ele><time>2026-08-29T12:05:50Z</time></trkpt><trkpt lat="60.2375151683" lon="30.5056842975"><ele>83.11</ele><time>2026-08-29T12:06:05Z</time></trkpt><trkpt lat="60.2375180181" lon="30.5056932662"><ele>83.90</ele><time>2026-08-29T12:06:10Z</time></trkpt><trkpt lat="60.2375061996" lon="30.5055705551"><ele>83.04</ele><time>2026-08-29T12:06:23Z</time></trkpt><trkpt lat="60.2374553215" lon="30.5055345967"><ele>83.38</ele><time>2026-08-29T12:06:34Z</time></trkpt><trkpt lat="60.2374307625" lon="30.5052814633"><ele>83.29</ele><time>2026-08-29T12:06:47Z</time></trkpt><trkpt lat="60.2374189440" lon="30.5050773639"><ele>83.11</ele><time>2026-08-29T12:06:59Z</time></trkpt><trkpt lat="60.2374042757" lon="30.5049071275"><ele>82.95</ele><time>2026-08-29T12:07:10Z</time></trkpt><trkpt lat="60.2374076284" lon="30.5046463665"><ele>82.85</ele><time>2026-08-29T12:07:25Z</time></trkpt><trkpt lat="60.2373914514" lon="30.5045152735"><ele>82.97</ele><time>2026-08-29T12:07:36Z</time></trkpt><trkpt lat="60.2373731788" lon="30.5043956637"><ele>83.24</ele><time>2026-08-29T12:07:44Z</time></trkpt><trkpt lat="60.2373450156" lon="30.5042338092"><ele>83.40</ele><time>2026-08-29T12:07:59Z</time></trkpt><trkpt lat="60.2373621985" lon="30.5041954201"><ele>82.59</ele><time>2026-08-29T12:08:23Z</time></trkpt><trkpt lat="60.2373554930" lon="30.5041827634"><ele>82.52</ele><time>2026-08-29T12:08:50Z</time></trkpt><trkpt lat="60.2373235580" lon="30.5040626507"><ele>83.11</ele><time>2026-08-29T12:09:16Z</time></trkpt><trkpt lat="60.2373180259" lon="30.5040494911"><ele>83.17</ele><time>2026-08-29T12:09:17Z</time></trkpt><trkpt lat="60.2373172715" lon="30.5039638281"><ele>83.12</ele><time>2026-08-29T12:09:21Z</time></trkpt><trkpt lat="60.2372750267" lon="30.5037178192"><ele>82.58</ele><time>2026-08-29T12:09:35Z</time></trkpt><trkpt lat="60.2372613642" lon="30.5036710482"><ele>82.55</ele><time>2026-08-29T12:09:41Z</time></trkpt><trkpt lat="60.2372432593" lon="30.5035556294"><ele>82.48</ele><time>2026-08-29T12:09:54Z</time></trkpt><trkpt lat="60.2372374758" lon="30.5033475906"><ele>82.33</ele><time>2026-08-29T12:10:10Z</time></trkpt><trkpt lat="60.2372472826" lon="30.5033037532"><ele>82.02</ele><time>2026-08-29T12:10:28Z</time></trkpt><trkpt lat="60.2371668164" lon="30.5031325947"><ele>82.30</ele><time>2026-08-29T12:10:40Z</time></trkpt><trkpt lat="60.2371209674" lon="30.5030292459"><ele>82.09</ele><time>2026-08-29T12:10:51Z</time></trkpt><trkpt lat="60.2371210512" lon="30.5030292459"><ele>82.43</ele><time>2026-08-29T12:11:28Z</time></trkpt><trkpt lat="60.2371194586" lon="30.5030458421"><ele>82.94</ele><time>2026-08-29T12:12:09Z</time></trkpt><trkpt lat="60.2371670678" lon="30.5029454269"><ele>82.08</ele><time>2026-08-29T12:12:30Z</time></trkpt><trkpt lat="60.2371954825" lon="30.5028409883"><ele>82.41</ele><time>2026-08-29T12:12:43Z</time></trkpt><trkpt lat="60.2371934708" lon="30.5028423294"><ele>82.28</ele><time>2026-08-29T12:12:45Z</time></trkpt><trkpt lat="60.2371823229" lon="30.5028016772"><ele>81.84</ele><time>2026-08-29T12:12:50Z</time></trkpt><trkpt lat="60.2371267509" lon="30.5025731865"><ele>81.81</ele><time>2026-08-29T12:13:05Z</time></trkpt><trkpt lat="60.2370634675" lon="30.5023549218"><ele>81.93</ele><time>2026-08-29T12:13:17Z</time></trkpt><trkpt lat="60.2369868569" lon="30.5021740403"><ele>81.73</ele><time>2026-08-29T12:13:29Z</time></trkpt><trkpt lat="60.2369525749" lon="30.5020598788"><ele>82.53</ele><time>2026-08-29T12:13:37Z</time></trkpt><trkpt lat="60.2368238289" lon="30.5019456334"><ele>82.04</ele><time>2026-08-29T12:13:54Z</time></trkpt><trkpt lat="60.2368062269" lon="30.5019438732"><ele>81.94</ele><time>2026-08-29T12:13:56Z</time></trkpt><trkpt lat="60.2367836796" lon="30.5019010417"><ele>81.97</ele><time>2026-08-29T12:13:59Z</time></trkpt><trkpt lat="60.2367131878" lon="30.5017761514"><ele>82.20</ele><time>2026-08-29T12:14:13Z</time></trkpt><trkpt lat="60.2367111761" lon="30.5017000437"><ele>82.15</ele><time>2026-08-29T12:14:25Z</time></trkpt><trkpt lat="60.2367179655" lon="30.5016812682"><ele>81.94</ele><time>2026-08-29T12:14:55Z</time></trkpt><trkpt lat="60.2367199771" lon="30.5016561225"><ele>80.87</ele><time>2026-08-29T12:15:14Z</time></trkpt><trkpt lat="60.2367226593" lon="30.5016288813"><ele>82.45</ele><time>2026-08-29T12:15:16Z</time></trkpt><trkpt lat="60.2366751339" lon="30.5014569685"><ele>81.88</ele><time>2026-08-29T12:15:27Z</time></trkpt><trkpt lat="60.2366578672" lon="30.5014149752"><ele>81.82</ele><time>2026-08-29T12:15:30Z</time></trkpt><trkpt lat="60.2366490662" lon="30.5013837945"><ele>81.88</ele><time>2026-08-29T12:15:32Z</time></trkpt><trkpt lat="60.2366078272" lon="30.5011459999"><ele>82.06</ele><time>2026-08-29T12:15:47Z</time></trkpt><trkpt lat="60.2366044745" lon="30.5011158250"><ele>81.68</ele><time>2026-08-29T12:16:07Z</time></trkpt><trkpt lat="60.2365954220" lon="30.5011009891"><ele>81.67</ele><time>2026-08-29T12:16:19Z</time></trkpt><trkpt lat="60.2365641575" lon="30.5009953771"><ele>81.36</ele><time>2026-08-29T12:16:26Z</time></trkpt><trkpt lat="60.2365437895" lon="30.5008411501"><ele>81.76</ele><time>2026-08-29T12:16:37Z</time></trkpt><trkpt lat="60.2364832722" lon="30.5006429181"><ele>82.51</ele><time>2026-08-29T12:16:51Z</time></trkpt><trkpt lat="60.2364238445" lon="30.5004976597"><ele>81.98</ele><time>2026-08-29T12:17:06Z</time></trkpt><trkpt lat="60.2363949269" lon="30.5003015231"><ele>81.66</ele><time>2026-08-29T12:17:19Z</time></trkpt><trkpt lat="60.2363298833" lon="30.5001729447"><ele>82.24</ele><time>2026-08-29T12:17:30Z</time></trkpt><trkpt lat="60.2363106888" lon="30.5000958312"><ele>82.84</ele><time>2026-08-29T12:17:38Z</time></trkpt><trkpt lat="60.2362771612" lon="30.4999290314"><ele>81.66</ele><time>2026-08-29T12:17:50Z</time></trkpt><trkpt lat="60.2361808531" lon="30.4997118562"><ele>82.01</ele><time>2026-08-29T12:18:01Z</time></trkpt><trkpt lat="60.2361171506" lon="30.4995021410"><ele>81.49</ele><time>2026-08-29T12:18:13Z</time></trkpt><trkpt lat="60.2360964473" lon="30.4994487483"><ele>81.64</ele><time>2026-08-29T12:18:18Z</time></trkpt><trkpt lat="60.2360753249" lon="30.4993430525"><ele>82.31</ele><time>2026-08-29T12:18:39Z</time></trkpt><trkpt lat="60.2360913344" lon="30.4993016459"><ele>81.37</ele><time>2026-08-29T12:19:09Z</time></trkpt><trkpt lat="60.2360549569" lon="30.4992684536"><ele>81.36</ele><time>2026-08-29T12:19:42Z</time></trkpt><trkpt lat="60.2360133827" lon="30.4990980495"><ele>81.35</ele><time>2026-08-29T12:19:55Z</time></trkpt><trkpt lat="60.2359822858" lon="30.4989904258"><ele>81.43</ele><time>2026-08-29T12:20:01Z</time></trkpt><trkpt lat="60.2359465789" lon="30.4989341833"><ele>81.53</ele><time>2026-08-29T12:20:05Z</time></trkpt><trkpt lat="60.2359719761" lon="30.4986846540"><ele>81.44</ele><time>2026-08-29T12:20:19Z</time></trkpt><trkpt lat="60.2359790169" lon="30.4985281639"><ele>81.47</ele><time>2026-08-29T12:20:31Z</time></trkpt><trkpt lat="60.2359641809" lon="30.4984604381"><ele>81.38</ele><time>2026-08-29T12:20:35Z</time></trkpt><trkpt lat="60.2359635942" lon="30.4981899541"><ele>79.66</ele><time>2026-08-29T12:20:46Z</time></trkpt><trkpt lat="60.2359606605" lon="30.4981766269"><ele>79.48</ele><time>2026-08-29T12:20:47Z</time></trkpt><trkpt lat="60.2359364368" lon="30.4981404170"><ele>81.86</ele><time>2026-08-29T12:20:50Z</time></trkpt><trkpt lat="60.2359437291" lon="30.4980565980"><ele>81.90</ele><time>2026-08-29T12:20:55Z</time></trkpt><trkpt lat="60.2359505184" lon="30.4980070610"><ele>81.05</ele><time>2026-08-29T12:20:59Z</time></trkpt><trkpt lat="60.2359193377" lon="30.4977946635"><ele>81.82</ele><time>2026-08-29T12:21:13Z</time></trkpt><trkpt lat="60.2360048331" lon="30.4977205675"><ele>81.11</ele><time>2026-08-29T12:21:30Z</time></trkpt><trkpt lat="60.2360409591" lon="30.4977723677"><ele>81.40</ele><time>2026-08-29T12:21:54Z</time></trkpt><trkpt lat="60.2360209264" lon="30.4978219885"><ele>81.38</ele><time>2026-08-29T12:22:43Z</time></trkpt><trkpt lat="60.2360173222" lon="30.4977897182"><ele>81.20</ele><time>2026-08-29T12:23:31Z</time></trkpt><trkpt lat="60.2360029891" lon="30.4977840185"><ele>81.25</ele><time>2026-08-29T12:24:02Z</time></trkpt><trkpt lat="60.2360525262" lon="30.4977349844"><ele>81.46</ele><time>2026-08-29T12:24:43Z</time></trkpt><trkpt lat="60.2360340860" lon="30.4977536760"><ele>81.45</ele><time>2026-08-29T12:25:10Z</time></trkpt><trkpt lat="60.2359690424" lon="30.4976489861"><ele>81.91</ele><time>2026-08-29T12:25:24Z</time></trkpt><trkpt lat="60.2358484268" lon="30.4974819347"><ele>81.65</ele><time>2026-08-29T12:25:40Z</time></trkpt><trkpt lat="60.2358009852" lon="30.4972815234"><ele>81.10</ele><time>2026-08-29T12:25:52Z</time></trkpt><trkpt lat="60.2357639372" lon="30.4971964471"><ele>81.77</ele><time>2026-08-29T12:26:02Z</time></trkpt><trkpt lat="60.2356691379" lon="30.4970330838"><ele>81.06</ele><time>2026-08-29T12:26:13Z</time></trkpt><trkpt lat="60.2355994843" lon="30.4969074391"><ele>81.24</ele><time>2026-08-29T12:26:26Z</time></trkpt><trkpt lat="60.2356309164" lon="30.4968201835"><ele>81.00</ele><time>2026-08-29T12:26:40Z</time></trkpt><trkpt lat="60.2356366999" lon="30.4967295751"><ele>80.87</ele><time>2026-08-29T12:26:50Z</time></trkpt><trkpt lat="60.2356299944" lon="30.4967006575"><ele>81.00</ele><time>2026-08-29T12:26:53Z</time></trkpt><trkpt lat="60.2355735842" lon="30.4965761863"><ele>81.43</ele><time>2026-08-29T12:27:07Z</time></trkpt><trkpt lat="60.2355887555" lon="30.4965578299"><ele>80.83</ele><time>2026-08-29T12:27:36Z</time></trkpt><trkpt lat="60.2355694771" lon="30.4965932854"><ele>80.18</ele><time>2026-08-29T12:28:01Z</time></trkpt><trkpt lat="60.2355603408" lon="30.4965702351"><ele>80.49</ele><time>2026-08-29T12:28:12Z</time></trkpt><trkpt lat="60.2355285734" lon="30.4965158366"><ele>80.67</ele><time>2026-08-29T12:28:16Z</time></trkpt><trkpt lat="60.2354973927" lon="30.4963129945"><ele>81.04</ele><time>2026-08-29T12:28:30Z</time></trkpt><trkpt lat="60.2354856580" lon="30.4961537383"><ele>80.84</ele><time>2026-08-29T12:28:42Z</time></trkpt><trkpt lat="60.2354267333" lon="30.4959876928"><ele>80.78</ele><time>2026-08-29T12:28:56Z</time></trkpt><trkpt lat="60.2353992406" lon="30.4959194642"><ele>80.61</ele><time>2026-08-29T12:29:02Z</time></trkpt><trkpt lat="60.2353590913" lon="30.4957180470"><ele>80.61</ele><time>2026-08-29T12:29:16Z</time></trkpt><trkpt lat="60.2353340294" lon="30.4955679271"><ele>81.26</ele><time>2026-08-29T12:29:26Z</time></trkpt><trkpt lat="60.2353158407" lon="30.4955274425"><ele>79.94</ele><time>2026-08-29T12:29:28Z</time></trkpt><trkpt lat="60.2353119012" lon="30.4955121875"><ele>80.93</ele><time>2026-08-29T12:29:30Z</time></trkpt><trkpt lat="60.2353140805" lon="30.4954515863"><ele>80.95</ele><time>2026-08-29T12:29:47Z</time></trkpt><trkpt lat="60.2352908626" lon="30.4953687731"><ele>80.64</ele><time>2026-08-29T12:30:04Z</time></trkpt><trkpt lat="60.2352580894" lon="30.4952674359"><ele>80.71</ele><time>2026-08-29T12:30:14Z</time></trkpt><trkpt lat="60.2352230530" lon="30.4952451400"><ele>80.93</ele><time>2026-08-29T12:30:18Z</time></trkpt><trkpt lat="60.2351860888" lon="30.4951990396"><ele>80.46</ele><time>2026-08-29T12:30:22Z</time></trkpt><trkpt lat="60.2351442631" lon="30.4950751550"><ele>80.51</ele><time>2026-08-29T12:30:34Z</time></trkpt><trkpt lat="60.2351106517" lon="30.4949491750"><ele>80.93</ele><time>2026-08-29T12:30:46Z</time></trkpt><trkpt lat="60.2350884397" lon="30.4948777612"><ele>80.97</ele><time>2026-08-29T12:30:51Z</time></trkpt><trkpt lat="60.2350458596" lon="30.4947318323"><ele>80.84</ele><time>2026-08-29T12:31:08Z</time></trkpt><trkpt lat="60.2349929698" lon="30.4945790302"><ele>81.48</ele><time>2026-08-29T12:31:22Z</time></trkpt><trkpt lat="60.2349640522" lon="30.4945003241"><ele>81.43</ele><time>2026-08-29T12:31:39Z</time></trkpt><trkpt lat="60.2349298541" lon="30.4944154993"><ele>81.03</ele><time>2026-08-29T12:31:53Z</time></trkpt><trkpt lat="60.2348675765" lon="30.4942460172"><ele>80.96</ele><time>2026-08-29T12:32:06Z</time></trkpt><trkpt lat="60.2348554228" lon="30.4941834882"><ele>81.04</ele><time>2026-08-29T12:32:20Z</time></trkpt><trkpt lat="60.2348749526" lon="30.4941672273"><ele>80.56</ele><time>2026-08-29T12:32:52Z</time></trkpt><trkpt lat="60.2348555904" lon="30.4941122420"><ele>80.98</ele><time>2026-08-29T12:33:16Z</time></trkpt><trkpt lat="60.2348440234" lon="30.4940476175"><ele>81.09</ele><time>2026-08-29T12:33:49Z</time></trkpt><trkpt lat="60.2348428499" lon="30.4940299317"><ele>81.23</ele><time>2026-08-29T12:33:51Z</time></trkpt><trkpt lat="60.2348035388" lon="30.4939064663"><ele>80.87</ele><time>2026-08-29T12:34:00Z</time></trkpt><trkpt lat="60.2347734477" lon="30.4938001838"><ele>80.95</ele><time>2026-08-29T12:34:12Z</time></trkpt><trkpt lat="60.2347440273" lon="30.4936851840"><ele>80.44</ele><time>2026-08-29T12:34:24Z</time></trkpt><trkpt lat="60.2347336337" lon="30.4934193939"><ele>80.53</ele><time>2026-08-29T12:34:39Z</time></trkpt><trkpt lat="60.2346925624" lon="30.4932572879"><ele>81.56</ele><time>2026-08-29T12:34:52Z</time></trkpt><trkpt lat="60.2346366551" lon="30.4931553639"><ele>80.58</ele><time>2026-08-29T12:35:05Z</time></trkpt><trkpt lat="60.2346348949" lon="30.4931449704"><ele>80.85</ele><time>2026-08-29T12:35:27Z</time></trkpt><trkpt lat="60.2346506529" lon="30.4931439646"><ele>80.98</ele><time>2026-08-29T12:35:47Z</time></trkpt><trkpt lat="60.2345957514" lon="30.4929554556"><ele>80.69</ele><time>2026-08-29T12:36:04Z</time></trkpt><trkpt lat="60.2345439512" lon="30.4928752407"><ele>80.58</ele><time>2026-08-29T12:36:12Z</time></trkpt><trkpt lat="60.2344880439" lon="30.4927096982"><ele>80.59</ele><time>2026-08-29T12:36:25Z</time></trkpt><trkpt lat="60.2344605513" lon="30.4925138969"><ele>80.91</ele><time>2026-08-29T12:36:40Z</time></trkpt><trkpt lat="60.2344096731" lon="30.4922851548"><ele>80.20</ele><time>2026-08-29T12:36:52Z</time></trkpt><trkpt lat="60.2343601361" lon="30.4921596777"><ele>80.10</ele><time>2026-08-29T12:37:03Z</time></trkpt><trkpt lat="60.2343171369" lon="30.4921153374"><ele>80.97</ele><time>2026-08-29T12:37:07Z</time></trkpt><trkpt lat="60.2342283726" lon="30.4920010082"><ele>79.31</ele><time>2026-08-29T12:37:20Z</time></trkpt><trkpt lat="60.2341496665" lon="30.4919043649"><ele>81.25</ele><time>2026-08-29T12:37:32Z</time></trkpt><trkpt lat="60.2341405302" lon="30.4918891937"><ele>80.30</ele><time>2026-08-29T12:37:52Z</time></trkpt><trkpt lat="60.2341433801" lon="30.4918925464"><ele>80.17</ele><time>2026-08-29T12:38:25Z</time></trkpt><trkpt lat="60.2341437992" lon="30.4919412453"><ele>79.55</ele><time>2026-08-29T12:38:44Z</time></trkpt><trkpt lat="60.2341438830" lon="30.4920013435"><ele>79.86</ele><time>2026-08-29T12:39:00Z</time></trkpt><trkpt lat="60.2341297176" lon="30.4920288362"><ele>79.61</ele><time>2026-08-29T12:39:40Z</time></trkpt><trkpt lat="60.2341277897" lon="30.4920126591"><ele>79.89</ele><time>2026-08-29T12:40:00Z</time></trkpt><trkpt lat="60.2341376804" lon="30.4919958953"><ele>80.46</ele><time>2026-08-29T12:40:31Z</time></trkpt><trkpt lat="60.2341571264" lon="30.4919633735"><ele>79.68</ele><time>2026-08-29T12:40:45Z</time></trkpt><trkpt lat="60.2341473196" lon="30.4919449333"><ele>79.63</ele><time>2026-08-29T12:41:13Z</time></trkpt><trkpt lat="60.2340944298" lon="30.4918619525"><ele>80.01</ele><time>2026-08-29T12:41:42Z</time></trkpt><trkpt lat="60.2340925857" lon="30.4917175323"><ele>79.38</ele><time>2026-08-29T12:41:53Z</time></trkpt><trkpt lat="60.2340375166" lon="30.4916204698"><ele>79.35</ele><time>2026-08-29T12:42:04Z</time></trkpt><trkpt lat="60.2340592258" lon="30.4915001895"><ele>79.53</ele><time>2026-08-29T12:42:21Z</time></trkpt><trkpt lat="60.2340527717" lon="30.4914037976"><ele>79.89</ele><time>2026-08-29T12:42:34Z</time></trkpt><trkpt lat="60.2340178192" lon="30.4912935756"><ele>79.30</ele><time>2026-08-29T12:43:02Z</time></trkpt><trkpt lat="60.2339601517" lon="30.4911205731"><ele>78.99</ele><time>2026-08-29T12:43:15Z</time></trkpt><trkpt lat="60.2339274622" lon="30.4909536894"><ele>79.82</ele><time>2026-08-29T12:43:28Z</time></trkpt><trkpt lat="60.2339189965" lon="30.4908403661"><ele>79.16</ele><time>2026-08-29T12:43:40Z</time></trkpt><trkpt lat="60.2339236066" lon="30.4906298965"><ele>78.76</ele><time>2026-08-29T12:43:55Z</time></trkpt><trkpt lat="60.2339181583" lon="30.4906041641"><ele>78.71</ele><time>2026-08-29T12:44:11Z</time></trkpt><trkpt lat="60.2338980418" lon="30.4906022362"><ele>78.89</ele><time>2026-08-29T12:44:40Z</time></trkpt><trkpt lat="60.2339141350" lon="30.4905492626"><ele>78.80</ele><time>2026-08-29T12:45:32Z</time></trkpt><trkpt lat="60.2339153923" lon="30.4905565549"><ele>78.54</ele><time>2026-08-29T12:46:14Z</time></trkpt><trkpt lat="60.2339176554" lon="30.4905535374"><ele>78.35</ele><time>2026-08-29T12:46:40Z</time></trkpt><trkpt lat="60.2339330781" lon="30.4905675352"><ele>79.55</ele><time>2026-08-29T12:47:03Z</time></trkpt><trkpt lat="60.2339366823" lon="30.4905645177"><ele>78.87</ele><time>2026-08-29T12:48:16Z</time></trkpt><trkpt lat="60.2339313179" lon="30.4905615840"><ele>78.07</ele><time>2026-08-29T12:48:57Z</time></trkpt><trkpt lat="60.2339116205" lon="30.4905487597"><ele>77.93</ele><time>2026-08-29T12:49:25Z</time></trkpt><trkpt lat="60.2338789310" lon="30.4904029984"><ele>78.07</ele><time>2026-08-29T12:49:37Z</time></trkpt><trkpt lat="60.2338870615" lon="30.4903089534"><ele>78.87</ele><time>2026-08-29T12:49:44Z</time></trkpt><trkpt lat="60.2338788472" lon="30.4902267270"><ele>78.74</ele><time>2026-08-29T12:49:48Z</time></trkpt><trkpt lat="60.2338772547" lon="30.4900907725"><ele>77.52</ele><time>2026-08-29T12:49:55Z</time></trkpt><trkpt lat="60.2338312380" lon="30.4899659660"><ele>77.94</ele><time>2026-08-29T12:50:04Z</time></trkpt><trkpt lat="60.2338555455" lon="30.4898126610"><ele>78.01</ele><time>2026-08-29T12:50:17Z</time></trkpt><trkpt lat="60.2338659391" lon="30.4895040393"><ele>77.28</ele><time>2026-08-29T12:50:31Z</time></trkpt><trkpt lat="60.2338700462" lon="30.4894713499"><ele>78.39</ele><time>2026-08-29T12:50:34Z</time></trkpt><trkpt lat="60.2338662744" lon="30.4894286860"><ele>77.98</ele><time>2026-08-29T12:50:36Z</time></trkpt><trkpt lat="60.2338823676" lon="30.4892242514"><ele>78.21</ele><time>2026-08-29T12:50:47Z</time></trkpt><trkpt lat="60.2338902466" lon="30.4891554359"><ele>78.45</ele><time>2026-08-29T12:50:51Z</time></trkpt><trkpt lat="60.2339022327" lon="30.4889699444"><ele>78.51</ele><time>2026-08-29T12:51:01Z</time></trkpt><trkpt lat="60.2339181583" lon="30.4887576308"><ele>77.58</ele><time>2026-08-29T12:51:12Z</time></trkpt><trkpt lat="60.2339091897" lon="30.4886733927"><ele>77.69</ele><time>2026-08-29T12:51:16Z</time></trkpt><trkpt lat="60.2338956948" lon="30.4884617496"><ele>78.03</ele><time>2026-08-29T12:51:28Z</time></trkpt><trkpt lat="60.2338874806" lon="30.4883537907"><ele>77.79</ele><time>2026-08-29T12:51:34Z</time></trkpt><trkpt lat="60.2338838764" lon="30.4882159922"><ele>76.91</ele><time>2026-08-29T12:51:43Z</time></trkpt><trkpt lat="60.2339267917" lon="30.4880977236"><ele>77.51</ele><time>2026-08-29T12:51:50Z</time></trkpt><trkpt lat="60.2339553740" lon="30.4879785329"><ele>77.53</ele><time>2026-08-29T12:51:57Z</time></trkpt><trkpt lat="60.2339916676" lon="30.4877706617"><ele>77.78</ele><time>2026-08-29T12:52:10Z</time></trkpt><trkpt lat="60.2340484969" lon="30.4875897802"><ele>78.16</ele><time>2026-08-29T12:52:23Z</time></trkpt><trkpt lat="60.2341330703" lon="30.4874625430"><ele>77.54</ele><time>2026-08-29T12:52:35Z</time></trkpt><trkpt lat="60.2342360839" lon="30.4874021932"><ele>78.06</ele><time>2026-08-29T12:52:51Z</time></trkpt><trkpt lat="60.2342977747" lon="30.4873030353"><ele>77.29</ele><time>2026-08-29T12:53:02Z</time></trkpt><trkpt lat="60.2343685180" lon="30.4871631414"><ele>77.94</ele><time>2026-08-29T12:53:17Z</time></trkpt><trkpt lat="60.2343360800" lon="30.4872116726"><ele>77.54</ele><time>2026-08-29T12:53:32Z</time></trkpt><trkpt lat="60.2343337331" lon="30.4872183781"><ele>77.16</ele><time>2026-08-29T12:53:57Z</time></trkpt><trkpt lat="60.2343291230" lon="30.4872390814"><ele>76.83</ele><time>2026-08-29T12:54:50Z</time></trkpt><trkpt lat="60.2343320567" lon="30.4872147739"><ele>76.81</ele><time>2026-08-29T12:54:59Z</time></trkpt><trkpt lat="60.2343956754" lon="30.4871392529"><ele>76.91</ele><time>2026-08-29T12:55:08Z</time></trkpt><trkpt lat="60.2344595455" lon="30.4870148655"><ele>76.84</ele><time>2026-08-29T12:55:22Z</time></trkpt><trkpt lat="60.2344812546" lon="30.4869702738"><ele>76.62</ele><time>2026-08-29T12:55:26Z</time></trkpt><trkpt lat="60.2345576137" lon="30.4868947528"><ele>77.69</ele><time>2026-08-29T12:55:38Z</time></trkpt><trkpt lat="60.2345932368" lon="30.4868082516"><ele>77.34</ele><time>2026-08-29T12:55:44Z</time></trkpt><trkpt lat="60.2346339729" lon="30.4866959341"><ele>76.19</ele><time>2026-08-29T12:55:51Z</time></trkpt><trkpt lat="60.2346670814" lon="30.4866095167"><ele>76.92</ele><time>2026-08-29T12:55:56Z</time></trkpt><trkpt lat="60.2346608788" lon="30.4865475744"><ele>76.66</ele><time>2026-08-29T12:56:07Z</time></trkpt><trkpt lat="60.2346359845" lon="30.4865111969"><ele>76.35</ele><time>2026-08-29T12:56:25Z</time></trkpt><trkpt lat="60.2346730325" lon="30.4864520207"><ele>76.50</ele><time>2026-08-29T12:56:45Z</time></trkpt><trkpt lat="60.2347117569" lon="30.4863362666"><ele>76.50</ele><time>2026-08-29T12:56:56Z</time></trkpt><trkpt lat="60.2347524930" lon="30.4862874839"><ele>76.67</ele><time>2026-08-29T12:57:02Z</time></trkpt><trkpt lat="60.2347838413" lon="30.4862389527"><ele>76.83</ele><time>2026-08-29T12:57:05Z</time></trkpt><trkpt lat="60.2348741982" lon="30.4861454945"><ele>76.78</ele><time>2026-08-29T12:57:19Z</time></trkpt><trkpt lat="60.2348847594" lon="30.4860794451"><ele>76.68</ele><time>2026-08-29T12:57:24Z</time></trkpt><trkpt lat="60.2349720988" lon="30.4859754257"><ele>76.83</ele><time>2026-08-29T12:57:37Z</time></trkpt><trkpt lat="60.2350560855" lon="30.4857943766"><ele>77.03</ele><time>2026-08-29T12:57:50Z</time></trkpt><trkpt lat="60.2350754477" lon="30.4856165964"><ele>77.31</ele><time>2026-08-29T12:58:04Z</time></trkpt><trkpt lat="60.2352018468" lon="30.4854632076"><ele>77.10</ele><time>2026-08-29T12:58:21Z</time></trkpt><trkpt lat="60.2353097219" lon="30.4855238926"><ele>75.98</ele><time>2026-08-29T12:58:34Z</time></trkpt><trkpt lat="60.2354000788" lon="30.4854942206"><ele>77.12</ele><time>2026-08-29T12:58:46Z</time></trkpt><trkpt lat="60.2355045173" lon="30.4854784627"><ele>76.51</ele><time>2026-08-29T12:59:03Z</time></trkpt><trkpt lat="60.2355710696" lon="30.4855115712"><ele>76.49</ele><time>2026-08-29T12:59:08Z</time></trkpt><trkpt lat="60.2356843930" lon="30.4856252298"><ele>76.36</ele><time>2026-08-29T12:59:22Z</time></trkpt><trkpt lat="60.2358034998" lon="30.4856614396"><ele>76.13</ele><time>2026-08-29T12:59:37Z</time></trkpt><trkpt lat="60.2358253766" lon="30.4856353719"><ele>76.36</ele><time>2026-08-29T12:59:42Z</time></trkpt><trkpt lat="60.2358704712" lon="30.4855997488"><ele>76.23</ele><time>2026-08-29T12:59:45Z</time></trkpt><trkpt lat="60.2359408792" lon="30.4855900258"><ele>76.51</ele><time>2026-08-29T12:59:50Z</time></trkpt><trkpt lat="60.2360312361" lon="30.4857291654"><ele>76.29</ele><time>2026-08-29T13:00:03Z</time></trkpt><trkpt lat="60.2361508459" lon="30.4858263955"><ele>77.06</ele><time>2026-08-29T13:00:17Z</time></trkpt><trkpt lat="60.2362071723" lon="30.4858515412"><ele>76.79</ele><time>2026-08-29T13:00:30Z</time></trkpt><trkpt lat="60.2362919971" lon="30.4858514573"><ele>76.68</ele><time>2026-08-29T13:00:41Z</time></trkpt><trkpt lat="60.2363417856" lon="30.4858644493"><ele>76.68</ele><time>2026-08-29T13:00:46Z</time></trkpt><trkpt lat="60.2364590485" lon="30.4859891720"><ele>76.65</ele><time>2026-08-29T13:01:01Z</time></trkpt><trkpt lat="60.2365296241" lon="30.4860829655"><ele>76.66</ele><time>2026-08-29T13:01:12Z</time></trkpt><trkpt lat="60.2365819272" lon="30.4861869849"><ele>76.74</ele><time>2026-08-29T13:01:17Z</time></trkpt><trkpt lat="60.2366883773" lon="30.4863094445"><ele>76.46</ele><time>2026-08-29T13:01:26Z</time></trkpt><trkpt lat="60.2367740404" lon="30.4863357637"><ele>76.83</ele><time>2026-08-29T13:01:40Z</time></trkpt><trkpt lat="60.2367983479" lon="30.4863654356"><ele>76.65</ele><time>2026-08-29T13:01:43Z</time></trkpt><trkpt lat="60.2368844301" lon="30.4865205847"><ele>78.09</ele><time>2026-08-29T13:01:55Z</time></trkpt><trkpt lat="60.2369057201" lon="30.4865359236"><ele>78.70</ele><time>2026-08-29T13:01:57Z</time></trkpt><trkpt lat="60.2369520720" lon="30.4865495861"><ele>76.99</ele><time>2026-08-29T13:02:04Z</time></trkpt><trkpt lat="60.2370810695" lon="30.4866591375"><ele>76.03</ele><time>2026-08-29T13:02:17Z</time></trkpt><trkpt lat="60.2371305227" lon="30.4867326468"><ele>76.48</ele><time>2026-08-29T13:02:28Z</time></trkpt><trkpt lat="60.2371864300" lon="30.4867178947"><ele>76.81</ele><time>2026-08-29T13:02:42Z</time></trkpt><trkpt lat="60.2372585982" lon="30.4866868816"><ele>77.28</ele><time>2026-08-29T13:02:56Z</time></trkpt><trkpt lat="60.2372831572" lon="30.4866977781"><ele>76.58</ele><time>2026-08-29T13:03:16Z</time></trkpt><trkpt lat="60.2373056207" lon="30.4866763204"><ele>76.37</ele><time>2026-08-29T13:03:20Z</time></trkpt><trkpt lat="60.2373369690" lon="30.4867095966"><ele>76.47</ele><time>2026-08-29T13:03:24Z</time></trkpt><trkpt lat="60.2374045271" lon="30.4869213235"><ele>76.45</ele><time>2026-08-29T13:03:38Z</time></trkpt><trkpt lat="60.2374619432" lon="30.4869314656"><ele>76.48</ele><time>2026-08-29T13:03:48Z</time></trkpt><trkpt lat="60.2375113964" lon="30.4868650809"><ele>76.54</ele><time>2026-08-29T13:03:56Z</time></trkpt><trkpt lat="60.2375796251" lon="30.4868588783"><ele>76.74</ele><time>2026-08-29T13:04:02Z</time></trkpt><trkpt lat="60.2376671322" lon="30.4868357442"><ele>76.88</ele><time>2026-08-29T13:04:11Z</time></trkpt><trkpt lat="60.2377114724" lon="30.4868047312"><ele>76.90</ele><time>2026-08-29T13:04:16Z</time></trkpt><trkpt lat="60.2377564833" lon="30.4867984448"><ele>76.91</ele><time>2026-08-29T13:04:20Z</time></trkpt><trkpt lat="60.2377925254" lon="30.4867492430"><ele>76.99</ele><time>2026-08-29T13:04:24Z</time></trkpt><trkpt lat="60.2378212754" lon="30.4866912402"><ele>77.06</ele><time>2026-08-29T13:04:28Z</time></trkpt><trkpt lat="60.2379377000" lon="30.4866351653"><ele>77.41</ele><time>2026-08-29T13:04:37Z</time></trkpt><trkpt lat="60.2380401269" lon="30.4865132924"><ele>77.65</ele><time>2026-08-29T13:04:50Z</time></trkpt><trkpt lat="60.2381492592" lon="30.4864247795"><ele>77.72</ele><time>2026-08-29T13:05:03Z</time></trkpt><trkpt lat="60.2381697949" lon="30.4864259530"><ele>77.52</ele><time>2026-08-29T13:05:06Z</time></trkpt><trkpt lat="60.2383286320" lon="30.4863472469"><ele>76.78</ele><time>2026-08-29T13:05:18Z</time></trkpt><trkpt lat="60.2384547796" lon="30.4863578919"><ele>77.96</ele><time>2026-08-29T13:05:31Z</time></trkpt><trkpt lat="60.2384577133" lon="30.4862838797"><ele>77.57</ele><time>2026-08-29T13:05:34Z</time></trkpt><trkpt lat="60.2384782489" lon="30.4860855639"><ele>77.19</ele><time>2026-08-29T13:05:46Z</time></trkpt><trkpt lat="60.2384900674" lon="30.4860701412"><ele>77.23</ele><time>2026-08-29T13:05:49Z</time></trkpt><trkpt lat="60.2385713719" lon="30.4859721567"><ele>77.52</ele><time>2026-08-29T13:06:01Z</time></trkpt><trkpt lat="60.2386152931" lon="30.4859301634"><ele>78.29</ele><time>2026-08-29T13:06:04Z</time></trkpt><trkpt lat="60.2386688534" lon="30.4858806264"><ele>77.98</ele><time>2026-08-29T13:06:07Z</time></trkpt><trkpt lat="60.2386916522" lon="30.4858917743"><ele>77.49</ele><time>2026-08-29T13:06:09Z</time></trkpt><trkpt lat="60.2387438715" lon="30.4856619425"><ele>77.44</ele><time>2026-08-29T13:06:19Z</time></trkpt><trkpt lat="60.2388447057" lon="30.4855449311"><ele>78.01</ele><time>2026-08-29T13:06:29Z</time></trkpt><trkpt lat="60.2388895489" lon="30.4855322745"><ele>78.49</ele><time>2026-08-29T13:06:32Z</time></trkpt><trkpt lat="60.2389289439" lon="30.4855088051"><ele>77.36</ele><time>2026-08-29T13:06:35Z</time></trkpt><trkpt lat="60.2389827557" lon="30.4853873514"><ele>77.28</ele><time>2026-08-29T13:06:40Z</time></trkpt><trkpt lat="60.2390212286" lon="30.4852667358"><ele>77.64</ele><time>2026-08-29T13:06:46Z</time></trkpt><trkpt lat="60.2390796505" lon="30.4851407558"><ele>77.27</ele><time>2026-08-29T13:06:52Z</time></trkpt><trkpt lat="60.2391217276" lon="30.4850858543"><ele>77.37</ele><time>2026-08-29T13:06:58Z</time></trkpt><trkpt lat="60.2392019425" lon="30.4849168751"><ele>77.41</ele><time>2026-08-29T13:07:09Z</time></trkpt><trkpt lat="60.2392347995" lon="30.4846918210"><ele>77.15</ele><time>2026-08-29T13:07:20Z</time></trkpt><trkpt lat="60.2392678242" lon="30.4844317306"><ele>77.26</ele><time>2026-08-29T13:07:32Z</time></trkpt><trkpt lat="60.2392299380" lon="30.4842180759"><ele>77.14</ele><time>2026-08-29T13:07:44Z</time></trkpt><trkpt lat="60.2392805647" lon="30.4841051716"><ele>77.53</ele><time>2026-08-29T13:07:57Z</time></trkpt><trkpt lat="60.2392904554" lon="30.4838522896"><ele>78.55</ele><time>2026-08-29T13:08:10Z</time></trkpt><trkpt lat="60.2392998431" lon="30.4837256391"><ele>78.50</ele><time>2026-08-29T13:08:19Z</time></trkpt><trkpt lat="60.2394754440" lon="30.4835788719"><ele>78.17</ele><time>2026-08-29T13:08:33Z</time></trkpt><trkpt lat="60.2395363804" lon="30.4835872538"><ele>78.20</ele><time>2026-08-29T13:08:40Z</time></trkpt><trkpt lat="60.2395657171" lon="30.4835545644"><ele>78.02</ele><time>2026-08-29T13:08:43Z</time></trkpt><trkpt lat="60.2396128234" lon="30.4834658839"><ele>77.99</ele><time>2026-08-29T13:08:46Z</time></trkpt><trkpt lat="60.2396697365" lon="30.4834129941"><ele>77.96</ele><time>2026-08-29T13:08:50Z</time></trkpt><trkpt lat="60.2397909388" lon="30.4833941348"><ele>78.80</ele><time>2026-08-29T13:09:04Z</time></trkpt><trkpt lat="60.2398983110" lon="30.4834720865"><ele>77.73</ele><time>2026-08-29T13:09:20Z</time></trkpt><trkpt lat="60.2400080301" lon="30.4834638722"><ele>79.11</ele><time>2026-08-29T13:09:30Z</time></trkpt><trkpt lat="60.2401412185" lon="30.4835527204"><ele>79.26</ele><time>2026-08-29T13:09:42Z</time></trkpt><trkpt lat="60.2402200922" lon="30.4836651217"><ele>79.33</ele><time>2026-08-29T13:09:54Z</time></trkpt><trkpt lat="60.2402672824" lon="30.4836632777"><ele>79.10</ele><time>2026-08-29T13:09:59Z</time></trkpt><trkpt lat="60.2403552923" lon="30.4836751800"><ele>78.99</ele><time>2026-08-29T13:10:11Z</time></trkpt><trkpt lat="60.2403878979" lon="30.4836883396"><ele>79.22</ele><time>2026-08-29T13:10:14Z</time></trkpt><trkpt lat="60.2405212540" lon="30.4836830590"><ele>78.71</ele><time>2026-08-29T13:10:30Z</time></trkpt><trkpt lat="60.2405257802" lon="30.4836338572"><ele>78.41</ele><time>2026-08-29T13:10:50Z</time></trkpt><trkpt lat="60.2405695338" lon="30.4836009163"><ele>78.36</ele><time>2026-08-29T13:10:57Z</time></trkpt><trkpt lat="60.2405943442" lon="30.4835529719"><ele>78.49</ele><time>2026-08-29T13:11:01Z</time></trkpt><trkpt lat="60.2406367566" lon="30.4835052788"><ele>79.16</ele><time>2026-08-29T13:11:07Z</time></trkpt><trkpt lat="60.2408019640" lon="30.4834538978"><ele>80.09</ele><time>2026-08-29T13:11:20Z</time></trkpt><trkpt lat="60.2408588771" lon="30.4834737629"><ele>79.77</ele><time>2026-08-29T13:11:24Z</time></trkpt><trkpt lat="60.2409373317" lon="30.4834262375"><ele>79.70</ele><time>2026-08-29T13:11:31Z</time></trkpt><trkpt lat="60.2409618907" lon="30.4833856691"><ele>79.25</ele><time>2026-08-29T13:11:33Z</time></trkpt><trkpt lat="60.2410565224" lon="30.4834565800"><ele>79.36</ele><time>2026-08-29T13:11:45Z</time></trkpt><trkpt lat="60.2411327977" lon="30.4834293388"><ele>80.61</ele><time>2026-08-29T13:11:53Z</time></trkpt><trkpt lat="60.2412369847" lon="30.4835074581"><ele>80.27</ele><time>2026-08-29T13:12:03Z</time></trkpt><trkpt lat="60.2413837519" lon="30.4836181831"><ele>80.52</ele><time>2026-08-29T13:12:16Z</time></trkpt><trkpt lat="60.2414298523" lon="30.4836293310"><ele>80.39</ele><time>2026-08-29T13:12:20Z</time></trkpt><trkpt lat="60.2414684929" lon="30.4836974759"><ele>80.19</ele><time>2026-08-29T13:12:23Z</time></trkpt><trkpt lat="60.2415975742" lon="30.4837559815"><ele>80.07</ele><time>2026-08-29T13:12:35Z</time></trkpt><trkpt lat="60.2416456863" lon="30.4837815464"><ele>80.07</ele><time>2026-08-29T13:12:40Z</time></trkpt><trkpt lat="60.2417410724" lon="30.4838898405"><ele>79.94</ele><time>2026-08-29T13:12:50Z</time></trkpt><trkpt lat="60.2418476902" lon="30.4839600809"><ele>80.01</ele><time>2026-08-29T13:12:59Z</time></trkpt><trkpt lat="60.2419807948" lon="30.4839640204"><ele>80.58</ele><time>2026-08-29T13:13:10Z</time></trkpt><trkpt lat="60.2420125622" lon="30.4840004817"><ele>80.32</ele><time>2026-08-29T13:13:13Z</time></trkpt><trkpt lat="60.2420846466" lon="30.4840854742"><ele>80.24</ele><time>2026-08-29T13:13:22Z</time></trkpt><trkpt lat="60.2421295736" lon="30.4841822851"><ele>80.34</ele><time>2026-08-29T13:13:34Z</time></trkpt><trkpt lat="60.2421355247" lon="30.4842834547"><ele>80.48</ele><time>2026-08-29T13:13:38Z</time></trkpt><trkpt lat="60.2421908453" lon="30.4845319781"><ele>79.19</ele><time>2026-08-29T13:13:50Z</time></trkpt><trkpt lat="60.2422027476" lon="30.4845487420"><ele>79.12</ele><time>2026-08-29T13:13:51Z</time></trkpt><trkpt lat="60.2422442380" lon="30.4846698605"><ele>79.19</ele><time>2026-08-29T13:13:58Z</time></trkpt><trkpt lat="60.2424076013" lon="30.4848763905"><ele>79.88</ele><time>2026-08-29T13:14:12Z</time></trkpt><trkpt lat="60.2424577251" lon="30.4848865326"><ele>80.29</ele><time>2026-08-29T13:14:17Z</time></trkpt><trkpt lat="60.2425156441" lon="30.4848515801"><ele>80.76</ele><time>2026-08-29T13:14:22Z</time></trkpt><trkpt lat="60.2425446454" lon="30.4848926514"><ele>81.07</ele><time>2026-08-29T13:14:25Z</time></trkpt><trkpt lat="60.2425786760" lon="30.4849255923"><ele>80.15</ele><time>2026-08-29T13:14:28Z</time></trkpt><trkpt lat="60.2426222619" lon="30.4850289412"><ele>80.64</ele><time>2026-08-29T13:14:33Z</time></trkpt><trkpt lat="60.2427258622" lon="30.4852555878"><ele>79.93</ele><time>2026-08-29T13:14:43Z</time></trkpt><trkpt lat="60.2427705377" lon="30.4852889478"><ele>80.23</ele><time>2026-08-29T13:14:47Z</time></trkpt><trkpt lat="60.2427873854" lon="30.4853149317"><ele>80.14</ele><time>2026-08-29T13:14:49Z</time></trkpt><trkpt lat="60.2428436279" lon="30.4854493774"><ele>79.81</ele><time>2026-08-29T13:14:57Z</time></trkpt><trkpt lat="60.2428695280" lon="30.4854848329"><ele>79.25</ele><time>2026-08-29T13:15:01Z</time></trkpt><trkpt lat="60.2429219987" lon="30.4856834840"><ele>79.35</ele><time>2026-08-29T13:15:13Z</time></trkpt><trkpt lat="60.2429589629" lon="30.4857217893"><ele>79.49</ele><time>2026-08-29T13:15:16Z</time></trkpt><trkpt lat="60.2430081647" lon="30.4858810455"><ele>80.33</ele><time>2026-08-29T13:15:23Z</time></trkpt><trkpt lat="60.2430829313" lon="30.4860376194"><ele>80.32</ele><time>2026-08-29T13:15:33Z</time></trkpt><trkpt lat="60.2431374975" lon="30.4861385375"><ele>80.30</ele><time>2026-08-29T13:15:40Z</time></trkpt><trkpt lat="60.2431735396" lon="30.4862000607"><ele>80.14</ele><time>2026-08-29T13:15:45Z</time></trkpt><trkpt lat="60.2432733681" lon="30.4863833729"><ele>80.25</ele><time>2026-08-29T13:15:58Z</time></trkpt><trkpt lat="60.2433596179" lon="30.4864249472"><ele>79.60</ele><time>2026-08-29T13:16:05Z</time></trkpt><trkpt lat="60.2434854303" lon="30.4864904098"><ele>79.99</ele><time>2026-08-29T13:16:19Z</time></trkpt><trkpt lat="60.2435230650" lon="30.4865133762"><ele>79.82</ele><time>2026-08-29T13:16:24Z</time></trkpt><trkpt lat="60.2436394896" lon="30.4864903260"><ele>80.54</ele><time>2026-08-29T13:16:36Z</time></trkpt><trkpt lat="60.2437537350" lon="30.4866052419"><ele>80.91</ele><time>2026-08-29T13:16:48Z</time></trkpt><trkpt lat="60.2437888552" lon="30.4866399430"><ele>80.80</ele><time>2026-08-29T13:16:51Z</time></trkpt><trkpt lat="60.2438084688" lon="30.4866456427"><ele>80.68</ele><time>2026-08-29T13:16:53Z</time></trkpt><trkpt lat="60.2439326886" lon="30.4869556893"><ele>79.00</ele><time>2026-08-29T13:17:08Z</time></trkpt><trkpt lat="60.2439918648" lon="30.4870560206"><ele>79.67</ele><time>2026-08-29T13:17:21Z</time></trkpt><trkpt lat="60.2440892626" lon="30.4869802482"><ele>79.65</ele><time>2026-08-29T13:17:33Z</time></trkpt><trkpt lat="60.2442154102" lon="30.4869251791"><ele>78.90</ele><time>2026-08-29T13:17:47Z</time></trkpt><trkpt lat="60.2442391310" lon="30.4868958425"><ele>79.04</ele><time>2026-08-29T13:17:50Z</time></trkpt><trkpt lat="60.2443822939" lon="30.4868504964"><ele>80.70</ele><time>2026-08-29T13:18:03Z</time></trkpt><trkpt lat="60.2444720641" lon="30.4867956787"><ele>80.14</ele><time>2026-08-29T13:18:12Z</time></trkpt><trkpt lat="60.2445982955" lon="30.4867583793"><ele>81.34</ele><time>2026-08-29T13:18:27Z</time></trkpt><trkpt lat="60.2446607407" lon="30.4866954312"><ele>83.71</ele><time>2026-08-29T13:18:33Z</time></trkpt><trkpt lat="60.2446967829" lon="30.4866455588"><ele>83.70</ele><time>2026-08-29T13:18:37Z</time></trkpt><trkpt lat="60.2447757404" lon="30.4865642544"><ele>85.60</ele><time>2026-08-29T13:18:52Z</time></trkpt><trkpt lat="60.2447622456" lon="30.4865840357"><ele>86.26</ele><time>2026-08-29T13:19:14Z</time></trkpt><trkpt lat="60.2447393630" lon="30.4866412841"><ele>85.73</ele><time>2026-08-29T13:19:30Z</time></trkpt><trkpt lat="60.2447830327" lon="30.4865932558"><ele>85.60</ele><time>2026-08-29T13:19:43Z</time></trkpt><trkpt lat="60.2448140457" lon="30.4865894839"><ele>85.77</ele><time>2026-08-29T13:19:45Z</time></trkpt><trkpt lat="60.2449215855" lon="30.4865510948"><ele>83.75</ele><time>2026-08-29T13:19:59Z</time></trkpt><trkpt lat="60.2449996211" lon="30.4864707962"><ele>83.04</ele><time>2026-08-29T13:20:14Z</time></trkpt><trkpt lat="60.2450028900" lon="30.4864682816"><ele>83.04</ele><time>2026-08-29T13:20:18Z</time></trkpt><trkpt lat="60.2450596355" lon="30.4866190720"><ele>82.69</ele><time>2026-08-29T13:20:32Z</time></trkpt><trkpt lat="60.2450442966" lon="30.4866461456"><ele>83.22</ele><time>2026-08-29T13:20:57Z</time></trkpt><trkpt lat="60.2450346574" lon="30.4868618958"><ele>82.98</ele><time>2026-08-29T13:21:08Z</time></trkpt><trkpt lat="60.2450197376" lon="30.4869503248"><ele>82.73</ele><time>2026-08-29T13:21:12Z</time></trkpt><trkpt lat="60.2450069971" lon="30.4870614689"><ele>83.24</ele><time>2026-08-29T13:21:16Z</time></trkpt><trkpt lat="60.2449591365" lon="30.4873950686"><ele>81.09</ele><time>2026-08-29T13:21:30Z</time></trkpt><trkpt lat="60.2449441329" lon="30.4875740223"><ele>81.77</ele><time>2026-08-29T13:21:42Z</time></trkpt><trkpt lat="60.2448884770" lon="30.4879455920"><ele>80.34</ele><time>2026-08-29T13:21:58Z</time></trkpt><trkpt lat="60.2448462322" lon="30.4882074427"><ele>80.63</ele><time>2026-08-29T13:22:11Z</time></trkpt><trkpt lat="60.2448684443" lon="30.4883638490"><ele>79.70</ele><time>2026-08-29T13:22:26Z</time></trkpt><trkpt lat="60.2448965237" lon="30.4886886477"><ele>80.39</ele><time>2026-08-29T13:22:42Z</time></trkpt><trkpt lat="60.2448272891" lon="30.4889678489"><ele>79.95</ele><time>2026-08-29T13:22:54Z</time></trkpt><trkpt lat="60.2447648440" lon="30.4891687632"><ele>79.43</ele><time>2026-08-29T13:23:07Z</time></trkpt><trkpt lat="60.2446903288" lon="30.4894333798"><ele>78.78</ele><time>2026-08-29T13:23:21Z</time></trkpt><trkpt lat="60.2447075956" lon="30.4894771334"><ele>78.63</ele><time>2026-08-29T13:23:32Z</time></trkpt><trkpt lat="60.2447734773" lon="30.4895150196"><ele>78.61</ele><time>2026-08-29T13:23:38Z</time></trkpt><trkpt lat="60.2448309772" lon="30.4894857667"><ele>78.01</ele><time>2026-08-29T13:23:43Z</time></trkpt><trkpt lat="60.2449469827" lon="30.4895710945"><ele>78.12</ele><time>2026-08-29T13:23:56Z</time></trkpt><trkpt lat="60.2450389322" lon="30.4896126688"><ele>78.26</ele><time>2026-08-29T13:24:07Z</time></trkpt><trkpt lat="60.2450678498" lon="30.4896324500"><ele>78.38</ele><time>2026-08-29T13:24:09Z</time></trkpt><trkpt lat="60.2451128606" lon="30.4896815680"><ele>78.88</ele><time>2026-08-29T13:24:12Z</time></trkpt><trkpt lat="60.2452256810" lon="30.4896112438"><ele>79.02</ele><time>2026-08-29T13:24:24Z</time></trkpt><trkpt lat="60.2453155350" lon="30.4896106571"><ele>78.50</ele><time>2026-08-29T13:24:32Z</time></trkpt><trkpt lat="60.2453870326" lon="30.4896820709"><ele>78.33</ele><time>2026-08-29T13:24:39Z</time></trkpt><trkpt lat="60.2455147728" lon="30.4897237290"><ele>78.06</ele><time>2026-08-29T13:24:51Z</time></trkpt><trkpt lat="60.2456319518" lon="30.4898544867"><ele>77.93</ele><time>2026-08-29T13:25:05Z</time></trkpt><trkpt lat="60.2456484642" lon="30.4898962285"><ele>77.67</ele><time>2026-08-29T13:25:09Z</time></trkpt><trkpt lat="60.2457696665" lon="30.4900385533"><ele>77.42</ele><time>2026-08-29T13:25:23Z</time></trkpt><trkpt lat="60.2457961533" lon="30.4900841508"><ele>77.71</ele><time>2026-08-29T13:25:26Z</time></trkpt><trkpt lat="60.2459339518" lon="30.4900901858"><ele>78.22</ele><time>2026-08-29T13:25:42Z</time></trkpt><trkpt lat="60.2460648771" lon="30.4900259804"><ele>77.59</ele><time>2026-08-29T13:25:55Z</time></trkpt><trkpt lat="60.2462234627" lon="30.4900545627"><ele>77.87</ele><time>2026-08-29T13:26:10Z</time></trkpt><trkpt lat="60.2463578247" lon="30.4901259765"><ele>78.06</ele><time>2026-08-29T13:26:24Z</time></trkpt><trkpt lat="60.2464574855" lon="30.4902013298"><ele>78.09</ele><time>2026-08-29T13:26:34Z</time></trkpt><trkpt lat="60.2465051785" lon="30.4902881663"><ele>78.03</ele><time>2026-08-29T13:26:38Z</time></trkpt><trkpt lat="60.2466154844" lon="30.4903908446"><ele>77.82</ele><time>2026-08-29T13:26:51Z</time></trkpt><trkpt lat="60.2467299812" lon="30.4905820359"><ele>78.60</ele><time>2026-08-29T13:27:05Z</time></trkpt><trkpt lat="60.2467979584" lon="30.4906350095"><ele>77.54</ele><time>2026-08-29T13:27:12Z</time></trkpt><trkpt lat="60.2468735632" lon="30.4905109573"><ele>78.24</ele><time>2026-08-29T13:27:19Z</time></trkpt><trkpt lat="60.2470040694" lon="30.4906592332"><ele>78.57</ele><time>2026-08-29T13:27:31Z</time></trkpt><trkpt lat="60.2470491640" lon="30.4907071777"><ele>78.17</ele><time>2026-08-29T13:27:37Z</time></trkpt><trkpt lat="60.2470741421" lon="30.4907131288"><ele>78.32</ele><time>2026-08-29T13:27:40Z</time></trkpt><trkpt lat="60.2472015470" lon="30.4907085188"><ele>77.55</ele><time>2026-08-29T13:27:50Z</time></trkpt><trkpt lat="60.2473236714" lon="30.4907790106"><ele>78.47</ele><time>2026-08-29T13:28:04Z</time></trkpt><trkpt lat="60.2473968454" lon="30.4907220975"><ele>77.85</ele><time>2026-08-29T13:28:14Z</time></trkpt><trkpt lat="60.2474380843" lon="30.4907421302"><ele>77.77</ele><time>2026-08-29T13:28:22Z</time></trkpt><trkpt lat="60.2475185506" lon="30.4907400347"><ele>77.77</ele><time>2026-08-29T13:28:28Z</time></trkpt><trkpt lat="60.2476242464" lon="30.4907283839"><ele>78.08</ele><time>2026-08-29T13:28:41Z</time></trkpt><trkpt lat="60.2476434410" lon="30.4907288868"><ele>78.32</ele><time>2026-08-29T13:28:42Z</time></trkpt><trkpt lat="60.2478047926" lon="30.4907369334"><ele>78.59</ele><time>2026-08-29T13:28:55Z</time></trkpt><trkpt lat="60.2478182875" lon="30.4907357600"><ele>78.52</ele><time>2026-08-29T13:28:56Z</time></trkpt><trkpt lat="60.2479222231" lon="30.4907707963"><ele>78.19</ele><time>2026-08-29T13:29:07Z</time></trkpt><trkpt lat="60.2479478717" lon="30.4907573853"><ele>78.10</ele><time>2026-08-29T13:29:09Z</time></trkpt><trkpt lat="60.2480353788" lon="30.4906809423"><ele>79.13</ele><time>2026-08-29T13:29:23Z</time></trkpt><trkpt lat="60.2480790485" lon="30.4906858876"><ele>79.20</ele><time>2026-08-29T13:29:27Z</time></trkpt><trkpt lat="60.2481444273" lon="30.4907738976"><ele>79.06</ele><time>2026-08-29T13:29:33Z</time></trkpt><trkpt lat="60.2482198644" lon="30.4909085948"><ele>78.78</ele><time>2026-08-29T13:29:43Z</time></trkpt><trkpt lat="60.2482829802" lon="30.4909346625"><ele>78.92</ele><time>2026-08-29T13:29:51Z</time></trkpt><trkpt lat="60.2483794559" lon="30.4909574613"><ele>78.92</ele><time>2026-08-29T13:30:06Z</time></trkpt><trkpt lat="60.2483995724" lon="30.4909760691"><ele>78.85</ele><time>2026-08-29T13:30:11Z</time></trkpt><trkpt lat="60.2484720759" lon="30.4909409489"><ele>79.22</ele><time>2026-08-29T13:30:21Z</time></trkpt><trkpt lat="60.2484941203" lon="30.4909154680"><ele>80.33</ele><time>2026-08-29T13:30:23Z</time></trkpt><trkpt lat="60.2485658694" lon="30.4908234347"><ele>81.12</ele><time>2026-08-29T13:30:35Z</time></trkpt><trkpt lat="60.2486408874" lon="30.4907104466"><ele>80.58</ele><time>2026-08-29T13:30:48Z</time></trkpt><trkpt lat="60.2485990617" lon="30.4907052498"><ele>82.04</ele><time>2026-08-29T13:31:04Z</time></trkpt><trkpt lat="60.2485439088" lon="30.4906441458"><ele>86.00</ele><time>2026-08-29T13:31:15Z</time></trkpt><trkpt lat="60.2485037595" lon="30.4905803595"><ele>89.08</ele><time>2026-08-29T13:31:32Z</time></trkpt><trkpt lat="60.2485056035" lon="30.4903724883"><ele>90.76</ele><time>2026-08-29T13:31:47Z</time></trkpt><trkpt lat="60.2485166676" lon="30.4902667925"><ele>90.55</ele><time>2026-08-29T13:31:56Z</time></trkpt><trkpt lat="60.2485181764" lon="30.4900631960"><ele>89.25</ele><time>2026-08-29T13:32:10Z</time></trkpt><trkpt lat="60.2485120576" lon="30.4899122380"><ele>89.23</ele><time>2026-08-29T13:32:24Z</time></trkpt><trkpt lat="60.2485096268" lon="30.4899085499"><ele>88.43</ele><time>2026-08-29T13:32:49Z</time></trkpt><trkpt lat="60.2485229541" lon="30.4897495452"><ele>88.91</ele><time>2026-08-29T13:33:07Z</time></trkpt><trkpt lat="60.2485845610" lon="30.4895861819"><ele>92.00</ele><time>2026-08-29T13:33:22Z</time></trkpt><trkpt lat="60.2485847287" lon="30.4895863496"><ele>92.00</ele><time>2026-08-29T13:33:23Z</time></trkpt><trkpt lat="60.2486417256" lon="30.4895425960"><ele>90.77</ele><time>2026-08-29T13:33:30Z</time></trkpt><trkpt lat="60.2487804461" lon="30.4894751217"><ele>89.39</ele><time>2026-08-29T13:33:42Z</time></trkpt><trkpt lat="60.2488198411" lon="30.4894444440"><ele>88.85</ele><time>2026-08-29T13:33:45Z</time></trkpt><trkpt lat="60.2488885727" lon="30.4893496446"><ele>87.95</ele><time>2026-08-29T13:33:50Z</time></trkpt><trkpt lat="60.2489103656" lon="30.4892957490"><ele>86.81</ele><time>2026-08-29T13:33:52Z</time></trkpt><trkpt lat="60.2489371877" lon="30.4892160371"><ele>86.44</ele><time>2026-08-29T13:33:58Z</time></trkpt><trkpt lat="60.2489874791" lon="30.4892776441"><ele>86.07</ele><time>2026-08-29T13:34:08Z</time></trkpt><trkpt lat="60.2489904966" lon="30.4892597906"><ele>86.09</ele><time>2026-08-29T13:34:11Z</time></trkpt><trkpt lat="60.2490270417" lon="30.4893320426"><ele>85.45</ele><time>2026-08-29T13:34:21Z</time></trkpt><trkpt lat="60.2490467392" lon="30.4893845972"><ele>84.27</ele><time>2026-08-29T13:34:24Z</time></trkpt><trkpt lat="60.2491560392" lon="30.4895661492"><ele>83.68</ele><time>2026-08-29T13:34:36Z</time></trkpt><trkpt lat="60.2492614836" lon="30.4895291850"><ele>83.05</ele><time>2026-08-29T13:34:49Z</time></trkpt><trkpt lat="60.2493504994" lon="30.4895262513"><ele>82.31</ele><time>2026-08-29T13:34:56Z</time></trkpt><trkpt lat="60.2494971827" lon="30.4895208869"><ele>81.46</ele><time>2026-08-29T13:35:11Z</time></trkpt><trkpt lat="60.2495142817" lon="30.4895304423"><ele>81.43</ele><time>2026-08-29T13:35:12Z</time></trkpt><trkpt lat="60.2497339714" lon="30.4897384811"><ele>80.31</ele><time>2026-08-29T13:35:25Z</time></trkpt><trkpt lat="60.2498936467" lon="30.4898758605"><ele>80.24</ele><time>2026-08-29T13:35:39Z</time></trkpt><trkpt lat="60.2500234824" lon="30.4899613559"><ele>80.08</ele><time>2026-08-29T13:35:51Z</time></trkpt><trkpt lat="60.2501603588" lon="30.4901739210"><ele>79.55</ele><time>2026-08-29T13:36:05Z</time></trkpt><trkpt lat="60.2502444293" lon="30.4902449995"><ele>79.78</ele><time>2026-08-29T13:36:12Z</time></trkpt><trkpt lat="60.2503984887" lon="30.4904570617"><ele>79.95</ele><time>2026-08-29T13:36:26Z</time></trkpt><trkpt lat="60.2504806314" lon="30.4906142224"><ele>79.96</ele><time>2026-08-29T13:36:34Z</time></trkpt><trkpt lat="60.2505073696" lon="30.4906709678"><ele>80.14</ele><time>2026-08-29T13:36:37Z</time></trkpt><trkpt lat="60.2505363710" lon="30.4906834569"><ele>80.46</ele><time>2026-08-29T13:36:41Z</time></trkpt><trkpt lat="60.2505915239" lon="30.4906792659"><ele>80.65</ele><time>2026-08-29T13:36:44Z</time></trkpt><trkpt lat="60.2506888378" lon="30.4906938504"><ele>81.23</ele><time>2026-08-29T13:36:52Z</time></trkpt><trkpt lat="60.2507749200" lon="30.4906109534"><ele>81.69</ele><time>2026-08-29T13:36:59Z</time></trkpt><trkpt lat="60.2508864831" lon="30.4905196745"><ele>81.81</ele><time>2026-08-29T13:37:10Z</time></trkpt><trkpt lat="60.2509932686" lon="30.4903068580"><ele>82.01</ele><time>2026-08-29T13:37:23Z</time></trkpt><trkpt lat="60.2510775905" lon="30.4901926965"><ele>82.20</ele><time>2026-08-29T13:37:29Z</time></trkpt><trkpt lat="60.2511345875" lon="30.4901104700"><ele>82.35</ele><time>2026-08-29T13:37:34Z</time></trkpt><trkpt lat="60.2512118686" lon="30.4899758566"><ele>82.44</ele><time>2026-08-29T13:37:42Z</time></trkpt><trkpt lat="60.2512207534" lon="30.4899451789"><ele>82.64</ele><time>2026-08-29T13:37:44Z</time></trkpt><trkpt lat="60.2513320651" lon="30.4897459410"><ele>82.90</ele><time>2026-08-29T13:37:57Z</time></trkpt><trkpt lat="60.2513999585" lon="30.4895074759"><ele>83.10</ele><time>2026-08-29T13:38:08Z</time></trkpt><trkpt lat="60.2514888905" lon="30.4893529974"><ele>83.08</ele><time>2026-08-29T13:38:18Z</time></trkpt><trkpt lat="60.2515694406" lon="30.4891784862"><ele>82.91</ele><time>2026-08-29T13:38:29Z</time></trkpt><trkpt lat="60.2516649943" lon="30.4890600499"><ele>82.37</ele><time>2026-08-29T13:38:37Z</time></trkpt><trkpt lat="60.2517699357" lon="30.4889923241"><ele>82.82</ele><time>2026-08-29T13:38:45Z</time></trkpt><trkpt lat="60.2518957481" lon="30.4889003746"><ele>83.54</ele><time>2026-08-29T13:38:54Z</time></trkpt><trkpt lat="60.2519351430" lon="30.4888711218"><ele>83.49</ele><time>2026-08-29T13:38:57Z</time></trkpt><trkpt lat="60.2520405874" lon="30.4888262786"><ele>84.05</ele><time>2026-08-29T13:39:08Z</time></trkpt><trkpt lat="60.2521165274" lon="30.4887975287"><ele>84.18</ele><time>2026-08-29T13:39:14Z</time></trkpt><trkpt lat="60.2523427550" lon="30.4887746461"><ele>83.52</ele><time>2026-08-29T13:39:31Z</time></trkpt><trkpt lat="60.2524259873" lon="30.4887516797"><ele>83.36</ele><time>2026-08-29T13:39:37Z</time></trkpt><trkpt lat="60.2525250614" lon="30.4887332395"><ele>83.47</ele><time>2026-08-29T13:39:45Z</time></trkpt><trkpt lat="60.2525785379" lon="30.4886880610"><ele>83.16</ele><time>2026-08-29T13:39:50Z</time></trkpt><trkpt lat="60.2526109759" lon="30.4886620771"><ele>83.15</ele><time>2026-08-29T13:39:52Z</time></trkpt><trkpt lat="60.2526967227" lon="30.4885941837"><ele>82.76</ele><time>2026-08-29T13:40:00Z</time></trkpt><trkpt lat="60.2528154943" lon="30.4886221793"><ele>82.44</ele><time>2026-08-29T13:40:07Z</time></trkpt><trkpt lat="60.2529173344" lon="30.4886449780"><ele>82.05</ele><time>2026-08-29T13:40:14Z</time></trkpt><trkpt lat="60.2530081943" lon="30.4886527732"><ele>81.79</ele><time>2026-08-29T13:40:21Z</time></trkpt><trkpt lat="60.2530728187" lon="30.4886640888"><ele>81.63</ele><time>2026-08-29T13:40:26Z</time></trkpt><trkpt lat="60.2531406283" lon="30.4886704590"><ele>81.32</ele><time>2026-08-29T13:40:30Z</time></trkpt><trkpt lat="60.2531717252" lon="30.4886493366"><ele>80.98</ele><time>2026-08-29T13:40:34Z</time></trkpt><trkpt lat="60.2532157302" lon="30.4886358418"><ele>80.65</ele><time>2026-08-29T13:40:38Z</time></trkpt><trkpt lat="60.2532885689" lon="30.4886061698"><ele>80.52</ele><time>2026-08-29T13:40:43Z</time></trkpt><trkpt lat="60.2534097712" lon="30.4884321615"><ele>80.76</ele><time>2026-08-29T13:40:55Z</time></trkpt><trkpt lat="60.2534713782" lon="30.4883407988"><ele>79.67</ele><time>2026-08-29T13:41:00Z</time></trkpt><trkpt lat="60.2535313927" lon="30.4882472567"><ele>79.70</ele><time>2026-08-29T13:41:09Z</time></trkpt><trkpt lat="60.2535819355" lon="30.4882373661"><ele>80.24</ele><time>2026-08-29T13:41:19Z</time></trkpt><trkpt lat="60.2536155470" lon="30.4881868232"><ele>80.18</ele><time>2026-08-29T13:41:22Z</time></trkpt><trkpt lat="60.2536356635" lon="30.4881478474"><ele>80.16</ele><time>2026-08-29T13:41:27Z</time></trkpt><trkpt lat="60.2536898945" lon="30.4880469292"><ele>79.48</ele><time>2026-08-29T13:41:32Z</time></trkpt><trkpt lat="60.2538584545" lon="30.4878809676"><ele>79.35</ele><time>2026-08-29T13:41:46Z</time></trkpt><trkpt lat="60.2539353166" lon="30.4879021738"><ele>79.46</ele><time>2026-08-29T13:41:56Z</time></trkpt><trkpt lat="60.2540473826" lon="30.4879227933"><ele>79.48</ele><time>2026-08-29T13:42:07Z</time></trkpt><trkpt lat="60.2541339677" lon="30.4879043531"><ele>80.15</ele><time>2026-08-29T13:42:14Z</time></trkpt><trkpt lat="60.2542567626" lon="30.4879150819"><ele>79.77</ele><time>2026-08-29T13:42:28Z</time></trkpt><trkpt lat="60.2543395758" lon="30.4879094660"><ele>79.45</ele><time>2026-08-29T13:42:36Z</time></trkpt><trkpt lat="60.2543824911" lon="30.4878959712"><ele>80.15</ele><time>2026-08-29T13:42:40Z</time></trkpt><trkpt lat="60.2544339560" lon="30.4879078735"><ele>80.11</ele><time>2026-08-29T13:42:44Z</time></trkpt><trkpt lat="60.2544672322" lon="30.4879319295"><ele>79.50</ele><time>2026-08-29T13:42:48Z</time></trkpt><trkpt lat="60.2546006721" lon="30.4879541416"><ele>79.40</ele><time>2026-08-29T13:42:59Z</time></trkpt><trkpt lat="60.2546166815" lon="30.4879563209"><ele>79.45</ele><time>2026-08-29T13:43:02Z</time></trkpt><trkpt lat="60.2546649612" lon="30.4879670497"><ele>79.30</ele><time>2026-08-29T13:43:06Z</time></trkpt><trkpt lat="60.2547129896" lon="30.4880241305"><ele>79.07</ele><time>2026-08-29T13:43:10Z</time></trkpt><trkpt lat="60.2548368741" lon="30.4880104680"><ele>79.41</ele><time>2026-08-29T13:43:24Z</time></trkpt><trkpt lat="60.2549271472" lon="30.4880247172"><ele>79.62</ele><time>2026-08-29T13:43:31Z</time></trkpt><trkpt lat="60.2549667936" lon="30.4880284891"><ele>80.03</ele><time>2026-08-29T13:43:43Z</time></trkpt><trkpt lat="60.2549610939" lon="30.4880204424"><ele>80.01</ele><time>2026-08-29T13:43:49Z</time></trkpt><trkpt lat="60.2549493592" lon="30.4879258946"><ele>79.66</ele><time>2026-08-29T13:44:01Z</time></trkpt><trkpt lat="60.2549580764" lon="30.4879122321"><ele>79.37</ele><time>2026-08-29T13:44:07Z</time></trkpt><trkpt lat="60.2549260575" lon="30.4878976475"><ele>78.79</ele><time>2026-08-29T13:44:27Z</time></trkpt><trkpt lat="60.2549288236" lon="30.4878840689"><ele>79.16</ele><time>2026-08-29T13:46:23Z</time></trkpt><trkpt lat="60.2549359482" lon="30.4878590908"><ele>79.64</ele><time>2026-08-29T13:46:41Z</time></trkpt></trkseg></trk></gpx>